<?xml version="1.0" encoding="UTF-8" standalone="no" ?>
<gpx xmlns="http://www.topografix.com/GPX/1/1" xmlns:xsi="http://www.w3.org/2001/XMLSchema-instance" xsi:schemaLocation="http://www.topografix.com/GPX/1/1 http://www.topografix.com/GPX/1/1/gpx.xsd" version="1.1" creator="VisuGPX - https://www.visugpx.com">
  <metadata>
    <name>2017-02-11 randonnée autour de Castelnau-Barbarens (32)</name>
    <desc><![CDATA[randonnée regroupant le PR2 "chemin de Saint Guiraud" et le PR3 "chemin des sources et des bains" du village de Castelnau Barbarens]]></desc>
  </metadata>
  <trk>
    <name><![CDATA[2017-02-11 Castelnau-Barbarens]]></name>
    <trkseg>
      <trkpt lat="43.57582" lon="0.72434">
        <ele>242.87</ele>
        <time>2017-02-11T08:16:25Z</time>
      </trkpt>
      <trkpt lat="43.57582" lon="0.72433">
        <ele>242.87</ele>
        <time>2017-02-11T08:16:26Z</time>
      </trkpt>
      <trkpt lat="43.57583" lon="0.7243">
        <ele>243.35</ele>
        <time>2017-02-11T08:16:58Z</time>
      </trkpt>
      <trkpt lat="43.57584" lon="0.72434">
        <ele>242.39</ele>
        <time>2017-02-11T08:17:14Z</time>
      </trkpt>
      <trkpt lat="43.57583" lon="0.72435">
        <ele>242.87</ele>
        <time>2017-02-11T08:17:29Z</time>
      </trkpt>
      <trkpt lat="43.57584" lon="0.72437">
        <ele>242.39</ele>
        <time>2017-02-11T08:17:50Z</time>
      </trkpt>
      <trkpt lat="43.57579" lon="0.72435">
        <ele>242.39</ele>
        <time>2017-02-11T08:18:08Z</time>
      </trkpt>
      <trkpt lat="43.5758" lon="0.72439">
        <ele>242.39</ele>
        <time>2017-02-11T08:18:36Z</time>
      </trkpt>
      <trkpt lat="43.57577" lon="0.72439">
        <ele>242.87</ele>
        <time>2017-02-11T08:19:00Z</time>
      </trkpt>
      <trkpt lat="43.57577" lon="0.72438">
        <ele>239.02</ele>
        <time>2017-02-11T08:19:01Z</time>
      </trkpt>
      <trkpt lat="43.57577" lon="0.72438">
        <ele>243.35</ele>
        <time>2017-02-11T08:19:02Z</time>
      </trkpt>
      <trkpt lat="43.57577" lon="0.72439">
        <ele>242.39</ele>
        <time>2017-02-11T08:19:07Z</time>
      </trkpt>
      <trkpt lat="43.57577" lon="0.72439">
        <ele>247.2</ele>
        <time>2017-02-11T08:19:26Z</time>
      </trkpt>
      <trkpt lat="43.57577" lon="0.72439">
        <ele>242.87</ele>
        <time>2017-02-11T08:19:27Z</time>
      </trkpt>
      <trkpt lat="43.57579" lon="0.72437">
        <ele>242.39</ele>
        <time>2017-02-11T08:19:44Z</time>
      </trkpt>
      <trkpt lat="43.57575" lon="0.72437">
        <ele>242.39</ele>
        <time>2017-02-11T08:20:22Z</time>
      </trkpt>
      <trkpt lat="43.57575" lon="0.72437">
        <ele>242.39</ele>
        <time>2017-02-11T08:20:54Z</time>
      </trkpt>
      <trkpt lat="43.57575" lon="0.7244">
        <ele>242.87</ele>
        <time>2017-02-11T08:21:27Z</time>
      </trkpt>
      <trkpt lat="43.57574" lon="0.72442">
        <ele>242.87</ele>
        <time>2017-02-11T08:22:07Z</time>
      </trkpt>
      <trkpt lat="43.57575" lon="0.72445">
        <ele>243.35</ele>
        <time>2017-02-11T08:22:44Z</time>
      </trkpt>
      <trkpt lat="43.57577" lon="0.7244">
        <ele>243.83</ele>
        <time>2017-02-11T08:23:24Z</time>
      </trkpt>
      <trkpt lat="43.57576" lon="0.72439">
        <ele>244.31</ele>
        <time>2017-02-11T08:24:06Z</time>
      </trkpt>
      <trkpt lat="43.57576" lon="0.72442">
        <ele>244.31</ele>
        <time>2017-02-11T08:24:35Z</time>
      </trkpt>
      <trkpt lat="43.57577" lon="0.72439">
        <ele>244.79</ele>
        <time>2017-02-11T08:25:14Z</time>
      </trkpt>
      <trkpt lat="43.57575" lon="0.72436">
        <ele>245.27</ele>
        <time>2017-02-11T08:25:51Z</time>
      </trkpt>
      <trkpt lat="43.57579" lon="0.72438">
        <ele>246.72</ele>
        <time>2017-02-11T08:26:28Z</time>
      </trkpt>
      <trkpt lat="43.57579" lon="0.72443">
        <ele>246.23</ele>
        <time>2017-02-11T08:26:40Z</time>
      </trkpt>
      <trkpt lat="43.57579" lon="0.72443">
        <ele>246.23</ele>
        <time>2017-02-11T08:26:53Z</time>
      </trkpt>
      <trkpt lat="43.57577" lon="0.72438">
        <ele>246.23</ele>
        <time>2017-02-11T08:27:13Z</time>
      </trkpt>
      <trkpt lat="43.57581" lon="0.72443">
        <ele>246.72</ele>
        <time>2017-02-11T08:27:27Z</time>
      </trkpt>
      <trkpt lat="43.57579" lon="0.72442">
        <ele>246.23</ele>
        <time>2017-02-11T08:27:40Z</time>
      </trkpt>
      <trkpt lat="43.57577" lon="0.72443">
        <ele>246.72</ele>
        <time>2017-02-11T08:27:48Z</time>
      </trkpt>
      <trkpt lat="43.57569" lon="0.72461">
        <ele>246.23</ele>
        <time>2017-02-11T08:28:03Z</time>
      </trkpt>
      <trkpt lat="43.57572" lon="0.72475">
        <ele>246.23</ele>
        <time>2017-02-11T08:28:14Z</time>
      </trkpt>
      <trkpt lat="43.57573" lon="0.7248">
        <ele>245.75</ele>
        <time>2017-02-11T08:28:27Z</time>
      </trkpt>
      <trkpt lat="43.57574" lon="0.72484">
        <ele>245.75</ele>
        <time>2017-02-11T08:28:42Z</time>
      </trkpt>
      <trkpt lat="43.57577" lon="0.72487">
        <ele>245.75</ele>
        <time>2017-02-11T08:28:59Z</time>
      </trkpt>
      <trkpt lat="43.57577" lon="0.72478">
        <ele>246.23</ele>
        <time>2017-02-11T08:29:14Z</time>
      </trkpt>
      <trkpt lat="43.57578" lon="0.72475">
        <ele>246.23</ele>
        <time>2017-02-11T08:29:28Z</time>
      </trkpt>
      <trkpt lat="43.57579" lon="0.72468">
        <ele>246.23</ele>
        <time>2017-02-11T08:29:48Z</time>
      </trkpt>
      <trkpt lat="43.5758" lon="0.72472">
        <ele>245.75</ele>
        <time>2017-02-11T08:30:08Z</time>
      </trkpt>
      <trkpt lat="43.57577" lon="0.72469">
        <ele>245.75</ele>
        <time>2017-02-11T08:30:34Z</time>
      </trkpt>
      <trkpt lat="43.57574" lon="0.72475">
        <ele>245.75</ele>
        <time>2017-02-11T08:30:46Z</time>
      </trkpt>
      <trkpt lat="43.57575" lon="0.72487">
        <ele>244.79</ele>
        <time>2017-02-11T08:31:02Z</time>
      </trkpt>
      <trkpt lat="43.57579" lon="0.72506">
        <ele>243.83</ele>
        <time>2017-02-11T08:31:18Z</time>
      </trkpt>
      <trkpt lat="43.57586" lon="0.72515">
        <ele>243.83</ele>
        <time>2017-02-11T08:31:26Z</time>
      </trkpt>
      <trkpt lat="43.57593" lon="0.72515">
        <ele>243.83</ele>
        <time>2017-02-11T08:31:31Z</time>
      </trkpt>
      <trkpt lat="43.57606" lon="0.72519">
        <ele>241.43</ele>
        <time>2017-02-11T08:31:48Z</time>
      </trkpt>
      <trkpt lat="43.57618" lon="0.72537">
        <ele>238.06</ele>
        <time>2017-02-11T08:32:06Z</time>
      </trkpt>
      <trkpt lat="43.57625" lon="0.7255">
        <ele>236.14</ele>
        <time>2017-02-11T08:32:22Z</time>
      </trkpt>
      <trkpt lat="43.57634" lon="0.72562">
        <ele>233.74</ele>
        <time>2017-02-11T08:32:37Z</time>
      </trkpt>
      <trkpt lat="43.57644" lon="0.72579">
        <ele>232.3</ele>
        <time>2017-02-11T08:32:52Z</time>
      </trkpt>
      <trkpt lat="43.5765" lon="0.72586">
        <ele>231.81</ele>
        <time>2017-02-11T08:32:58Z</time>
      </trkpt>
      <trkpt lat="43.57661" lon="0.72606">
        <ele>230.85</ele>
        <time>2017-02-11T08:33:15Z</time>
      </trkpt>
      <trkpt lat="43.57674" lon="0.72626">
        <ele>230.85</ele>
        <time>2017-02-11T08:33:33Z</time>
      </trkpt>
      <trkpt lat="43.57677" lon="0.72644">
        <ele>231.81</ele>
        <time>2017-02-11T08:33:48Z</time>
      </trkpt>
      <trkpt lat="43.57681" lon="0.72659">
        <ele>233.26</ele>
        <time>2017-02-11T08:34:03Z</time>
      </trkpt>
      <trkpt lat="43.57681" lon="0.72673">
        <ele>233.74</ele>
        <time>2017-02-11T08:34:12Z</time>
      </trkpt>
      <trkpt lat="43.57679" lon="0.72691">
        <ele>235.66</ele>
        <time>2017-02-11T08:34:25Z</time>
      </trkpt>
      <trkpt lat="43.57678" lon="0.72707">
        <ele>236.14</ele>
        <time>2017-02-11T08:34:37Z</time>
      </trkpt>
      <trkpt lat="43.57679" lon="0.72725">
        <ele>236.14</ele>
        <time>2017-02-11T08:34:51Z</time>
      </trkpt>
      <trkpt lat="43.57678" lon="0.72756">
        <ele>236.14</ele>
        <time>2017-02-11T08:35:07Z</time>
      </trkpt>
      <trkpt lat="43.57681" lon="0.72778">
        <ele>236.14</ele>
        <time>2017-02-11T08:35:23Z</time>
      </trkpt>
      <trkpt lat="43.5768" lon="0.72801">
        <ele>236.14</ele>
        <time>2017-02-11T08:35:38Z</time>
      </trkpt>
      <trkpt lat="43.57674" lon="0.72823">
        <ele>237.1</ele>
        <time>2017-02-11T08:35:52Z</time>
      </trkpt>
      <trkpt lat="43.5767" lon="0.72841">
        <ele>238.06</ele>
        <time>2017-02-11T08:36:05Z</time>
      </trkpt>
      <trkpt lat="43.57664" lon="0.72859">
        <ele>239.51</ele>
        <time>2017-02-11T08:36:21Z</time>
      </trkpt>
      <trkpt lat="43.5766" lon="0.72874">
        <ele>240.95</ele>
        <time>2017-02-11T08:36:35Z</time>
      </trkpt>
      <trkpt lat="43.57654" lon="0.7289">
        <ele>240.95</ele>
        <time>2017-02-11T08:36:46Z</time>
      </trkpt>
      <trkpt lat="43.57652" lon="0.72909">
        <ele>241.43</ele>
        <time>2017-02-11T08:36:57Z</time>
      </trkpt>
      <trkpt lat="43.57652" lon="0.72912">
        <ele>241.43</ele>
        <time>2017-02-11T08:36:59Z</time>
      </trkpt>
      <trkpt lat="43.57647" lon="0.72921">
        <ele>241.91</ele>
        <time>2017-02-11T08:37:05Z</time>
      </trkpt>
      <trkpt lat="43.57637" lon="0.72938">
        <ele>242.39</ele>
        <time>2017-02-11T08:37:18Z</time>
      </trkpt>
      <trkpt lat="43.57631" lon="0.72946">
        <ele>242.87</ele>
        <time>2017-02-11T08:37:26Z</time>
      </trkpt>
      <trkpt lat="43.5762" lon="0.72967">
        <ele>243.35</ele>
        <time>2017-02-11T08:37:41Z</time>
      </trkpt>
      <trkpt lat="43.57611" lon="0.72986">
        <ele>243.35</ele>
        <time>2017-02-11T08:37:56Z</time>
      </trkpt>
      <trkpt lat="43.57605" lon="0.73006">
        <ele>242.87</ele>
        <time>2017-02-11T08:38:12Z</time>
      </trkpt>
      <trkpt lat="43.576" lon="0.73021">
        <ele>242.87</ele>
        <time>2017-02-11T08:38:21Z</time>
      </trkpt>
      <trkpt lat="43.57595" lon="0.7305">
        <ele>242.87</ele>
        <time>2017-02-11T08:38:39Z</time>
      </trkpt>
      <trkpt lat="43.57592" lon="0.73055">
        <ele>242.87</ele>
        <time>2017-02-11T08:38:43Z</time>
      </trkpt>
      <trkpt lat="43.57589" lon="0.73059">
        <ele>243.35</ele>
        <time>2017-02-11T08:38:47Z</time>
      </trkpt>
      <trkpt lat="43.57585" lon="0.73067">
        <ele>243.35</ele>
        <time>2017-02-11T08:38:53Z</time>
      </trkpt>
      <trkpt lat="43.57579" lon="0.73086">
        <ele>243.35</ele>
        <time>2017-02-11T08:39:06Z</time>
      </trkpt>
      <trkpt lat="43.57576" lon="0.73109">
        <ele>242.87</ele>
        <time>2017-02-11T08:39:20Z</time>
      </trkpt>
      <trkpt lat="43.57568" lon="0.73127">
        <ele>241.91</ele>
        <time>2017-02-11T08:39:36Z</time>
      </trkpt>
      <trkpt lat="43.57559" lon="0.73146">
        <ele>241.43</ele>
        <time>2017-02-11T08:39:50Z</time>
      </trkpt>
      <trkpt lat="43.57552" lon="0.73163">
        <ele>241.43</ele>
        <time>2017-02-11T08:40:06Z</time>
      </trkpt>
      <trkpt lat="43.5755" lon="0.7319">
        <ele>240.47</ele>
        <time>2017-02-11T08:40:21Z</time>
      </trkpt>
      <trkpt lat="43.57545" lon="0.73212">
        <ele>240.95</ele>
        <time>2017-02-11T08:40:38Z</time>
      </trkpt>
      <trkpt lat="43.57542" lon="0.73229">
        <ele>240.47</ele>
        <time>2017-02-11T08:40:51Z</time>
      </trkpt>
      <trkpt lat="43.5754" lon="0.73244">
        <ele>240.47</ele>
        <time>2017-02-11T08:41:03Z</time>
      </trkpt>
      <trkpt lat="43.57539" lon="0.73267">
        <ele>240.95</ele>
        <time>2017-02-11T08:41:19Z</time>
      </trkpt>
      <trkpt lat="43.5754" lon="0.73287">
        <ele>242.87</ele>
        <time>2017-02-11T08:41:34Z</time>
      </trkpt>
      <trkpt lat="43.57534" lon="0.73307">
        <ele>245.27</ele>
        <time>2017-02-11T08:41:49Z</time>
      </trkpt>
      <trkpt lat="43.57538" lon="0.73321">
        <ele>246.72</ele>
        <time>2017-02-11T08:42:00Z</time>
      </trkpt>
      <trkpt lat="43.57554" lon="0.7334">
        <ele>248.64</ele>
        <time>2017-02-11T08:42:17Z</time>
      </trkpt>
      <trkpt lat="43.57558" lon="0.73344">
        <ele>248.64</ele>
        <time>2017-02-11T08:42:21Z</time>
      </trkpt>
      <trkpt lat="43.57572" lon="0.7336">
        <ele>248.16</ele>
        <time>2017-02-11T08:42:38Z</time>
      </trkpt>
      <trkpt lat="43.57583" lon="0.73365">
        <ele>246.72</ele>
        <time>2017-02-11T08:42:49Z</time>
      </trkpt>
      <trkpt lat="43.57589" lon="0.73371">
        <ele>246.23</ele>
        <time>2017-02-11T08:43:02Z</time>
      </trkpt>
      <trkpt lat="43.57589" lon="0.73374">
        <ele>246.23</ele>
        <time>2017-02-11T08:43:04Z</time>
      </trkpt>
      <trkpt lat="43.5759" lon="0.73393">
        <ele>244.79</ele>
        <time>2017-02-11T08:43:19Z</time>
      </trkpt>
      <trkpt lat="43.57591" lon="0.73396">
        <ele>244.79</ele>
        <time>2017-02-11T08:43:21Z</time>
      </trkpt>
      <trkpt lat="43.57589" lon="0.7341">
        <ele>243.83</ele>
        <time>2017-02-11T08:43:32Z</time>
      </trkpt>
      <trkpt lat="43.57579" lon="0.73425">
        <ele>242.87</ele>
        <time>2017-02-11T08:43:49Z</time>
      </trkpt>
      <trkpt lat="43.57572" lon="0.7343">
        <ele>241.91</ele>
        <time>2017-02-11T08:43:57Z</time>
      </trkpt>
      <trkpt lat="43.57566" lon="0.73443">
        <ele>239.99</ele>
        <time>2017-02-11T08:44:06Z</time>
      </trkpt>
      <trkpt lat="43.57564" lon="0.73453">
        <ele>239.02</ele>
        <time>2017-02-11T08:44:12Z</time>
      </trkpt>
      <trkpt lat="43.57562" lon="0.73475">
        <ele>235.66</ele>
        <time>2017-02-11T08:44:28Z</time>
      </trkpt>
      <trkpt lat="43.57561" lon="0.7349">
        <ele>232.78</ele>
        <time>2017-02-11T08:44:41Z</time>
      </trkpt>
      <trkpt lat="43.57559" lon="0.73507">
        <ele>229.41</ele>
        <time>2017-02-11T08:44:54Z</time>
      </trkpt>
      <trkpt lat="43.57559" lon="0.73509">
        <ele>228.93</ele>
        <time>2017-02-11T08:44:56Z</time>
      </trkpt>
      <trkpt lat="43.57558" lon="0.73526">
        <ele>225.57</ele>
        <time>2017-02-11T08:45:09Z</time>
      </trkpt>
      <trkpt lat="43.57556" lon="0.73537">
        <ele>223.16</ele>
        <time>2017-02-11T08:45:18Z</time>
      </trkpt>
      <trkpt lat="43.57558" lon="0.73554">
        <ele>220.28</ele>
        <time>2017-02-11T08:45:34Z</time>
      </trkpt>
      <trkpt lat="43.5756" lon="0.73557">
        <ele>219.8</ele>
        <time>2017-02-11T08:45:36Z</time>
      </trkpt>
      <trkpt lat="43.57578" lon="0.73563">
        <ele>218.84</ele>
        <time>2017-02-11T08:45:52Z</time>
      </trkpt>
      <trkpt lat="43.57583" lon="0.73564">
        <ele>218.36</ele>
        <time>2017-02-11T08:45:56Z</time>
      </trkpt>
      <trkpt lat="43.576" lon="0.73567">
        <ele>216.91</ele>
        <time>2017-02-11T08:46:13Z</time>
      </trkpt>
      <trkpt lat="43.57615" lon="0.73568">
        <ele>215.47</ele>
        <time>2017-02-11T08:46:27Z</time>
      </trkpt>
      <trkpt lat="43.57622" lon="0.73568">
        <ele>214.51</ele>
        <time>2017-02-11T08:46:34Z</time>
      </trkpt>
      <trkpt lat="43.57627" lon="0.73569">
        <ele>213.55</ele>
        <time>2017-02-11T08:46:38Z</time>
      </trkpt>
      <trkpt lat="43.57642" lon="0.7357">
        <ele>212.11</ele>
        <time>2017-02-11T08:46:52Z</time>
      </trkpt>
      <trkpt lat="43.57657" lon="0.73572">
        <ele>210.67</ele>
        <time>2017-02-11T08:47:08Z</time>
      </trkpt>
      <trkpt lat="43.57673" lon="0.73571">
        <ele>209.7</ele>
        <time>2017-02-11T08:47:23Z</time>
      </trkpt>
      <trkpt lat="43.57687" lon="0.73573">
        <ele>207.78</ele>
        <time>2017-02-11T08:47:35Z</time>
      </trkpt>
      <trkpt lat="43.57693" lon="0.73585">
        <ele>206.82</ele>
        <time>2017-02-11T08:47:46Z</time>
      </trkpt>
      <trkpt lat="43.57695" lon="0.73593">
        <ele>206.34</ele>
        <time>2017-02-11T08:47:52Z</time>
      </trkpt>
      <trkpt lat="43.57706" lon="0.73612">
        <ele>204.9</ele>
        <time>2017-02-11T08:48:09Z</time>
      </trkpt>
      <trkpt lat="43.57713" lon="0.73621">
        <ele>204.9</ele>
        <time>2017-02-11T08:48:18Z</time>
      </trkpt>
      <trkpt lat="43.57726" lon="0.73622">
        <ele>204.42</ele>
        <time>2017-02-11T08:48:30Z</time>
      </trkpt>
      <trkpt lat="43.57746" lon="0.73616">
        <ele>202.49</ele>
        <time>2017-02-11T08:48:49Z</time>
      </trkpt>
      <trkpt lat="43.57761" lon="0.73608">
        <ele>202.01</ele>
        <time>2017-02-11T08:49:05Z</time>
      </trkpt>
      <trkpt lat="43.57778" lon="0.73603">
        <ele>201.53</ele>
        <time>2017-02-11T08:49:20Z</time>
      </trkpt>
      <trkpt lat="43.57792" lon="0.73599">
        <ele>201.05</ele>
        <time>2017-02-11T08:49:34Z</time>
      </trkpt>
      <trkpt lat="43.57805" lon="0.73594">
        <ele>200.09</ele>
        <time>2017-02-11T08:49:46Z</time>
      </trkpt>
      <trkpt lat="43.57807" lon="0.73594">
        <ele>200.09</ele>
        <time>2017-02-11T08:49:48Z</time>
      </trkpt>
      <trkpt lat="43.57823" lon="0.73589">
        <ele>199.61</ele>
        <time>2017-02-11T08:50:05Z</time>
      </trkpt>
      <trkpt lat="43.57838" lon="0.73586">
        <ele>198.65</ele>
        <time>2017-02-11T08:50:20Z</time>
      </trkpt>
      <trkpt lat="43.57855" lon="0.73589">
        <ele>198.17</ele>
        <time>2017-02-11T08:50:35Z</time>
      </trkpt>
      <trkpt lat="43.57872" lon="0.73598">
        <ele>197.21</ele>
        <time>2017-02-11T08:50:52Z</time>
      </trkpt>
      <trkpt lat="43.57886" lon="0.73606">
        <ele>195.77</ele>
        <time>2017-02-11T08:51:06Z</time>
      </trkpt>
      <trkpt lat="43.579" lon="0.7361">
        <ele>194.8</ele>
        <time>2017-02-11T08:51:20Z</time>
      </trkpt>
      <trkpt lat="43.57916" lon="0.73618">
        <ele>193.36</ele>
        <time>2017-02-11T08:51:37Z</time>
      </trkpt>
      <trkpt lat="43.57932" lon="0.73625">
        <ele>192.88</ele>
        <time>2017-02-11T08:51:53Z</time>
      </trkpt>
      <trkpt lat="43.57934" lon="0.73625">
        <ele>192.88</ele>
        <time>2017-02-11T08:51:55Z</time>
      </trkpt>
      <trkpt lat="43.57942" lon="0.73629">
        <ele>193.36</ele>
        <time>2017-02-11T08:52:03Z</time>
      </trkpt>
      <trkpt lat="43.57957" lon="0.73641">
        <ele>193.36</ele>
        <time>2017-02-11T08:52:18Z</time>
      </trkpt>
      <trkpt lat="43.57964" lon="0.73648">
        <ele>193.36</ele>
        <time>2017-02-11T08:52:29Z</time>
      </trkpt>
      <trkpt lat="43.57977" lon="0.73661">
        <ele>192.4</ele>
        <time>2017-02-11T08:52:44Z</time>
      </trkpt>
      <trkpt lat="43.57986" lon="0.73671">
        <ele>191.92</ele>
        <time>2017-02-11T08:52:55Z</time>
      </trkpt>
      <trkpt lat="43.5799" lon="0.73674">
        <ele>191.92</ele>
        <time>2017-02-11T08:52:59Z</time>
      </trkpt>
      <trkpt lat="43.57994" lon="0.73677">
        <ele>191.44</ele>
        <time>2017-02-11T08:53:03Z</time>
      </trkpt>
      <trkpt lat="43.58009" lon="0.73666">
        <ele>190.48</ele>
        <time>2017-02-11T08:53:20Z</time>
      </trkpt>
      <trkpt lat="43.58022" lon="0.73649">
        <ele>190.96</ele>
        <time>2017-02-11T08:53:36Z</time>
      </trkpt>
      <trkpt lat="43.58031" lon="0.73628">
        <ele>193.36</ele>
        <time>2017-02-11T08:53:53Z</time>
      </trkpt>
      <trkpt lat="43.58037" lon="0.73612">
        <ele>196.73</ele>
        <time>2017-02-11T08:54:09Z</time>
      </trkpt>
      <trkpt lat="43.58043" lon="0.736">
        <ele>198.65</ele>
        <time>2017-02-11T08:54:23Z</time>
      </trkpt>
      <trkpt lat="43.58043" lon="0.73601">
        <ele>198.65</ele>
        <time>2017-02-11T08:54:24Z</time>
      </trkpt>
      <trkpt lat="43.58057" lon="0.73602">
        <ele>200.57</ele>
        <time>2017-02-11T08:54:40Z</time>
      </trkpt>
      <trkpt lat="43.58071" lon="0.73598">
        <ele>202.01</ele>
        <time>2017-02-11T08:54:54Z</time>
      </trkpt>
      <trkpt lat="43.5808" lon="0.73594">
        <ele>202.98</ele>
        <time>2017-02-11T08:55:05Z</time>
      </trkpt>
      <trkpt lat="43.58087" lon="0.73591">
        <ele>203.46</ele>
        <time>2017-02-11T08:55:12Z</time>
      </trkpt>
      <trkpt lat="43.58099" lon="0.73581">
        <ele>205.38</ele>
        <time>2017-02-11T08:55:27Z</time>
      </trkpt>
      <trkpt lat="43.5811" lon="0.73569">
        <ele>207.3</ele>
        <time>2017-02-11T08:55:41Z</time>
      </trkpt>
      <trkpt lat="43.58117" lon="0.73564">
        <ele>206.82</ele>
        <time>2017-02-11T08:55:50Z</time>
      </trkpt>
      <trkpt lat="43.58131" lon="0.73557">
        <ele>205.38</ele>
        <time>2017-02-11T08:56:06Z</time>
      </trkpt>
      <trkpt lat="43.58139" lon="0.73555">
        <ele>204.9</ele>
        <time>2017-02-11T08:56:13Z</time>
      </trkpt>
      <trkpt lat="43.58156" lon="0.73546">
        <ele>203.46</ele>
        <time>2017-02-11T08:56:30Z</time>
      </trkpt>
      <trkpt lat="43.58171" lon="0.73535">
        <ele>202.49</ele>
        <time>2017-02-11T08:56:46Z</time>
      </trkpt>
      <trkpt lat="43.58188" lon="0.73522">
        <ele>202.01</ele>
        <time>2017-02-11T08:57:02Z</time>
      </trkpt>
      <trkpt lat="43.58206" lon="0.73505">
        <ele>200.57</ele>
        <time>2017-02-11T08:57:21Z</time>
      </trkpt>
      <trkpt lat="43.58221" lon="0.73495">
        <ele>198.17</ele>
        <time>2017-02-11T08:57:36Z</time>
      </trkpt>
      <trkpt lat="43.58235" lon="0.73486">
        <ele>195.28</ele>
        <time>2017-02-11T08:57:51Z</time>
      </trkpt>
      <trkpt lat="43.58245" lon="0.73482">
        <ele>193.84</ele>
        <time>2017-02-11T08:58:00Z</time>
      </trkpt>
      <trkpt lat="43.58265" lon="0.73473">
        <ele>190.96</ele>
        <time>2017-02-11T08:58:20Z</time>
      </trkpt>
      <trkpt lat="43.58274" lon="0.73468">
        <ele>190</ele>
        <time>2017-02-11T08:58:28Z</time>
      </trkpt>
      <trkpt lat="43.58291" lon="0.7346">
        <ele>188.08</ele>
        <time>2017-02-11T08:58:44Z</time>
      </trkpt>
      <trkpt lat="43.58293" lon="0.73459">
        <ele>188.08</ele>
        <time>2017-02-11T08:58:46Z</time>
      </trkpt>
      <trkpt lat="43.58297" lon="0.73457">
        <ele>187.59</ele>
        <time>2017-02-11T08:58:50Z</time>
      </trkpt>
      <trkpt lat="43.58305" lon="0.73437">
        <ele>185.19</ele>
        <time>2017-02-11T08:59:10Z</time>
      </trkpt>
      <trkpt lat="43.58307" lon="0.73427">
        <ele>183.75</ele>
        <time>2017-02-11T08:59:19Z</time>
      </trkpt>
      <trkpt lat="43.58307" lon="0.7341">
        <ele>183.27</ele>
        <time>2017-02-11T08:59:31Z</time>
      </trkpt>
      <trkpt lat="43.58309" lon="0.73406">
        <ele>183.75</ele>
        <time>2017-02-11T08:59:34Z</time>
      </trkpt>
      <trkpt lat="43.5832" lon="0.734">
        <ele>182.79</ele>
        <time>2017-02-11T08:59:48Z</time>
      </trkpt>
      <trkpt lat="43.58326" lon="0.73397">
        <ele>181.35</ele>
        <time>2017-02-11T08:59:55Z</time>
      </trkpt>
      <trkpt lat="43.5834" lon="0.7339">
        <ele>179.9</ele>
        <time>2017-02-11T09:00:11Z</time>
      </trkpt>
      <trkpt lat="43.58342" lon="0.73387">
        <ele>179.42</ele>
        <time>2017-02-11T09:00:22Z</time>
      </trkpt>
      <trkpt lat="43.58356" lon="0.7338">
        <ele>177.98</ele>
        <time>2017-02-11T09:00:37Z</time>
      </trkpt>
      <trkpt lat="43.58369" lon="0.73371">
        <ele>177.02</ele>
        <time>2017-02-11T09:00:51Z</time>
      </trkpt>
      <trkpt lat="43.58384" lon="0.73361">
        <ele>176.06</ele>
        <time>2017-02-11T09:01:06Z</time>
      </trkpt>
      <trkpt lat="43.58401" lon="0.73351">
        <ele>174.62</ele>
        <time>2017-02-11T09:01:23Z</time>
      </trkpt>
      <trkpt lat="43.58402" lon="0.7335">
        <ele>174.62</ele>
        <time>2017-02-11T09:01:24Z</time>
      </trkpt>
      <trkpt lat="43.58418" lon="0.73341">
        <ele>173.17</ele>
        <time>2017-02-11T09:01:40Z</time>
      </trkpt>
      <trkpt lat="43.58433" lon="0.73332">
        <ele>172.21</ele>
        <time>2017-02-11T09:01:56Z</time>
      </trkpt>
      <trkpt lat="43.58446" lon="0.73324">
        <ele>171.25</ele>
        <time>2017-02-11T09:02:09Z</time>
      </trkpt>
      <trkpt lat="43.58461" lon="0.73314">
        <ele>170.77</ele>
        <time>2017-02-11T09:02:24Z</time>
      </trkpt>
      <trkpt lat="43.58476" lon="0.73305">
        <ele>169.33</ele>
        <time>2017-02-11T09:02:39Z</time>
      </trkpt>
      <trkpt lat="43.5849" lon="0.73296">
        <ele>168.85</ele>
        <time>2017-02-11T09:02:53Z</time>
      </trkpt>
      <trkpt lat="43.58502" lon="0.7329">
        <ele>168.37</ele>
        <time>2017-02-11T09:03:07Z</time>
      </trkpt>
      <trkpt lat="43.58514" lon="0.73284">
        <ele>167.89</ele>
        <time>2017-02-11T09:03:20Z</time>
      </trkpt>
      <trkpt lat="43.58528" lon="0.73274">
        <ele>167.41</ele>
        <time>2017-02-11T09:03:35Z</time>
      </trkpt>
      <trkpt lat="43.58544" lon="0.73265">
        <ele>167.41</ele>
        <time>2017-02-11T09:03:51Z</time>
      </trkpt>
      <trkpt lat="43.58561" lon="0.73255">
        <ele>166.93</ele>
        <time>2017-02-11T09:04:08Z</time>
      </trkpt>
      <trkpt lat="43.58574" lon="0.73243">
        <ele>166.93</ele>
        <time>2017-02-11T09:04:24Z</time>
      </trkpt>
      <trkpt lat="43.58577" lon="0.73232">
        <ele>167.89</ele>
        <time>2017-02-11T09:04:40Z</time>
      </trkpt>
      <trkpt lat="43.58581" lon="0.73232">
        <ele>167.89</ele>
        <time>2017-02-11T09:04:54Z</time>
      </trkpt>
      <trkpt lat="43.58587" lon="0.7323">
        <ele>167.89</ele>
        <time>2017-02-11T09:05:10Z</time>
      </trkpt>
      <trkpt lat="43.5859" lon="0.73229">
        <ele>167.89</ele>
        <time>2017-02-11T09:05:28Z</time>
      </trkpt>
      <trkpt lat="43.5859" lon="0.73217">
        <ele>167.41</ele>
        <time>2017-02-11T09:05:41Z</time>
      </trkpt>
      <trkpt lat="43.5859" lon="0.73215">
        <ele>167.89</ele>
        <time>2017-02-11T09:05:59Z</time>
      </trkpt>
      <trkpt lat="43.58592" lon="0.73214">
        <ele>167.41</ele>
        <time>2017-02-11T09:06:18Z</time>
      </trkpt>
      <trkpt lat="43.58598" lon="0.73219">
        <ele>167.41</ele>
        <time>2017-02-11T09:06:27Z</time>
      </trkpt>
      <trkpt lat="43.5861" lon="0.7322">
        <ele>167.41</ele>
        <time>2017-02-11T09:06:39Z</time>
      </trkpt>
      <trkpt lat="43.58629" lon="0.73216">
        <ele>167.41</ele>
        <time>2017-02-11T09:06:55Z</time>
      </trkpt>
      <trkpt lat="43.58633" lon="0.73214">
        <ele>167.41</ele>
        <time>2017-02-11T09:06:59Z</time>
      </trkpt>
      <trkpt lat="43.58646" lon="0.73197">
        <ele>167.41</ele>
        <time>2017-02-11T09:07:15Z</time>
      </trkpt>
      <trkpt lat="43.58653" lon="0.73183">
        <ele>167.41</ele>
        <time>2017-02-11T09:07:27Z</time>
      </trkpt>
      <trkpt lat="43.58666" lon="0.73163">
        <ele>167.41</ele>
        <time>2017-02-11T09:07:44Z</time>
      </trkpt>
      <trkpt lat="43.58679" lon="0.73143">
        <ele>167.41</ele>
        <time>2017-02-11T09:08:01Z</time>
      </trkpt>
      <trkpt lat="43.58689" lon="0.73128">
        <ele>167.89</ele>
        <time>2017-02-11T09:08:15Z</time>
      </trkpt>
      <trkpt lat="43.58701" lon="0.73112">
        <ele>167.89</ele>
        <time>2017-02-11T09:08:31Z</time>
      </trkpt>
      <trkpt lat="43.58712" lon="0.73092">
        <ele>167.89</ele>
        <time>2017-02-11T09:08:48Z</time>
      </trkpt>
      <trkpt lat="43.58723" lon="0.73076">
        <ele>167.89</ele>
        <time>2017-02-11T09:09:02Z</time>
      </trkpt>
      <trkpt lat="43.58728" lon="0.73068">
        <ele>168.37</ele>
        <time>2017-02-11T09:09:09Z</time>
      </trkpt>
      <trkpt lat="43.58733" lon="0.73068">
        <ele>168.37</ele>
        <time>2017-02-11T09:09:15Z</time>
      </trkpt>
      <trkpt lat="43.58743" lon="0.73078">
        <ele>167.89</ele>
        <time>2017-02-11T09:09:30Z</time>
      </trkpt>
      <trkpt lat="43.58751" lon="0.73092">
        <ele>167.89</ele>
        <time>2017-02-11T09:09:43Z</time>
      </trkpt>
      <trkpt lat="43.58761" lon="0.73111">
        <ele>167.89</ele>
        <time>2017-02-11T09:09:59Z</time>
      </trkpt>
      <trkpt lat="43.58772" lon="0.73135">
        <ele>167.89</ele>
        <time>2017-02-11T09:10:15Z</time>
      </trkpt>
      <trkpt lat="43.58783" lon="0.73157">
        <ele>167.89</ele>
        <time>2017-02-11T09:10:32Z</time>
      </trkpt>
      <trkpt lat="43.58785" lon="0.73159">
        <ele>167.89</ele>
        <time>2017-02-11T09:10:34Z</time>
      </trkpt>
      <trkpt lat="43.58788" lon="0.73167">
        <ele>167.41</ele>
        <time>2017-02-11T09:10:40Z</time>
      </trkpt>
      <trkpt lat="43.58798" lon="0.7319">
        <ele>167.41</ele>
        <time>2017-02-11T09:10:58Z</time>
      </trkpt>
      <trkpt lat="43.58805" lon="0.73211">
        <ele>167.89</ele>
        <time>2017-02-11T09:11:14Z</time>
      </trkpt>
      <trkpt lat="43.58813" lon="0.73231">
        <ele>167.89</ele>
        <time>2017-02-11T09:11:30Z</time>
      </trkpt>
      <trkpt lat="43.58825" lon="0.73251">
        <ele>167.41</ele>
        <time>2017-02-11T09:11:47Z</time>
      </trkpt>
      <trkpt lat="43.58838" lon="0.73268">
        <ele>167.89</ele>
        <time>2017-02-11T09:12:03Z</time>
      </trkpt>
      <trkpt lat="43.58853" lon="0.73282">
        <ele>168.37</ele>
        <time>2017-02-11T09:12:20Z</time>
      </trkpt>
      <trkpt lat="43.58869" lon="0.73299">
        <ele>168.85</ele>
        <time>2017-02-11T09:12:38Z</time>
      </trkpt>
      <trkpt lat="43.58883" lon="0.73314">
        <ele>169.33</ele>
        <time>2017-02-11T09:12:55Z</time>
      </trkpt>
      <trkpt lat="43.58885" lon="0.73316">
        <ele>169.33</ele>
        <time>2017-02-11T09:12:59Z</time>
      </trkpt>
      <trkpt lat="43.58901" lon="0.73333">
        <ele>169.33</ele>
        <time>2017-02-11T09:13:15Z</time>
      </trkpt>
      <trkpt lat="43.58912" lon="0.73346">
        <ele>168.85</ele>
        <time>2017-02-11T09:13:31Z</time>
      </trkpt>
      <trkpt lat="43.58921" lon="0.73366">
        <ele>167.89</ele>
        <time>2017-02-11T09:13:48Z</time>
      </trkpt>
      <trkpt lat="43.5893" lon="0.73388">
        <ele>167.41</ele>
        <time>2017-02-11T09:14:06Z</time>
      </trkpt>
      <trkpt lat="43.58939" lon="0.73408">
        <ele>166.93</ele>
        <time>2017-02-11T09:14:22Z</time>
      </trkpt>
      <trkpt lat="43.58945" lon="0.73429">
        <ele>166.93</ele>
        <time>2017-02-11T09:14:39Z</time>
      </trkpt>
      <trkpt lat="43.58951" lon="0.7345">
        <ele>166.93</ele>
        <time>2017-02-11T09:14:54Z</time>
      </trkpt>
      <trkpt lat="43.58959" lon="0.73475">
        <ele>166.93</ele>
        <time>2017-02-11T09:15:12Z</time>
      </trkpt>
      <trkpt lat="43.58967" lon="0.735">
        <ele>166.93</ele>
        <time>2017-02-11T09:15:28Z</time>
      </trkpt>
      <trkpt lat="43.58977" lon="0.73524">
        <ele>166.93</ele>
        <time>2017-02-11T09:15:45Z</time>
      </trkpt>
      <trkpt lat="43.58989" lon="0.73546">
        <ele>166.93</ele>
        <time>2017-02-11T09:16:02Z</time>
      </trkpt>
      <trkpt lat="43.59007" lon="0.73555">
        <ele>167.41</ele>
        <time>2017-02-11T09:16:19Z</time>
      </trkpt>
      <trkpt lat="43.59027" lon="0.73568">
        <ele>167.41</ele>
        <time>2017-02-11T09:16:38Z</time>
      </trkpt>
      <trkpt lat="43.59046" lon="0.7358">
        <ele>166.93</ele>
        <time>2017-02-11T09:16:56Z</time>
      </trkpt>
      <trkpt lat="43.59063" lon="0.7359">
        <ele>166.93</ele>
        <time>2017-02-11T09:17:13Z</time>
      </trkpt>
      <trkpt lat="43.59083" lon="0.73602">
        <ele>167.89</ele>
        <time>2017-02-11T09:17:32Z</time>
      </trkpt>
      <trkpt lat="43.59101" lon="0.73612">
        <ele>167.89</ele>
        <time>2017-02-11T09:17:50Z</time>
      </trkpt>
      <trkpt lat="43.59107" lon="0.73616">
        <ele>167.89</ele>
        <time>2017-02-11T09:17:55Z</time>
      </trkpt>
      <trkpt lat="43.59125" lon="0.73628">
        <ele>167.89</ele>
        <time>2017-02-11T09:18:13Z</time>
      </trkpt>
      <trkpt lat="43.59143" lon="0.73639">
        <ele>168.37</ele>
        <time>2017-02-11T09:18:30Z</time>
      </trkpt>
      <trkpt lat="43.59163" lon="0.73653">
        <ele>168.37</ele>
        <time>2017-02-11T09:18:50Z</time>
      </trkpt>
      <trkpt lat="43.59181" lon="0.73665">
        <ele>168.37</ele>
        <time>2017-02-11T09:19:07Z</time>
      </trkpt>
      <trkpt lat="43.59202" lon="0.7368">
        <ele>167.89</ele>
        <time>2017-02-11T09:19:27Z</time>
      </trkpt>
      <trkpt lat="43.59221" lon="0.73693">
        <ele>167.41</ele>
        <time>2017-02-11T09:19:45Z</time>
      </trkpt>
      <trkpt lat="43.5924" lon="0.73709">
        <ele>166.93</ele>
        <time>2017-02-11T09:20:03Z</time>
      </trkpt>
      <trkpt lat="43.59256" lon="0.73724">
        <ele>166.45</ele>
        <time>2017-02-11T09:20:21Z</time>
      </trkpt>
      <trkpt lat="43.59274" lon="0.73744">
        <ele>166.45</ele>
        <time>2017-02-11T09:20:41Z</time>
      </trkpt>
      <trkpt lat="43.59291" lon="0.73761">
        <ele>165.96</ele>
        <time>2017-02-11T09:20:57Z</time>
      </trkpt>
      <trkpt lat="43.5931" lon="0.73781">
        <ele>165.96</ele>
        <time>2017-02-11T09:21:16Z</time>
      </trkpt>
      <trkpt lat="43.59327" lon="0.738">
        <ele>166.45</ele>
        <time>2017-02-11T09:21:34Z</time>
      </trkpt>
      <trkpt lat="43.59346" lon="0.73818">
        <ele>166.45</ele>
        <time>2017-02-11T09:21:53Z</time>
      </trkpt>
      <trkpt lat="43.5936" lon="0.73834">
        <ele>166.45</ele>
        <time>2017-02-11T09:22:09Z</time>
      </trkpt>
      <trkpt lat="43.59378" lon="0.73851">
        <ele>166.45</ele>
        <time>2017-02-11T09:22:27Z</time>
      </trkpt>
      <trkpt lat="43.59396" lon="0.73871">
        <ele>166.93</ele>
        <time>2017-02-11T09:22:47Z</time>
      </trkpt>
      <trkpt lat="43.59413" lon="0.7389">
        <ele>166.93</ele>
        <time>2017-02-11T09:23:06Z</time>
      </trkpt>
      <trkpt lat="43.59427" lon="0.73907">
        <ele>166.93</ele>
        <time>2017-02-11T09:23:22Z</time>
      </trkpt>
      <trkpt lat="43.59441" lon="0.73923">
        <ele>166.45</ele>
        <time>2017-02-11T09:23:38Z</time>
      </trkpt>
      <trkpt lat="43.59461" lon="0.73945">
        <ele>166.45</ele>
        <time>2017-02-11T09:23:59Z</time>
      </trkpt>
      <trkpt lat="43.59478" lon="0.73963">
        <ele>166.45</ele>
        <time>2017-02-11T09:24:16Z</time>
      </trkpt>
      <trkpt lat="43.59493" lon="0.73979">
        <ele>165.96</ele>
        <time>2017-02-11T09:24:32Z</time>
      </trkpt>
      <trkpt lat="43.59511" lon="0.74">
        <ele>165.96</ele>
        <time>2017-02-11T09:24:51Z</time>
      </trkpt>
      <trkpt lat="43.59526" lon="0.7402">
        <ele>165.96</ele>
        <time>2017-02-11T09:25:09Z</time>
      </trkpt>
      <trkpt lat="43.59543" lon="0.74038">
        <ele>165.48</ele>
        <time>2017-02-11T09:25:27Z</time>
      </trkpt>
      <trkpt lat="43.59551" lon="0.74048">
        <ele>165.48</ele>
        <time>2017-02-11T09:25:42Z</time>
      </trkpt>
      <trkpt lat="43.59552" lon="0.7405">
        <ele>165.96</ele>
        <time>2017-02-11T09:26:01Z</time>
      </trkpt>
      <trkpt lat="43.5955" lon="0.74054">
        <ele>165.96</ele>
        <time>2017-02-11T09:26:29Z</time>
      </trkpt>
      <trkpt lat="43.5955" lon="0.74049">
        <ele>165.96</ele>
        <time>2017-02-11T09:26:46Z</time>
      </trkpt>
      <trkpt lat="43.5955" lon="0.74048">
        <ele>165.96</ele>
        <time>2017-02-11T09:27:06Z</time>
      </trkpt>
      <trkpt lat="43.59551" lon="0.7405">
        <ele>165.96</ele>
        <time>2017-02-11T09:27:28Z</time>
      </trkpt>
      <trkpt lat="43.59552" lon="0.7405">
        <ele>166.93</ele>
        <time>2017-02-11T09:27:43Z</time>
      </trkpt>
      <trkpt lat="43.59552" lon="0.7405">
        <ele>165.48</ele>
        <time>2017-02-11T09:27:47Z</time>
      </trkpt>
      <trkpt lat="43.59552" lon="0.7405">
        <ele>169.33</ele>
        <time>2017-02-11T09:27:51Z</time>
      </trkpt>
      <trkpt lat="43.59552" lon="0.7405">
        <ele>166.45</ele>
        <time>2017-02-11T09:27:52Z</time>
      </trkpt>
      <trkpt lat="43.59551" lon="0.74051">
        <ele>165.96</ele>
        <time>2017-02-11T09:28:20Z</time>
      </trkpt>
      <trkpt lat="43.59553" lon="0.7405">
        <ele>165.96</ele>
        <time>2017-02-11T09:28:44Z</time>
      </trkpt>
      <trkpt lat="43.59552" lon="0.74048">
        <ele>165.96</ele>
        <time>2017-02-11T09:29:09Z</time>
      </trkpt>
      <trkpt lat="43.59553" lon="0.74048">
        <ele>165.96</ele>
        <time>2017-02-11T09:29:37Z</time>
      </trkpt>
      <trkpt lat="43.59553" lon="0.7405">
        <ele>165.96</ele>
        <time>2017-02-11T09:29:55Z</time>
      </trkpt>
      <trkpt lat="43.59554" lon="0.74051">
        <ele>165.96</ele>
        <time>2017-02-11T09:30:14Z</time>
      </trkpt>
      <trkpt lat="43.59553" lon="0.7405">
        <ele>165.96</ele>
        <time>2017-02-11T09:30:41Z</time>
      </trkpt>
      <trkpt lat="43.59553" lon="0.74052">
        <ele>165.96</ele>
        <time>2017-02-11T09:30:58Z</time>
      </trkpt>
      <trkpt lat="43.59552" lon="0.7406">
        <ele>165.48</ele>
        <time>2017-02-11T09:31:12Z</time>
      </trkpt>
      <trkpt lat="43.59544" lon="0.74069">
        <ele>165</ele>
        <time>2017-02-11T09:31:29Z</time>
      </trkpt>
      <trkpt lat="43.59541" lon="0.74076">
        <ele>165</ele>
        <time>2017-02-11T09:31:41Z</time>
      </trkpt>
      <trkpt lat="43.59529" lon="0.74094">
        <ele>164.04</ele>
        <time>2017-02-11T09:31:58Z</time>
      </trkpt>
      <trkpt lat="43.59515" lon="0.74114">
        <ele>164.04</ele>
        <time>2017-02-11T09:32:17Z</time>
      </trkpt>
      <trkpt lat="43.59505" lon="0.74133">
        <ele>163.56</ele>
        <time>2017-02-11T09:32:33Z</time>
      </trkpt>
      <trkpt lat="43.59495" lon="0.74147">
        <ele>163.56</ele>
        <time>2017-02-11T09:32:47Z</time>
      </trkpt>
      <trkpt lat="43.59483" lon="0.74164">
        <ele>163.56</ele>
        <time>2017-02-11T09:33:04Z</time>
      </trkpt>
      <trkpt lat="43.59472" lon="0.7418">
        <ele>163.56</ele>
        <time>2017-02-11T09:33:20Z</time>
      </trkpt>
      <trkpt lat="43.59459" lon="0.74202">
        <ele>164.04</ele>
        <time>2017-02-11T09:33:39Z</time>
      </trkpt>
      <trkpt lat="43.59444" lon="0.7422">
        <ele>164.04</ele>
        <time>2017-02-11T09:33:59Z</time>
      </trkpt>
      <trkpt lat="43.59434" lon="0.74234">
        <ele>164.52</ele>
        <time>2017-02-11T09:34:15Z</time>
      </trkpt>
      <trkpt lat="43.59431" lon="0.74239">
        <ele>165</ele>
        <time>2017-02-11T09:34:29Z</time>
      </trkpt>
      <trkpt lat="43.59433" lon="0.74239">
        <ele>165</ele>
        <time>2017-02-11T09:34:49Z</time>
      </trkpt>
      <trkpt lat="43.59427" lon="0.74244">
        <ele>165</ele>
        <time>2017-02-11T09:35:07Z</time>
      </trkpt>
      <trkpt lat="43.59419" lon="0.74257">
        <ele>164.52</ele>
        <time>2017-02-11T09:35:24Z</time>
      </trkpt>
      <trkpt lat="43.59406" lon="0.74273">
        <ele>164.52</ele>
        <time>2017-02-11T09:35:41Z</time>
      </trkpt>
      <trkpt lat="43.59396" lon="0.7429">
        <ele>165</ele>
        <time>2017-02-11T09:35:57Z</time>
      </trkpt>
      <trkpt lat="43.59385" lon="0.74307">
        <ele>165</ele>
        <time>2017-02-11T09:36:14Z</time>
      </trkpt>
      <trkpt lat="43.59372" lon="0.74323">
        <ele>165</ele>
        <time>2017-02-11T09:36:29Z</time>
      </trkpt>
      <trkpt lat="43.59358" lon="0.74342">
        <ele>165.48</ele>
        <time>2017-02-11T09:36:48Z</time>
      </trkpt>
      <trkpt lat="43.59345" lon="0.74362">
        <ele>166.45</ele>
        <time>2017-02-11T09:37:06Z</time>
      </trkpt>
      <trkpt lat="43.59333" lon="0.74381">
        <ele>167.41</ele>
        <time>2017-02-11T09:37:22Z</time>
      </trkpt>
      <trkpt lat="43.59322" lon="0.74396">
        <ele>168.85</ele>
        <time>2017-02-11T09:37:36Z</time>
      </trkpt>
      <trkpt lat="43.59308" lon="0.74418">
        <ele>171.25</ele>
        <time>2017-02-11T09:37:55Z</time>
      </trkpt>
      <trkpt lat="43.59297" lon="0.74435">
        <ele>173.66</ele>
        <time>2017-02-11T09:38:11Z</time>
      </trkpt>
      <trkpt lat="43.59296" lon="0.74444">
        <ele>174.14</ele>
        <time>2017-02-11T09:38:18Z</time>
      </trkpt>
      <trkpt lat="43.5931" lon="0.74459">
        <ele>174.62</ele>
        <time>2017-02-11T09:38:36Z</time>
      </trkpt>
      <trkpt lat="43.59327" lon="0.7447">
        <ele>175.1</ele>
        <time>2017-02-11T09:38:52Z</time>
      </trkpt>
      <trkpt lat="43.59341" lon="0.7448">
        <ele>176.06</ele>
        <time>2017-02-11T09:39:06Z</time>
      </trkpt>
      <trkpt lat="43.59358" lon="0.74497">
        <ele>176.54</ele>
        <time>2017-02-11T09:39:24Z</time>
      </trkpt>
      <trkpt lat="43.59375" lon="0.7452">
        <ele>177.02</ele>
        <time>2017-02-11T09:39:43Z</time>
      </trkpt>
      <trkpt lat="43.59376" lon="0.74522">
        <ele>176.54</ele>
        <time>2017-02-11T09:39:45Z</time>
      </trkpt>
      <trkpt lat="43.5939" lon="0.74543">
        <ele>177.02</ele>
        <time>2017-02-11T09:40:04Z</time>
      </trkpt>
      <trkpt lat="43.59403" lon="0.74564">
        <ele>177.5</ele>
        <time>2017-02-11T09:40:21Z</time>
      </trkpt>
      <trkpt lat="43.59414" lon="0.74582">
        <ele>177.98</ele>
        <time>2017-02-11T09:40:36Z</time>
      </trkpt>
      <trkpt lat="43.59428" lon="0.74606">
        <ele>177.5</ele>
        <time>2017-02-11T09:40:55Z</time>
      </trkpt>
      <trkpt lat="43.5944" lon="0.74625">
        <ele>177.02</ele>
        <time>2017-02-11T09:41:12Z</time>
      </trkpt>
      <trkpt lat="43.59453" lon="0.74645">
        <ele>176.54</ele>
        <time>2017-02-11T09:41:29Z</time>
      </trkpt>
      <trkpt lat="43.59466" lon="0.74667">
        <ele>176.54</ele>
        <time>2017-02-11T09:41:48Z</time>
      </trkpt>
      <trkpt lat="43.59469" lon="0.7468">
        <ele>176.06</ele>
        <time>2017-02-11T09:41:57Z</time>
      </trkpt>
      <trkpt lat="43.5946" lon="0.74693">
        <ele>177.5</ele>
        <time>2017-02-11T09:42:12Z</time>
      </trkpt>
      <trkpt lat="43.59445" lon="0.74715">
        <ele>179.9</ele>
        <time>2017-02-11T09:42:29Z</time>
      </trkpt>
      <trkpt lat="43.59429" lon="0.74732">
        <ele>180.87</ele>
        <time>2017-02-11T09:42:47Z</time>
      </trkpt>
      <trkpt lat="43.59414" lon="0.74749">
        <ele>182.31</ele>
        <time>2017-02-11T09:43:04Z</time>
      </trkpt>
      <trkpt lat="43.594" lon="0.74762">
        <ele>185.19</ele>
        <time>2017-02-11T09:43:21Z</time>
      </trkpt>
      <trkpt lat="43.59387" lon="0.74776">
        <ele>187.11</ele>
        <time>2017-02-11T09:43:37Z</time>
      </trkpt>
      <trkpt lat="43.59371" lon="0.74794">
        <ele>188.08</ele>
        <time>2017-02-11T09:43:55Z</time>
      </trkpt>
      <trkpt lat="43.59354" lon="0.74811">
        <ele>187.59</ele>
        <time>2017-02-11T09:44:14Z</time>
      </trkpt>
      <trkpt lat="43.59338" lon="0.74828">
        <ele>188.56</ele>
        <time>2017-02-11T09:44:31Z</time>
      </trkpt>
      <trkpt lat="43.5933" lon="0.74837">
        <ele>188.56</ele>
        <time>2017-02-11T09:44:40Z</time>
      </trkpt>
      <trkpt lat="43.59312" lon="0.74853">
        <ele>189.52</ele>
        <time>2017-02-11T09:44:59Z</time>
      </trkpt>
      <trkpt lat="43.59305" lon="0.74861">
        <ele>190.48</ele>
        <time>2017-02-11T09:45:08Z</time>
      </trkpt>
      <trkpt lat="43.59287" lon="0.74878">
        <ele>191.92</ele>
        <time>2017-02-11T09:45:27Z</time>
      </trkpt>
      <trkpt lat="43.59273" lon="0.74892">
        <ele>194.32</ele>
        <time>2017-02-11T09:45:43Z</time>
      </trkpt>
      <trkpt lat="43.5926" lon="0.74906">
        <ele>196.25</ele>
        <time>2017-02-11T09:45:59Z</time>
      </trkpt>
      <trkpt lat="43.59247" lon="0.7492">
        <ele>199.13</ele>
        <time>2017-02-11T09:46:17Z</time>
      </trkpt>
      <trkpt lat="43.59234" lon="0.74933">
        <ele>202.01</ele>
        <time>2017-02-11T09:46:34Z</time>
      </trkpt>
      <trkpt lat="43.59219" lon="0.74947">
        <ele>203.46</ele>
        <time>2017-02-11T09:46:52Z</time>
      </trkpt>
      <trkpt lat="43.59204" lon="0.7496">
        <ele>204.9</ele>
        <time>2017-02-11T09:47:09Z</time>
      </trkpt>
      <trkpt lat="43.59188" lon="0.74976">
        <ele>206.34</ele>
        <time>2017-02-11T09:47:27Z</time>
      </trkpt>
      <trkpt lat="43.59176" lon="0.7499">
        <ele>208.26</ele>
        <time>2017-02-11T09:47:42Z</time>
      </trkpt>
      <trkpt lat="43.59162" lon="0.75004">
        <ele>210.19</ele>
        <time>2017-02-11T09:47:58Z</time>
      </trkpt>
      <trkpt lat="43.59148" lon="0.75019">
        <ele>212.11</ele>
        <time>2017-02-11T09:48:15Z</time>
      </trkpt>
      <trkpt lat="43.59135" lon="0.75031">
        <ele>214.03</ele>
        <time>2017-02-11T09:48:30Z</time>
      </trkpt>
      <trkpt lat="43.59123" lon="0.75044">
        <ele>215.95</ele>
        <time>2017-02-11T09:48:45Z</time>
      </trkpt>
      <trkpt lat="43.5911" lon="0.75056">
        <ele>217.4</ele>
        <time>2017-02-11T09:48:59Z</time>
      </trkpt>
      <trkpt lat="43.59096" lon="0.75073">
        <ele>217.4</ele>
        <time>2017-02-11T09:49:16Z</time>
      </trkpt>
      <trkpt lat="43.59086" lon="0.75096">
        <ele>217.4</ele>
        <time>2017-02-11T09:49:35Z</time>
      </trkpt>
      <trkpt lat="43.59082" lon="0.7512">
        <ele>217.88</ele>
        <time>2017-02-11T09:49:52Z</time>
      </trkpt>
      <trkpt lat="43.59079" lon="0.75145">
        <ele>217.88</ele>
        <time>2017-02-11T09:50:10Z</time>
      </trkpt>
      <trkpt lat="43.59074" lon="0.7517">
        <ele>218.36</ele>
        <time>2017-02-11T09:50:29Z</time>
      </trkpt>
      <trkpt lat="43.59074" lon="0.75172">
        <ele>218.36</ele>
        <time>2017-02-11T09:50:30Z</time>
      </trkpt>
      <trkpt lat="43.59068" lon="0.75194">
        <ele>218.84</ele>
        <time>2017-02-11T09:50:47Z</time>
      </trkpt>
      <trkpt lat="43.59064" lon="0.75212">
        <ele>218.84</ele>
        <time>2017-02-11T09:50:59Z</time>
      </trkpt>
      <trkpt lat="43.59058" lon="0.75234">
        <ele>218.36</ele>
        <time>2017-02-11T09:51:16Z</time>
      </trkpt>
      <trkpt lat="43.5905" lon="0.75256">
        <ele>218.36</ele>
        <time>2017-02-11T09:51:32Z</time>
      </trkpt>
      <trkpt lat="43.59042" lon="0.75277">
        <ele>218.84</ele>
        <time>2017-02-11T09:51:47Z</time>
      </trkpt>
      <trkpt lat="43.59034" lon="0.75299">
        <ele>218.84</ele>
        <time>2017-02-11T09:52:04Z</time>
      </trkpt>
      <trkpt lat="43.59025" lon="0.75322">
        <ele>219.32</ele>
        <time>2017-02-11T09:52:21Z</time>
      </trkpt>
      <trkpt lat="43.59015" lon="0.75344">
        <ele>219.32</ele>
        <time>2017-02-11T09:52:39Z</time>
      </trkpt>
      <trkpt lat="43.59008" lon="0.75362">
        <ele>219.32</ele>
        <time>2017-02-11T09:52:52Z</time>
      </trkpt>
      <trkpt lat="43.58999" lon="0.75376">
        <ele>219.32</ele>
        <time>2017-02-11T09:53:04Z</time>
      </trkpt>
      <trkpt lat="43.58993" lon="0.75403">
        <ele>219.8</ele>
        <time>2017-02-11T09:53:21Z</time>
      </trkpt>
      <trkpt lat="43.58989" lon="0.75424">
        <ele>220.28</ele>
        <time>2017-02-11T09:53:36Z</time>
      </trkpt>
      <trkpt lat="43.58985" lon="0.75448">
        <ele>220.76</ele>
        <time>2017-02-11T09:53:53Z</time>
      </trkpt>
      <trkpt lat="43.58981" lon="0.75471">
        <ele>221.24</ele>
        <time>2017-02-11T09:54:08Z</time>
      </trkpt>
      <trkpt lat="43.58975" lon="0.75493">
        <ele>221.72</ele>
        <time>2017-02-11T09:54:24Z</time>
      </trkpt>
      <trkpt lat="43.58969" lon="0.75512">
        <ele>222.2</ele>
        <time>2017-02-11T09:54:39Z</time>
      </trkpt>
      <trkpt lat="43.58963" lon="0.75534">
        <ele>222.2</ele>
        <time>2017-02-11T09:54:56Z</time>
      </trkpt>
      <trkpt lat="43.58958" lon="0.75549">
        <ele>222.2</ele>
        <time>2017-02-11T09:55:07Z</time>
      </trkpt>
      <trkpt lat="43.58949" lon="0.75573">
        <ele>222.68</ele>
        <time>2017-02-11T09:55:24Z</time>
      </trkpt>
      <trkpt lat="43.5894" lon="0.75592">
        <ele>222.68</ele>
        <time>2017-02-11T09:55:39Z</time>
      </trkpt>
      <trkpt lat="43.5893" lon="0.75611">
        <ele>223.16</ele>
        <time>2017-02-11T09:55:55Z</time>
      </trkpt>
      <trkpt lat="43.58925" lon="0.75622">
        <ele>223.16</ele>
        <time>2017-02-11T09:56:04Z</time>
      </trkpt>
      <trkpt lat="43.58915" lon="0.75638">
        <ele>224.12</ele>
        <time>2017-02-11T09:56:17Z</time>
      </trkpt>
      <trkpt lat="43.58908" lon="0.75649">
        <ele>224.61</ele>
        <time>2017-02-11T09:56:27Z</time>
      </trkpt>
      <trkpt lat="43.58897" lon="0.75666">
        <ele>225.09</ele>
        <time>2017-02-11T09:56:43Z</time>
      </trkpt>
      <trkpt lat="43.58888" lon="0.75681">
        <ele>225.57</ele>
        <time>2017-02-11T09:56:57Z</time>
      </trkpt>
      <trkpt lat="43.58877" lon="0.757">
        <ele>226.05</ele>
        <time>2017-02-11T09:57:13Z</time>
      </trkpt>
      <trkpt lat="43.58866" lon="0.75722">
        <ele>226.53</ele>
        <time>2017-02-11T09:57:30Z</time>
      </trkpt>
      <trkpt lat="43.58866" lon="0.75723">
        <ele>226.53</ele>
        <time>2017-02-11T09:57:31Z</time>
      </trkpt>
      <trkpt lat="43.58855" lon="0.75744">
        <ele>227.01</ele>
        <time>2017-02-11T09:57:48Z</time>
      </trkpt>
      <trkpt lat="43.58846" lon="0.75762">
        <ele>227.01</ele>
        <time>2017-02-11T09:58:03Z</time>
      </trkpt>
      <trkpt lat="43.58844" lon="0.75767">
        <ele>227.49</ele>
        <time>2017-02-11T09:58:07Z</time>
      </trkpt>
      <trkpt lat="43.58836" lon="0.75782">
        <ele>227.49</ele>
        <time>2017-02-11T09:58:20Z</time>
      </trkpt>
      <trkpt lat="43.58826" lon="0.75801">
        <ele>228.45</ele>
        <time>2017-02-11T09:58:36Z</time>
      </trkpt>
      <trkpt lat="43.58817" lon="0.75819">
        <ele>228.93</ele>
        <time>2017-02-11T09:58:51Z</time>
      </trkpt>
      <trkpt lat="43.58809" lon="0.75837">
        <ele>229.41</ele>
        <time>2017-02-11T09:59:05Z</time>
      </trkpt>
      <trkpt lat="43.58798" lon="0.75857">
        <ele>230.37</ele>
        <time>2017-02-11T09:59:22Z</time>
      </trkpt>
      <trkpt lat="43.58787" lon="0.75878">
        <ele>230.37</ele>
        <time>2017-02-11T09:59:39Z</time>
      </trkpt>
      <trkpt lat="43.58785" lon="0.75882">
        <ele>230.37</ele>
        <time>2017-02-11T09:59:42Z</time>
      </trkpt>
      <trkpt lat="43.58773" lon="0.75903">
        <ele>230.37</ele>
        <time>2017-02-11T10:00:00Z</time>
      </trkpt>
      <trkpt lat="43.58772" lon="0.75906">
        <ele>230.37</ele>
        <time>2017-02-11T10:00:03Z</time>
      </trkpt>
      <trkpt lat="43.58762" lon="0.7592">
        <ele>230.37</ele>
        <time>2017-02-11T10:00:16Z</time>
      </trkpt>
      <trkpt lat="43.58758" lon="0.75929">
        <ele>230.37</ele>
        <time>2017-02-11T10:00:23Z</time>
      </trkpt>
      <trkpt lat="43.58747" lon="0.75943">
        <ele>231.33</ele>
        <time>2017-02-11T10:00:37Z</time>
      </trkpt>
      <trkpt lat="43.58742" lon="0.75952">
        <ele>230.85</ele>
        <time>2017-02-11T10:00:45Z</time>
      </trkpt>
      <trkpt lat="43.5874" lon="0.75954">
        <ele>230.85</ele>
        <time>2017-02-11T10:00:47Z</time>
      </trkpt>
      <trkpt lat="43.58727" lon="0.75963">
        <ele>231.81</ele>
        <time>2017-02-11T10:01:02Z</time>
      </trkpt>
      <trkpt lat="43.58711" lon="0.75972">
        <ele>233.26</ele>
        <time>2017-02-11T10:01:18Z</time>
      </trkpt>
      <trkpt lat="43.58701" lon="0.7598">
        <ele>233.74</ele>
        <time>2017-02-11T10:01:28Z</time>
      </trkpt>
      <trkpt lat="43.58699" lon="0.75981">
        <ele>234.22</ele>
        <time>2017-02-11T10:01:30Z</time>
      </trkpt>
      <trkpt lat="43.58686" lon="0.7599">
        <ele>235.18</ele>
        <time>2017-02-11T10:01:43Z</time>
      </trkpt>
      <trkpt lat="43.58674" lon="0.76001">
        <ele>236.14</ele>
        <time>2017-02-11T10:01:57Z</time>
      </trkpt>
      <trkpt lat="43.58667" lon="0.76005">
        <ele>236.62</ele>
        <time>2017-02-11T10:02:06Z</time>
      </trkpt>
      <trkpt lat="43.58653" lon="0.76012">
        <ele>238.06</ele>
        <time>2017-02-11T10:02:19Z</time>
      </trkpt>
      <trkpt lat="43.5864" lon="0.7602">
        <ele>239.99</ele>
        <time>2017-02-11T10:02:33Z</time>
      </trkpt>
      <trkpt lat="43.58638" lon="0.76023">
        <ele>239.99</ele>
        <time>2017-02-11T10:02:36Z</time>
      </trkpt>
      <trkpt lat="43.58624" lon="0.76034">
        <ele>241.43</ele>
        <time>2017-02-11T10:02:53Z</time>
      </trkpt>
      <trkpt lat="43.58618" lon="0.76037">
        <ele>241.91</ele>
        <time>2017-02-11T10:02:59Z</time>
      </trkpt>
      <trkpt lat="43.58602" lon="0.76044">
        <ele>243.35</ele>
        <time>2017-02-11T10:03:15Z</time>
      </trkpt>
      <trkpt lat="43.58582" lon="0.7605">
        <ele>243.83</ele>
        <time>2017-02-11T10:03:32Z</time>
      </trkpt>
      <trkpt lat="43.58564" lon="0.76058">
        <ele>244.79</ele>
        <time>2017-02-11T10:03:48Z</time>
      </trkpt>
      <trkpt lat="43.5855" lon="0.76071">
        <ele>245.75</ele>
        <time>2017-02-11T10:04:03Z</time>
      </trkpt>
      <trkpt lat="43.58535" lon="0.76087">
        <ele>245.75</ele>
        <time>2017-02-11T10:04:20Z</time>
      </trkpt>
      <trkpt lat="43.58521" lon="0.76104">
        <ele>246.23</ele>
        <time>2017-02-11T10:04:36Z</time>
      </trkpt>
      <trkpt lat="43.58517" lon="0.76111">
        <ele>246.23</ele>
        <time>2017-02-11T10:04:41Z</time>
      </trkpt>
      <trkpt lat="43.58514" lon="0.76116">
        <ele>246.23</ele>
        <time>2017-02-11T10:04:45Z</time>
      </trkpt>
      <trkpt lat="43.58499" lon="0.76135">
        <ele>246.72</ele>
        <time>2017-02-11T10:05:03Z</time>
      </trkpt>
      <trkpt lat="43.58486" lon="0.7615">
        <ele>247.2</ele>
        <time>2017-02-11T10:05:19Z</time>
      </trkpt>
      <trkpt lat="43.58472" lon="0.76167">
        <ele>247.68</ele>
        <time>2017-02-11T10:05:35Z</time>
      </trkpt>
      <trkpt lat="43.58466" lon="0.76173">
        <ele>247.68</ele>
        <time>2017-02-11T10:05:43Z</time>
      </trkpt>
      <trkpt lat="43.58464" lon="0.76177">
        <ele>247.68</ele>
        <time>2017-02-11T10:05:46Z</time>
      </trkpt>
      <trkpt lat="43.58452" lon="0.76191">
        <ele>248.16</ele>
        <time>2017-02-11T10:06:00Z</time>
      </trkpt>
      <trkpt lat="43.58438" lon="0.76206">
        <ele>249.12</ele>
        <time>2017-02-11T10:06:16Z</time>
      </trkpt>
      <trkpt lat="43.58434" lon="0.76207">
        <ele>249.6</ele>
        <time>2017-02-11T10:06:20Z</time>
      </trkpt>
      <trkpt lat="43.58426" lon="0.76205">
        <ele>250.56</ele>
        <time>2017-02-11T10:06:28Z</time>
      </trkpt>
      <trkpt lat="43.58412" lon="0.76194">
        <ele>249.6</ele>
        <time>2017-02-11T10:06:47Z</time>
      </trkpt>
      <trkpt lat="43.58396" lon="0.76184">
        <ele>248.64</ele>
        <time>2017-02-11T10:07:04Z</time>
      </trkpt>
      <trkpt lat="43.58391" lon="0.76182">
        <ele>248.16</ele>
        <time>2017-02-11T10:07:23Z</time>
      </trkpt>
      <trkpt lat="43.58389" lon="0.76181">
        <ele>248.16</ele>
        <time>2017-02-11T10:07:40Z</time>
      </trkpt>
      <trkpt lat="43.58389" lon="0.76181">
        <ele>248.16</ele>
        <time>2017-02-11T10:07:58Z</time>
      </trkpt>
      <trkpt lat="43.58392" lon="0.76187">
        <ele>248.16</ele>
        <time>2017-02-11T10:08:16Z</time>
      </trkpt>
      <trkpt lat="43.58396" lon="0.76186">
        <ele>248.16</ele>
        <time>2017-02-11T10:08:35Z</time>
      </trkpt>
      <trkpt lat="43.58393" lon="0.76186">
        <ele>248.16</ele>
        <time>2017-02-11T10:08:37Z</time>
      </trkpt>
      <trkpt lat="43.5839" lon="0.76188">
        <ele>248.16</ele>
        <time>2017-02-11T10:08:39Z</time>
      </trkpt>
      <trkpt lat="43.58389" lon="0.76195">
        <ele>248.16</ele>
        <time>2017-02-11T10:08:53Z</time>
      </trkpt>
      <trkpt lat="43.58389" lon="0.76192">
        <ele>248.16</ele>
        <time>2017-02-11T10:09:10Z</time>
      </trkpt>
      <trkpt lat="43.58391" lon="0.76187">
        <ele>248.16</ele>
        <time>2017-02-11T10:09:27Z</time>
      </trkpt>
      <trkpt lat="43.5839" lon="0.76191">
        <ele>248.16</ele>
        <time>2017-02-11T10:09:45Z</time>
      </trkpt>
      <trkpt lat="43.58389" lon="0.76186">
        <ele>248.16</ele>
        <time>2017-02-11T10:10:03Z</time>
      </trkpt>
      <trkpt lat="43.58389" lon="0.76183">
        <ele>248.16</ele>
        <time>2017-02-11T10:10:31Z</time>
      </trkpt>
      <trkpt lat="43.58392" lon="0.76182">
        <ele>248.64</ele>
        <time>2017-02-11T10:11:01Z</time>
      </trkpt>
      <trkpt lat="43.58395" lon="0.76185">
        <ele>248.64</ele>
        <time>2017-02-11T10:11:20Z</time>
      </trkpt>
      <trkpt lat="43.58389" lon="0.76185">
        <ele>248.16</ele>
        <time>2017-02-11T10:11:33Z</time>
      </trkpt>
      <trkpt lat="43.58386" lon="0.76181">
        <ele>248.64</ele>
        <time>2017-02-11T10:11:56Z</time>
      </trkpt>
      <trkpt lat="43.58386" lon="0.7618">
        <ele>248.64</ele>
        <time>2017-02-11T10:12:35Z</time>
      </trkpt>
      <trkpt lat="43.58387" lon="0.76176">
        <ele>248.64</ele>
        <time>2017-02-11T10:13:13Z</time>
      </trkpt>
      <trkpt lat="43.58386" lon="0.76182">
        <ele>249.12</ele>
        <time>2017-02-11T10:13:37Z</time>
      </trkpt>
      <trkpt lat="43.58387" lon="0.76183">
        <ele>249.12</ele>
        <time>2017-02-11T10:14:04Z</time>
      </trkpt>
      <trkpt lat="43.58388" lon="0.76184">
        <ele>249.12</ele>
        <time>2017-02-11T10:14:24Z</time>
      </trkpt>
      <trkpt lat="43.58386" lon="0.76181">
        <ele>249.12</ele>
        <time>2017-02-11T10:14:57Z</time>
      </trkpt>
      <trkpt lat="43.58386" lon="0.76182">
        <ele>249.12</ele>
        <time>2017-02-11T10:15:31Z</time>
      </trkpt>
      <trkpt lat="43.58388" lon="0.76185">
        <ele>249.12</ele>
        <time>2017-02-11T10:15:50Z</time>
      </trkpt>
      <trkpt lat="43.58389" lon="0.76184">
        <ele>249.6</ele>
        <time>2017-02-11T10:16:07Z</time>
      </trkpt>
      <trkpt lat="43.58384" lon="0.76186">
        <ele>249.6</ele>
        <time>2017-02-11T10:16:17Z</time>
      </trkpt>
      <trkpt lat="43.58372" lon="0.76207">
        <ele>249.6</ele>
        <time>2017-02-11T10:16:36Z</time>
      </trkpt>
      <trkpt lat="43.58362" lon="0.76224">
        <ele>250.56</ele>
        <time>2017-02-11T10:16:51Z</time>
      </trkpt>
      <trkpt lat="43.5836" lon="0.7623">
        <ele>250.56</ele>
        <time>2017-02-11T10:16:55Z</time>
      </trkpt>
      <trkpt lat="43.58355" lon="0.7624">
        <ele>250.56</ele>
        <time>2017-02-11T10:17:03Z</time>
      </trkpt>
      <trkpt lat="43.58343" lon="0.76264">
        <ele>251.04</ele>
        <time>2017-02-11T10:17:21Z</time>
      </trkpt>
      <trkpt lat="43.58335" lon="0.76279">
        <ele>250.56</ele>
        <time>2017-02-11T10:17:35Z</time>
      </trkpt>
      <trkpt lat="43.58332" lon="0.76293">
        <ele>251.04</ele>
        <time>2017-02-11T10:17:53Z</time>
      </trkpt>
      <trkpt lat="43.58323" lon="0.76306">
        <ele>250.56</ele>
        <time>2017-02-11T10:18:08Z</time>
      </trkpt>
      <trkpt lat="43.58314" lon="0.76319">
        <ele>250.56</ele>
        <time>2017-02-11T10:18:22Z</time>
      </trkpt>
      <trkpt lat="43.58306" lon="0.76333">
        <ele>250.56</ele>
        <time>2017-02-11T10:18:36Z</time>
      </trkpt>
      <trkpt lat="43.58301" lon="0.76341">
        <ele>250.08</ele>
        <time>2017-02-11T10:18:48Z</time>
      </trkpt>
      <trkpt lat="43.58296" lon="0.76347">
        <ele>250.08</ele>
        <time>2017-02-11T10:19:04Z</time>
      </trkpt>
      <trkpt lat="43.58296" lon="0.7635">
        <ele>250.08</ele>
        <time>2017-02-11T10:19:17Z</time>
      </trkpt>
      <trkpt lat="43.58299" lon="0.7635">
        <ele>249.6</ele>
        <time>2017-02-11T10:19:39Z</time>
      </trkpt>
      <trkpt lat="43.58299" lon="0.7635">
        <ele>249.6</ele>
        <time>2017-02-11T10:20:07Z</time>
      </trkpt>
      <trkpt lat="43.58297" lon="0.76349">
        <ele>249.6</ele>
        <time>2017-02-11T10:20:34Z</time>
      </trkpt>
      <trkpt lat="43.58286" lon="0.76364">
        <ele>248.64</ele>
        <time>2017-02-11T10:20:49Z</time>
      </trkpt>
      <trkpt lat="43.58278" lon="0.76376">
        <ele>248.64</ele>
        <time>2017-02-11T10:21:02Z</time>
      </trkpt>
      <trkpt lat="43.58268" lon="0.76393">
        <ele>248.16</ele>
        <time>2017-02-11T10:21:18Z</time>
      </trkpt>
      <trkpt lat="43.58257" lon="0.76411">
        <ele>247.68</ele>
        <time>2017-02-11T10:21:33Z</time>
      </trkpt>
      <trkpt lat="43.58245" lon="0.76426">
        <ele>247.2</ele>
        <time>2017-02-11T10:21:47Z</time>
      </trkpt>
      <trkpt lat="43.58234" lon="0.76445">
        <ele>246.23</ele>
        <time>2017-02-11T10:22:02Z</time>
      </trkpt>
      <trkpt lat="43.58222" lon="0.7646">
        <ele>245.27</ele>
        <time>2017-02-11T10:22:16Z</time>
      </trkpt>
      <trkpt lat="43.5822" lon="0.76462">
        <ele>244.79</ele>
        <time>2017-02-11T10:22:19Z</time>
      </trkpt>
      <trkpt lat="43.58218" lon="0.76465">
        <ele>244.79</ele>
        <time>2017-02-11T10:22:22Z</time>
      </trkpt>
      <trkpt lat="43.58215" lon="0.76464">
        <ele>244.31</ele>
        <time>2017-02-11T10:22:26Z</time>
      </trkpt>
      <trkpt lat="43.58201" lon="0.7645">
        <ele>241.43</ele>
        <time>2017-02-11T10:22:46Z</time>
      </trkpt>
      <trkpt lat="43.5819" lon="0.76437">
        <ele>239.99</ele>
        <time>2017-02-11T10:22:59Z</time>
      </trkpt>
      <trkpt lat="43.58176" lon="0.76424">
        <ele>238.06</ele>
        <time>2017-02-11T10:23:14Z</time>
      </trkpt>
      <trkpt lat="43.58164" lon="0.76411">
        <ele>236.14</ele>
        <time>2017-02-11T10:23:30Z</time>
      </trkpt>
      <trkpt lat="43.58156" lon="0.764">
        <ele>235.18</ele>
        <time>2017-02-11T10:23:41Z</time>
      </trkpt>
      <trkpt lat="43.5814" lon="0.76384">
        <ele>232.78</ele>
        <time>2017-02-11T10:24:00Z</time>
      </trkpt>
      <trkpt lat="43.58128" lon="0.7637">
        <ele>231.33</ele>
        <time>2017-02-11T10:24:16Z</time>
      </trkpt>
      <trkpt lat="43.58116" lon="0.76356">
        <ele>229.89</ele>
        <time>2017-02-11T10:24:32Z</time>
      </trkpt>
      <trkpt lat="43.58103" lon="0.76342">
        <ele>228.45</ele>
        <time>2017-02-11T10:24:48Z</time>
      </trkpt>
      <trkpt lat="43.58089" lon="0.76326">
        <ele>226.53</ele>
        <time>2017-02-11T10:25:07Z</time>
      </trkpt>
      <trkpt lat="43.58076" lon="0.76311">
        <ele>224.61</ele>
        <time>2017-02-11T10:25:23Z</time>
      </trkpt>
      <trkpt lat="43.5806" lon="0.76294">
        <ele>223.16</ele>
        <time>2017-02-11T10:25:40Z</time>
      </trkpt>
      <trkpt lat="43.58057" lon="0.76291">
        <ele>222.68</ele>
        <time>2017-02-11T10:25:43Z</time>
      </trkpt>
      <trkpt lat="43.58052" lon="0.76285">
        <ele>222.2</ele>
        <time>2017-02-11T10:25:49Z</time>
      </trkpt>
      <trkpt lat="43.58036" lon="0.76267">
        <ele>220.28</ele>
        <time>2017-02-11T10:26:07Z</time>
      </trkpt>
      <trkpt lat="43.58023" lon="0.76251">
        <ele>218.84</ele>
        <time>2017-02-11T10:26:25Z</time>
      </trkpt>
      <trkpt lat="43.58011" lon="0.76235">
        <ele>216.91</ele>
        <time>2017-02-11T10:26:41Z</time>
      </trkpt>
      <trkpt lat="43.58" lon="0.76222">
        <ele>215.95</ele>
        <time>2017-02-11T10:26:54Z</time>
      </trkpt>
      <trkpt lat="43.57984" lon="0.76206">
        <ele>214.03</ele>
        <time>2017-02-11T10:27:12Z</time>
      </trkpt>
      <trkpt lat="43.57968" lon="0.76191">
        <ele>212.59</ele>
        <time>2017-02-11T10:27:30Z</time>
      </trkpt>
      <trkpt lat="43.57966" lon="0.76189">
        <ele>212.59</ele>
        <time>2017-02-11T10:27:32Z</time>
      </trkpt>
      <trkpt lat="43.57955" lon="0.76178">
        <ele>211.63</ele>
        <time>2017-02-11T10:27:45Z</time>
      </trkpt>
      <trkpt lat="43.57944" lon="0.76168">
        <ele>210.67</ele>
        <time>2017-02-11T10:27:58Z</time>
      </trkpt>
      <trkpt lat="43.57932" lon="0.76155">
        <ele>209.22</ele>
        <time>2017-02-11T10:28:14Z</time>
      </trkpt>
      <trkpt lat="43.57921" lon="0.76144">
        <ele>209.22</ele>
        <time>2017-02-11T10:28:26Z</time>
      </trkpt>
      <trkpt lat="43.5791" lon="0.76139">
        <ele>207.78</ele>
        <time>2017-02-11T10:28:38Z</time>
      </trkpt>
      <trkpt lat="43.57892" lon="0.76127">
        <ele>206.34</ele>
        <time>2017-02-11T10:28:57Z</time>
      </trkpt>
      <trkpt lat="43.57871" lon="0.76113">
        <ele>205.86</ele>
        <time>2017-02-11T10:29:18Z</time>
      </trkpt>
      <trkpt lat="43.57852" lon="0.76104">
        <ele>205.86</ele>
        <time>2017-02-11T10:29:35Z</time>
      </trkpt>
      <trkpt lat="43.57834" lon="0.76095">
        <ele>206.34</ele>
        <time>2017-02-11T10:29:52Z</time>
      </trkpt>
      <trkpt lat="43.57818" lon="0.76085">
        <ele>206.82</ele>
        <time>2017-02-11T10:30:07Z</time>
      </trkpt>
      <trkpt lat="43.57802" lon="0.76074">
        <ele>207.78</ele>
        <time>2017-02-11T10:30:22Z</time>
      </trkpt>
      <trkpt lat="43.57786" lon="0.76065">
        <ele>208.26</ele>
        <time>2017-02-11T10:30:37Z</time>
      </trkpt>
      <trkpt lat="43.57768" lon="0.76055">
        <ele>209.7</ele>
        <time>2017-02-11T10:30:53Z</time>
      </trkpt>
      <trkpt lat="43.57753" lon="0.76047">
        <ele>210.67</ele>
        <time>2017-02-11T10:31:08Z</time>
      </trkpt>
      <trkpt lat="43.57736" lon="0.76038">
        <ele>211.63</ele>
        <time>2017-02-11T10:31:24Z</time>
      </trkpt>
      <trkpt lat="43.57718" lon="0.76028">
        <ele>213.55</ele>
        <time>2017-02-11T10:31:41Z</time>
      </trkpt>
      <trkpt lat="43.57712" lon="0.76024">
        <ele>214.51</ele>
        <time>2017-02-11T10:31:47Z</time>
      </trkpt>
      <trkpt lat="43.57696" lon="0.76014">
        <ele>215.95</ele>
        <time>2017-02-11T10:32:04Z</time>
      </trkpt>
      <trkpt lat="43.5768" lon="0.76005">
        <ele>217.4</ele>
        <time>2017-02-11T10:32:20Z</time>
      </trkpt>
      <trkpt lat="43.57676" lon="0.76004">
        <ele>217.88</ele>
        <time>2017-02-11T10:32:24Z</time>
      </trkpt>
      <trkpt lat="43.57659" lon="0.75994">
        <ele>219.8</ele>
        <time>2017-02-11T10:32:42Z</time>
      </trkpt>
      <trkpt lat="43.57644" lon="0.75982">
        <ele>221.72</ele>
        <time>2017-02-11T10:33:00Z</time>
      </trkpt>
      <trkpt lat="43.57628" lon="0.75968">
        <ele>223.16</ele>
        <time>2017-02-11T10:33:17Z</time>
      </trkpt>
      <trkpt lat="43.57613" lon="0.75953">
        <ele>224.12</ele>
        <time>2017-02-11T10:33:34Z</time>
      </trkpt>
      <trkpt lat="43.57596" lon="0.75936">
        <ele>224.61</ele>
        <time>2017-02-11T10:33:52Z</time>
      </trkpt>
      <trkpt lat="43.57581" lon="0.75921">
        <ele>225.09</ele>
        <time>2017-02-11T10:34:08Z</time>
      </trkpt>
      <trkpt lat="43.57566" lon="0.75905">
        <ele>226.05</ele>
        <time>2017-02-11T10:34:25Z</time>
      </trkpt>
      <trkpt lat="43.57566" lon="0.75904">
        <ele>226.05</ele>
        <time>2017-02-11T10:34:26Z</time>
      </trkpt>
      <trkpt lat="43.57552" lon="0.7589">
        <ele>227.49</ele>
        <time>2017-02-11T10:34:42Z</time>
      </trkpt>
      <trkpt lat="43.5754" lon="0.75874">
        <ele>227.49</ele>
        <time>2017-02-11T10:34:57Z</time>
      </trkpt>
      <trkpt lat="43.57525" lon="0.75855">
        <ele>228.45</ele>
        <time>2017-02-11T10:35:15Z</time>
      </trkpt>
      <trkpt lat="43.57514" lon="0.75846">
        <ele>228.93</ele>
        <time>2017-02-11T10:35:27Z</time>
      </trkpt>
      <trkpt lat="43.57499" lon="0.75832">
        <ele>229.89</ele>
        <time>2017-02-11T10:35:44Z</time>
      </trkpt>
      <trkpt lat="43.57486" lon="0.75823">
        <ele>230.37</ele>
        <time>2017-02-11T10:35:58Z</time>
      </trkpt>
      <trkpt lat="43.57472" lon="0.75813">
        <ele>230.85</ele>
        <time>2017-02-11T10:36:13Z</time>
      </trkpt>
      <trkpt lat="43.57472" lon="0.75812">
        <ele>230.85</ele>
        <time>2017-02-11T10:36:14Z</time>
      </trkpt>
      <trkpt lat="43.57461" lon="0.75799">
        <ele>231.33</ele>
        <time>2017-02-11T10:36:31Z</time>
      </trkpt>
      <trkpt lat="43.57454" lon="0.75785">
        <ele>232.3</ele>
        <time>2017-02-11T10:36:46Z</time>
      </trkpt>
      <trkpt lat="43.57451" lon="0.75774">
        <ele>233.26</ele>
        <time>2017-02-11T10:36:55Z</time>
      </trkpt>
      <trkpt lat="43.57446" lon="0.75757">
        <ele>234.22</ele>
        <time>2017-02-11T10:37:08Z</time>
      </trkpt>
      <trkpt lat="43.57438" lon="0.75737">
        <ele>235.18</ele>
        <time>2017-02-11T10:37:23Z</time>
      </trkpt>
      <trkpt lat="43.57429" lon="0.75718">
        <ele>236.62</ele>
        <time>2017-02-11T10:37:38Z</time>
      </trkpt>
      <trkpt lat="43.57421" lon="0.75701">
        <ele>237.58</ele>
        <time>2017-02-11T10:37:53Z</time>
      </trkpt>
      <trkpt lat="43.57413" lon="0.75682">
        <ele>239.99</ele>
        <time>2017-02-11T10:38:10Z</time>
      </trkpt>
      <trkpt lat="43.57406" lon="0.75666">
        <ele>241.91</ele>
        <time>2017-02-11T10:38:24Z</time>
      </trkpt>
      <trkpt lat="43.574" lon="0.75649">
        <ele>243.83</ele>
        <time>2017-02-11T10:38:40Z</time>
      </trkpt>
      <trkpt lat="43.57394" lon="0.75635">
        <ele>246.23</ele>
        <time>2017-02-11T10:38:54Z</time>
      </trkpt>
      <trkpt lat="43.57386" lon="0.75618">
        <ele>248.64</ele>
        <time>2017-02-11T10:39:11Z</time>
      </trkpt>
      <trkpt lat="43.57379" lon="0.75603">
        <ele>251.04</ele>
        <time>2017-02-11T10:39:27Z</time>
      </trkpt>
      <trkpt lat="43.57373" lon="0.75589">
        <ele>253.44</ele>
        <time>2017-02-11T10:39:43Z</time>
      </trkpt>
      <trkpt lat="43.57366" lon="0.75576">
        <ele>255.37</ele>
        <time>2017-02-11T10:39:57Z</time>
      </trkpt>
      <trkpt lat="43.57358" lon="0.75562">
        <ele>257.77</ele>
        <time>2017-02-11T10:40:10Z</time>
      </trkpt>
      <trkpt lat="43.57352" lon="0.75548">
        <ele>260.17</ele>
        <time>2017-02-11T10:40:25Z</time>
      </trkpt>
      <trkpt lat="43.57342" lon="0.75533">
        <ele>263.06</ele>
        <time>2017-02-11T10:40:41Z</time>
      </trkpt>
      <trkpt lat="43.57335" lon="0.7552">
        <ele>266.42</ele>
        <time>2017-02-11T10:40:56Z</time>
      </trkpt>
      <trkpt lat="43.5733" lon="0.7551">
        <ele>268.83</ele>
        <time>2017-02-11T10:41:10Z</time>
      </trkpt>
      <trkpt lat="43.57324" lon="0.75496">
        <ele>271.71</ele>
        <time>2017-02-11T10:41:26Z</time>
      </trkpt>
      <trkpt lat="43.57318" lon="0.75484">
        <ele>274.59</ele>
        <time>2017-02-11T10:41:42Z</time>
      </trkpt>
      <trkpt lat="43.57306" lon="0.75467">
        <ele>276.52</ele>
        <time>2017-02-11T10:41:57Z</time>
      </trkpt>
      <trkpt lat="43.57292" lon="0.75457">
        <ele>277</ele>
        <time>2017-02-11T10:42:10Z</time>
      </trkpt>
      <trkpt lat="43.57288" lon="0.75448">
        <ele>278.44</ele>
        <time>2017-02-11T10:42:24Z</time>
      </trkpt>
      <trkpt lat="43.57289" lon="0.75441">
        <ele>278.92</ele>
        <time>2017-02-11T10:42:36Z</time>
      </trkpt>
      <trkpt lat="43.57288" lon="0.75436">
        <ele>278.44</ele>
        <time>2017-02-11T10:42:54Z</time>
      </trkpt>
      <trkpt lat="43.57285" lon="0.75431">
        <ele>278.92</ele>
        <time>2017-02-11T10:43:21Z</time>
      </trkpt>
      <trkpt lat="43.57285" lon="0.7543">
        <ele>278.92</ele>
        <time>2017-02-11T10:43:42Z</time>
      </trkpt>
      <trkpt lat="43.57285" lon="0.75431">
        <ele>278.44</ele>
        <time>2017-02-11T10:44:17Z</time>
      </trkpt>
      <trkpt lat="43.57283" lon="0.75431">
        <ele>278.92</ele>
        <time>2017-02-11T10:44:43Z</time>
      </trkpt>
      <trkpt lat="43.57284" lon="0.75431">
        <ele>278.44</ele>
        <time>2017-02-11T10:45:05Z</time>
      </trkpt>
      <trkpt lat="43.57285" lon="0.75431">
        <ele>278.44</ele>
        <time>2017-02-11T10:45:31Z</time>
      </trkpt>
      <trkpt lat="43.57287" lon="0.75438">
        <ele>278.44</ele>
        <time>2017-02-11T10:45:51Z</time>
      </trkpt>
      <trkpt lat="43.57287" lon="0.75437">
        <ele>278.44</ele>
        <time>2017-02-11T10:46:17Z</time>
      </trkpt>
      <trkpt lat="43.57287" lon="0.75437">
        <ele>278.92</ele>
        <time>2017-02-11T10:46:43Z</time>
      </trkpt>
      <trkpt lat="43.57289" lon="0.75438">
        <ele>278.92</ele>
        <time>2017-02-11T10:47:17Z</time>
      </trkpt>
      <trkpt lat="43.57289" lon="0.75438">
        <ele>278.92</ele>
        <time>2017-02-11T10:47:39Z</time>
      </trkpt>
      <trkpt lat="43.57285" lon="0.75437">
        <ele>279.4</ele>
        <time>2017-02-11T10:48:11Z</time>
      </trkpt>
      <trkpt lat="43.57283" lon="0.75431">
        <ele>279.4</ele>
        <time>2017-02-11T10:48:30Z</time>
      </trkpt>
      <trkpt lat="43.57283" lon="0.75426">
        <ele>279.4</ele>
        <time>2017-02-11T10:48:35Z</time>
      </trkpt>
      <trkpt lat="43.57281" lon="0.75404">
        <ele>277.96</ele>
        <time>2017-02-11T10:48:52Z</time>
      </trkpt>
      <trkpt lat="43.57276" lon="0.75382">
        <ele>277</ele>
        <time>2017-02-11T10:49:10Z</time>
      </trkpt>
      <trkpt lat="43.57267" lon="0.75365">
        <ele>276.04</ele>
        <time>2017-02-11T10:49:22Z</time>
      </trkpt>
      <trkpt lat="43.57264" lon="0.75341">
        <ele>275.56</ele>
        <time>2017-02-11T10:49:40Z</time>
      </trkpt>
      <trkpt lat="43.57259" lon="0.75312">
        <ele>274.59</ele>
        <time>2017-02-11T10:50:00Z</time>
      </trkpt>
      <trkpt lat="43.57256" lon="0.75299">
        <ele>274.59</ele>
        <time>2017-02-11T10:50:09Z</time>
      </trkpt>
      <trkpt lat="43.57246" lon="0.75265">
        <ele>274.11</ele>
        <time>2017-02-11T10:50:31Z</time>
      </trkpt>
      <trkpt lat="43.57235" lon="0.75237">
        <ele>273.63</ele>
        <time>2017-02-11T10:50:51Z</time>
      </trkpt>
      <trkpt lat="43.57225" lon="0.75213">
        <ele>273.63</ele>
        <time>2017-02-11T10:51:08Z</time>
      </trkpt>
      <trkpt lat="43.57213" lon="0.7519">
        <ele>273.63</ele>
        <time>2017-02-11T10:51:24Z</time>
      </trkpt>
      <trkpt lat="43.57212" lon="0.75189">
        <ele>273.63</ele>
        <time>2017-02-11T10:51:26Z</time>
      </trkpt>
      <trkpt lat="43.57211" lon="0.75184">
        <ele>273.63</ele>
        <time>2017-02-11T10:51:30Z</time>
      </trkpt>
      <trkpt lat="43.57204" lon="0.75158">
        <ele>273.15</ele>
        <time>2017-02-11T10:51:48Z</time>
      </trkpt>
      <trkpt lat="43.57197" lon="0.75127">
        <ele>271.71</ele>
        <time>2017-02-11T10:52:08Z</time>
      </trkpt>
      <trkpt lat="43.57195" lon="0.75096">
        <ele>270.75</ele>
        <time>2017-02-11T10:52:28Z</time>
      </trkpt>
      <trkpt lat="43.57194" lon="0.75064">
        <ele>269.79</ele>
        <time>2017-02-11T10:52:49Z</time>
      </trkpt>
      <trkpt lat="43.57196" lon="0.75032">
        <ele>269.79</ele>
        <time>2017-02-11T10:53:09Z</time>
      </trkpt>
      <trkpt lat="43.57198" lon="0.74996">
        <ele>268.83</ele>
        <time>2017-02-11T10:53:31Z</time>
      </trkpt>
      <trkpt lat="43.57198" lon="0.74969">
        <ele>267.86</ele>
        <time>2017-02-11T10:53:48Z</time>
      </trkpt>
      <trkpt lat="43.57198" lon="0.74941">
        <ele>265.94</ele>
        <time>2017-02-11T10:54:05Z</time>
      </trkpt>
      <trkpt lat="43.57198" lon="0.74912">
        <ele>264.5</ele>
        <time>2017-02-11T10:54:24Z</time>
      </trkpt>
      <trkpt lat="43.572" lon="0.74882">
        <ele>262.58</ele>
        <time>2017-02-11T10:54:43Z</time>
      </trkpt>
      <trkpt lat="43.572" lon="0.74854">
        <ele>260.65</ele>
        <time>2017-02-11T10:55:02Z</time>
      </trkpt>
      <trkpt lat="43.57198" lon="0.7483">
        <ele>259.21</ele>
        <time>2017-02-11T10:55:18Z</time>
      </trkpt>
      <trkpt lat="43.57197" lon="0.74819">
        <ele>258.73</ele>
        <time>2017-02-11T10:55:24Z</time>
      </trkpt>
      <trkpt lat="43.57194" lon="0.74785">
        <ele>257.77</ele>
        <time>2017-02-11T10:55:45Z</time>
      </trkpt>
      <trkpt lat="43.57191" lon="0.74755">
        <ele>257.77</ele>
        <time>2017-02-11T10:56:04Z</time>
      </trkpt>
      <trkpt lat="43.57186" lon="0.74725">
        <ele>258.25</ele>
        <time>2017-02-11T10:56:23Z</time>
      </trkpt>
      <trkpt lat="43.57182" lon="0.74694">
        <ele>258.73</ele>
        <time>2017-02-11T10:56:43Z</time>
      </trkpt>
      <trkpt lat="43.57179" lon="0.74666">
        <ele>259.21</ele>
        <time>2017-02-11T10:57:02Z</time>
      </trkpt>
      <trkpt lat="43.57176" lon="0.74638">
        <ele>259.21</ele>
        <time>2017-02-11T10:57:20Z</time>
      </trkpt>
      <trkpt lat="43.57171" lon="0.74612">
        <ele>259.21</ele>
        <time>2017-02-11T10:57:37Z</time>
      </trkpt>
      <trkpt lat="43.57164" lon="0.74588">
        <ele>259.21</ele>
        <time>2017-02-11T10:57:54Z</time>
      </trkpt>
      <trkpt lat="43.57157" lon="0.74566">
        <ele>260.17</ele>
        <time>2017-02-11T10:58:11Z</time>
      </trkpt>
      <trkpt lat="43.57152" lon="0.74538">
        <ele>261.62</ele>
        <time>2017-02-11T10:58:28Z</time>
      </trkpt>
      <trkpt lat="43.57148" lon="0.74512">
        <ele>262.58</ele>
        <time>2017-02-11T10:58:45Z</time>
      </trkpt>
      <trkpt lat="43.5714" lon="0.74485">
        <ele>264.5</ele>
        <time>2017-02-11T10:59:03Z</time>
      </trkpt>
      <trkpt lat="43.57136" lon="0.74465">
        <ele>265.46</ele>
        <time>2017-02-11T10:59:17Z</time>
      </trkpt>
      <trkpt lat="43.5713" lon="0.74444">
        <ele>266.9</ele>
        <time>2017-02-11T10:59:32Z</time>
      </trkpt>
      <trkpt lat="43.57121" lon="0.74425">
        <ele>267.86</ele>
        <time>2017-02-11T10:59:46Z</time>
      </trkpt>
      <trkpt lat="43.5711" lon="0.74406">
        <ele>269.31</ele>
        <time>2017-02-11T11:00:02Z</time>
      </trkpt>
      <trkpt lat="43.57106" lon="0.74399">
        <ele>269.79</ele>
        <time>2017-02-11T11:00:08Z</time>
      </trkpt>
      <trkpt lat="43.57102" lon="0.74396">
        <ele>269.79</ele>
        <time>2017-02-11T11:00:12Z</time>
      </trkpt>
      <trkpt lat="43.571" lon="0.7439">
        <ele>269.79</ele>
        <time>2017-02-11T11:00:17Z</time>
      </trkpt>
      <trkpt lat="43.57093" lon="0.74369">
        <ele>268.83</ele>
        <time>2017-02-11T11:00:33Z</time>
      </trkpt>
      <trkpt lat="43.57084" lon="0.74341">
        <ele>267.86</ele>
        <time>2017-02-11T11:00:52Z</time>
      </trkpt>
      <trkpt lat="43.57077" lon="0.74315">
        <ele>267.38</ele>
        <time>2017-02-11T11:01:09Z</time>
      </trkpt>
      <trkpt lat="43.5707" lon="0.7429">
        <ele>266.9</ele>
        <time>2017-02-11T11:01:26Z</time>
      </trkpt>
      <trkpt lat="43.57064" lon="0.74262">
        <ele>266.42</ele>
        <time>2017-02-11T11:01:44Z</time>
      </trkpt>
      <trkpt lat="43.57055" lon="0.74235">
        <ele>266.9</ele>
        <time>2017-02-11T11:02:02Z</time>
      </trkpt>
      <trkpt lat="43.57048" lon="0.74209">
        <ele>268.35</ele>
        <time>2017-02-11T11:02:20Z</time>
      </trkpt>
      <trkpt lat="43.57045" lon="0.74185">
        <ele>270.27</ele>
        <time>2017-02-11T11:02:38Z</time>
      </trkpt>
      <trkpt lat="43.57044" lon="0.74161">
        <ele>272.19</ele>
        <time>2017-02-11T11:02:54Z</time>
      </trkpt>
      <trkpt lat="43.57044" lon="0.74139">
        <ele>274.11</ele>
        <time>2017-02-11T11:03:10Z</time>
      </trkpt>
      <trkpt lat="43.57046" lon="0.74114">
        <ele>276.52</ele>
        <time>2017-02-11T11:03:27Z</time>
      </trkpt>
      <trkpt lat="43.57047" lon="0.74087">
        <ele>277</ele>
        <time>2017-02-11T11:03:46Z</time>
      </trkpt>
      <trkpt lat="43.57052" lon="0.74062">
        <ele>278.44</ele>
        <time>2017-02-11T11:04:04Z</time>
      </trkpt>
      <trkpt lat="43.57052" lon="0.74058">
        <ele>278.92</ele>
        <time>2017-02-11T11:04:07Z</time>
      </trkpt>
      <trkpt lat="43.57057" lon="0.74036">
        <ele>280.84</ele>
        <time>2017-02-11T11:04:24Z</time>
      </trkpt>
      <trkpt lat="43.5706" lon="0.74011">
        <ele>281.32</ele>
        <time>2017-02-11T11:04:39Z</time>
      </trkpt>
      <trkpt lat="43.57061" lon="0.73985">
        <ele>281.8</ele>
        <time>2017-02-11T11:04:56Z</time>
      </trkpt>
      <trkpt lat="43.57063" lon="0.73959">
        <ele>282.28</ele>
        <time>2017-02-11T11:05:14Z</time>
      </trkpt>
      <trkpt lat="43.57064" lon="0.73935">
        <ele>283.25</ele>
        <time>2017-02-11T11:05:30Z</time>
      </trkpt>
      <trkpt lat="43.57066" lon="0.73908">
        <ele>283.25</ele>
        <time>2017-02-11T11:05:47Z</time>
      </trkpt>
      <trkpt lat="43.57064" lon="0.73886">
        <ele>282.28</ele>
        <time>2017-02-11T11:06:03Z</time>
      </trkpt>
      <trkpt lat="43.57056" lon="0.73861">
        <ele>281.8</ele>
        <time>2017-02-11T11:06:20Z</time>
      </trkpt>
      <trkpt lat="43.57049" lon="0.73842">
        <ele>281.32</ele>
        <time>2017-02-11T11:06:34Z</time>
      </trkpt>
      <trkpt lat="43.57042" lon="0.73817">
        <ele>281.32</ele>
        <time>2017-02-11T11:06:52Z</time>
      </trkpt>
      <trkpt lat="43.57039" lon="0.73788">
        <ele>280.84</ele>
        <time>2017-02-11T11:07:12Z</time>
      </trkpt>
      <trkpt lat="43.57038" lon="0.73759">
        <ele>280.84</ele>
        <time>2017-02-11T11:07:31Z</time>
      </trkpt>
      <trkpt lat="43.57038" lon="0.7373">
        <ele>280.36</ele>
        <time>2017-02-11T11:07:51Z</time>
      </trkpt>
      <trkpt lat="43.57041" lon="0.73698">
        <ele>279.88</ele>
        <time>2017-02-11T11:08:12Z</time>
      </trkpt>
      <trkpt lat="43.57047" lon="0.7367">
        <ele>279.4</ele>
        <time>2017-02-11T11:08:32Z</time>
      </trkpt>
      <trkpt lat="43.57057" lon="0.73647">
        <ele>278.44</ele>
        <time>2017-02-11T11:08:51Z</time>
      </trkpt>
      <trkpt lat="43.57065" lon="0.73629">
        <ele>277</ele>
        <time>2017-02-11T11:09:08Z</time>
      </trkpt>
      <trkpt lat="43.5707" lon="0.73623">
        <ele>276.52</ele>
        <time>2017-02-11T11:09:21Z</time>
      </trkpt>
      <trkpt lat="43.57081" lon="0.73612">
        <ele>274.59</ele>
        <time>2017-02-11T11:09:37Z</time>
      </trkpt>
      <trkpt lat="43.57083" lon="0.73609">
        <ele>274.59</ele>
        <time>2017-02-11T11:09:41Z</time>
      </trkpt>
      <trkpt lat="43.57086" lon="0.73607">
        <ele>274.11</ele>
        <time>2017-02-11T11:09:44Z</time>
      </trkpt>
      <trkpt lat="43.57089" lon="0.73605">
        <ele>273.63</ele>
        <time>2017-02-11T11:09:48Z</time>
      </trkpt>
      <trkpt lat="43.57102" lon="0.73596">
        <ele>271.71</ele>
        <time>2017-02-11T11:10:03Z</time>
      </trkpt>
      <trkpt lat="43.57102" lon="0.73587">
        <ele>271.23</ele>
        <time>2017-02-11T11:10:16Z</time>
      </trkpt>
      <trkpt lat="43.57107" lon="0.73587">
        <ele>271.23</ele>
        <time>2017-02-11T11:10:25Z</time>
      </trkpt>
      <trkpt lat="43.57112" lon="0.73583">
        <ele>270.27</ele>
        <time>2017-02-11T11:10:30Z</time>
      </trkpt>
      <trkpt lat="43.57123" lon="0.73572">
        <ele>268.83</ele>
        <time>2017-02-11T11:10:47Z</time>
      </trkpt>
      <trkpt lat="43.57133" lon="0.73573">
        <ele>267.86</ele>
        <time>2017-02-11T11:11:00Z</time>
      </trkpt>
      <trkpt lat="43.57138" lon="0.7357">
        <ele>267.38</ele>
        <time>2017-02-11T11:11:07Z</time>
      </trkpt>
      <trkpt lat="43.57151" lon="0.73566">
        <ele>266.42</ele>
        <time>2017-02-11T11:11:21Z</time>
      </trkpt>
      <trkpt lat="43.57161" lon="0.73564">
        <ele>265.94</ele>
        <time>2017-02-11T11:11:37Z</time>
      </trkpt>
      <trkpt lat="43.57161" lon="0.73551">
        <ele>265.94</ele>
        <time>2017-02-11T11:11:58Z</time>
      </trkpt>
      <trkpt lat="43.57169" lon="0.73552">
        <ele>265.94</ele>
        <time>2017-02-11T11:12:12Z</time>
      </trkpt>
      <trkpt lat="43.57174" lon="0.73556">
        <ele>265.94</ele>
        <time>2017-02-11T11:12:41Z</time>
      </trkpt>
      <trkpt lat="43.57169" lon="0.7355">
        <ele>265.94</ele>
        <time>2017-02-11T11:12:59Z</time>
      </trkpt>
      <trkpt lat="43.5717" lon="0.73555">
        <ele>265.94</ele>
        <time>2017-02-11T11:13:17Z</time>
      </trkpt>
      <trkpt lat="43.5717" lon="0.73553">
        <ele>265.94</ele>
        <time>2017-02-11T11:13:41Z</time>
      </trkpt>
      <trkpt lat="43.57179" lon="0.73553">
        <ele>265.46</ele>
        <time>2017-02-11T11:13:55Z</time>
      </trkpt>
      <trkpt lat="43.57189" lon="0.73552">
        <ele>265.46</ele>
        <time>2017-02-11T11:14:09Z</time>
      </trkpt>
      <trkpt lat="43.57207" lon="0.73546">
        <ele>264.98</ele>
        <time>2017-02-11T11:14:26Z</time>
      </trkpt>
      <trkpt lat="43.57226" lon="0.73539">
        <ele>264.98</ele>
        <time>2017-02-11T11:14:42Z</time>
      </trkpt>
      <trkpt lat="43.5724" lon="0.7353">
        <ele>264.98</ele>
        <time>2017-02-11T11:14:56Z</time>
      </trkpt>
      <trkpt lat="43.57255" lon="0.73517">
        <ele>264.98</ele>
        <time>2017-02-11T11:15:11Z</time>
      </trkpt>
      <trkpt lat="43.57272" lon="0.73501">
        <ele>265.46</ele>
        <time>2017-02-11T11:15:28Z</time>
      </trkpt>
      <trkpt lat="43.57285" lon="0.73491">
        <ele>265.94</ele>
        <time>2017-02-11T11:15:42Z</time>
      </trkpt>
      <trkpt lat="43.5729" lon="0.73487">
        <ele>265.94</ele>
        <time>2017-02-11T11:15:47Z</time>
      </trkpt>
      <trkpt lat="43.57303" lon="0.73474">
        <ele>265.94</ele>
        <time>2017-02-11T11:16:01Z</time>
      </trkpt>
      <trkpt lat="43.57319" lon="0.73459">
        <ele>266.42</ele>
        <time>2017-02-11T11:16:18Z</time>
      </trkpt>
      <trkpt lat="43.57331" lon="0.73447">
        <ele>266.42</ele>
        <time>2017-02-11T11:16:32Z</time>
      </trkpt>
      <trkpt lat="43.57344" lon="0.73432">
        <ele>265.94</ele>
        <time>2017-02-11T11:16:48Z</time>
      </trkpt>
      <trkpt lat="43.57356" lon="0.73417">
        <ele>266.42</ele>
        <time>2017-02-11T11:17:01Z</time>
      </trkpt>
      <trkpt lat="43.57371" lon="0.73391">
        <ele>265.94</ele>
        <time>2017-02-11T11:17:18Z</time>
      </trkpt>
      <trkpt lat="43.57381" lon="0.73374">
        <ele>265.94</ele>
        <time>2017-02-11T11:17:31Z</time>
      </trkpt>
      <trkpt lat="43.57391" lon="0.73358">
        <ele>266.42</ele>
        <time>2017-02-11T11:17:45Z</time>
      </trkpt>
      <trkpt lat="43.57402" lon="0.73339">
        <ele>266.42</ele>
        <time>2017-02-11T11:18:01Z</time>
      </trkpt>
      <trkpt lat="43.57403" lon="0.73338">
        <ele>266.42</ele>
        <time>2017-02-11T11:18:02Z</time>
      </trkpt>
      <trkpt lat="43.57413" lon="0.73319">
        <ele>266.9</ele>
        <time>2017-02-11T11:18:17Z</time>
      </trkpt>
      <trkpt lat="43.57422" lon="0.73297">
        <ele>267.38</ele>
        <time>2017-02-11T11:18:32Z</time>
      </trkpt>
      <trkpt lat="43.5743" lon="0.73276">
        <ele>267.38</ele>
        <time>2017-02-11T11:18:48Z</time>
      </trkpt>
      <trkpt lat="43.57436" lon="0.73255">
        <ele>267.38</ele>
        <time>2017-02-11T11:19:04Z</time>
      </trkpt>
      <trkpt lat="43.57447" lon="0.73232">
        <ele>267.38</ele>
        <time>2017-02-11T11:19:21Z</time>
      </trkpt>
      <trkpt lat="43.57456" lon="0.73212">
        <ele>267.38</ele>
        <time>2017-02-11T11:19:36Z</time>
      </trkpt>
      <trkpt lat="43.57462" lon="0.73193">
        <ele>267.38</ele>
        <time>2017-02-11T11:19:50Z</time>
      </trkpt>
      <trkpt lat="43.57471" lon="0.73174">
        <ele>267.86</ele>
        <time>2017-02-11T11:20:06Z</time>
      </trkpt>
      <trkpt lat="43.57478" lon="0.73159">
        <ele>268.35</ele>
        <time>2017-02-11T11:20:20Z</time>
      </trkpt>
      <trkpt lat="43.57486" lon="0.73142">
        <ele>268.35</ele>
        <time>2017-02-11T11:20:34Z</time>
      </trkpt>
      <trkpt lat="43.57486" lon="0.73141">
        <ele>268.35</ele>
        <time>2017-02-11T11:20:35Z</time>
      </trkpt>
      <trkpt lat="43.57494" lon="0.73126">
        <ele>268.83</ele>
        <time>2017-02-11T11:20:49Z</time>
      </trkpt>
      <trkpt lat="43.57498" lon="0.73117">
        <ele>268.35</ele>
        <time>2017-02-11T11:20:56Z</time>
      </trkpt>
      <trkpt lat="43.57506" lon="0.73097">
        <ele>268.35</ele>
        <time>2017-02-11T11:21:10Z</time>
      </trkpt>
      <trkpt lat="43.57515" lon="0.73077">
        <ele>268.35</ele>
        <time>2017-02-11T11:21:27Z</time>
      </trkpt>
      <trkpt lat="43.57522" lon="0.73062">
        <ele>267.86</ele>
        <time>2017-02-11T11:21:41Z</time>
      </trkpt>
      <trkpt lat="43.57525" lon="0.73056">
        <ele>267.38</ele>
        <time>2017-02-11T11:21:46Z</time>
      </trkpt>
      <trkpt lat="43.57525" lon="0.73054">
        <ele>267.38</ele>
        <time>2017-02-11T11:21:48Z</time>
      </trkpt>
      <trkpt lat="43.57534" lon="0.7303">
        <ele>266.42</ele>
        <time>2017-02-11T11:22:03Z</time>
      </trkpt>
      <trkpt lat="43.57539" lon="0.73008">
        <ele>266.42</ele>
        <time>2017-02-11T11:22:17Z</time>
      </trkpt>
      <trkpt lat="43.57544" lon="0.72993">
        <ele>265.94</ele>
        <time>2017-02-11T11:22:27Z</time>
      </trkpt>
      <trkpt lat="43.57551" lon="0.72971">
        <ele>265.94</ele>
        <time>2017-02-11T11:22:42Z</time>
      </trkpt>
      <trkpt lat="43.57556" lon="0.72952">
        <ele>265.46</ele>
        <time>2017-02-11T11:22:54Z</time>
      </trkpt>
      <trkpt lat="43.57563" lon="0.72933">
        <ele>264.5</ele>
        <time>2017-02-11T11:23:09Z</time>
      </trkpt>
      <trkpt lat="43.5757" lon="0.72905">
        <ele>264.02</ele>
        <time>2017-02-11T11:23:24Z</time>
      </trkpt>
      <trkpt lat="43.57571" lon="0.72899">
        <ele>264.02</ele>
        <time>2017-02-11T11:23:27Z</time>
      </trkpt>
      <trkpt lat="43.57577" lon="0.72872">
        <ele>263.06</ele>
        <time>2017-02-11T11:23:41Z</time>
      </trkpt>
      <trkpt lat="43.5758" lon="0.72847">
        <ele>262.1</ele>
        <time>2017-02-11T11:23:58Z</time>
      </trkpt>
      <trkpt lat="43.57584" lon="0.72833">
        <ele>262.1</ele>
        <time>2017-02-11T11:24:11Z</time>
      </trkpt>
      <trkpt lat="43.57584" lon="0.72831">
        <ele>262.1</ele>
        <time>2017-02-11T11:24:12Z</time>
      </trkpt>
      <trkpt lat="43.57586" lon="0.72804">
        <ele>261.14</ele>
        <time>2017-02-11T11:24:30Z</time>
      </trkpt>
      <trkpt lat="43.57588" lon="0.72782">
        <ele>259.21</ele>
        <time>2017-02-11T11:24:48Z</time>
      </trkpt>
      <trkpt lat="43.57589" lon="0.72761">
        <ele>257.29</ele>
        <time>2017-02-11T11:25:05Z</time>
      </trkpt>
      <trkpt lat="43.57594" lon="0.72736">
        <ele>254.89</ele>
        <time>2017-02-11T11:25:23Z</time>
      </trkpt>
      <trkpt lat="43.57594" lon="0.72732">
        <ele>254.41</ele>
        <time>2017-02-11T11:25:26Z</time>
      </trkpt>
      <trkpt lat="43.57596" lon="0.72727">
        <ele>253.44</ele>
        <time>2017-02-11T11:25:29Z</time>
      </trkpt>
      <trkpt lat="43.57595" lon="0.7272">
        <ele>252.96</ele>
        <time>2017-02-11T11:25:33Z</time>
      </trkpt>
      <trkpt lat="43.57597" lon="0.72707">
        <ele>252</ele>
        <time>2017-02-11T11:25:46Z</time>
      </trkpt>
      <trkpt lat="43.57601" lon="0.72684">
        <ele>249.6</ele>
        <time>2017-02-11T11:26:05Z</time>
      </trkpt>
      <trkpt lat="43.57602" lon="0.72669">
        <ele>248.64</ele>
        <time>2017-02-11T11:26:18Z</time>
      </trkpt>
      <trkpt lat="43.57603" lon="0.72652">
        <ele>247.2</ele>
        <time>2017-02-11T11:26:33Z</time>
      </trkpt>
      <trkpt lat="43.57604" lon="0.72652">
        <ele>246.72</ele>
        <time>2017-02-11T11:26:55Z</time>
      </trkpt>
      <trkpt lat="43.57604" lon="0.72637">
        <ele>245.75</ele>
        <time>2017-02-11T11:27:08Z</time>
      </trkpt>
      <trkpt lat="43.57604" lon="0.72633">
        <ele>245.27</ele>
        <time>2017-02-11T11:27:11Z</time>
      </trkpt>
      <trkpt lat="43.57606" lon="0.72612">
        <ele>243.35</ele>
        <time>2017-02-11T11:27:27Z</time>
      </trkpt>
      <trkpt lat="43.57606" lon="0.72591">
        <ele>240.95</ele>
        <time>2017-02-11T11:27:43Z</time>
      </trkpt>
      <trkpt lat="43.57607" lon="0.72578">
        <ele>239.99</ele>
        <time>2017-02-11T11:27:55Z</time>
      </trkpt>
      <trkpt lat="43.57602" lon="0.72557">
        <ele>238.54</ele>
        <time>2017-02-11T11:28:11Z</time>
      </trkpt>
      <trkpt lat="43.57595" lon="0.72535">
        <ele>236.62</ele>
        <time>2017-02-11T11:28:28Z</time>
      </trkpt>
      <trkpt lat="43.57591" lon="0.72525">
        <ele>235.66</ele>
        <time>2017-02-11T11:28:36Z</time>
      </trkpt>
      <trkpt lat="43.57588" lon="0.72515">
        <ele>235.66</ele>
        <time>2017-02-11T11:28:43Z</time>
      </trkpt>
      <trkpt lat="43.57584" lon="0.72504">
        <ele>236.62</ele>
        <time>2017-02-11T11:28:56Z</time>
      </trkpt>
      <trkpt lat="43.57581" lon="0.72486">
        <ele>237.58</ele>
        <time>2017-02-11T11:29:08Z</time>
      </trkpt>
      <trkpt lat="43.57582" lon="0.7247">
        <ele>237.58</ele>
        <time>2017-02-11T11:29:22Z</time>
      </trkpt>
      <trkpt lat="43.57587" lon="0.72451">
        <ele>238.06</ele>
        <time>2017-02-11T11:29:38Z</time>
      </trkpt>
      <trkpt lat="43.57589" lon="0.72441">
        <ele>238.06</ele>
        <time>2017-02-11T11:29:54Z</time>
      </trkpt>
      <trkpt lat="43.57589" lon="0.72436">
        <ele>239.02</ele>
        <time>2017-02-11T11:30:08Z</time>
      </trkpt>
      <trkpt lat="43.5759" lon="0.72437">
        <ele>238.54</ele>
        <time>2017-02-11T11:30:35Z</time>
      </trkpt>
      <trkpt lat="43.57593" lon="0.72435">
        <ele>238.54</ele>
        <time>2017-02-11T11:31:15Z</time>
      </trkpt>
      <trkpt lat="43.57593" lon="0.72435">
        <ele>238.54</ele>
        <time>2017-02-11T11:31:41Z</time>
      </trkpt>
      <trkpt lat="43.57592" lon="0.72434">
        <ele>238.54</ele>
        <time>2017-02-11T11:32:10Z</time>
      </trkpt>
      <trkpt lat="43.57592" lon="0.72434">
        <ele>239.02</ele>
        <time>2017-02-11T11:32:35Z</time>
      </trkpt>
      <trkpt lat="43.57594" lon="0.72431">
        <ele>238.06</ele>
        <time>2017-02-11T11:33:00Z</time>
      </trkpt>
      <trkpt lat="43.57595" lon="0.7243">
        <ele>239.02</ele>
        <time>2017-02-11T11:33:32Z</time>
      </trkpt>
      <trkpt lat="43.5759" lon="0.72431">
        <ele>239.02</ele>
        <time>2017-02-11T11:34:05Z</time>
      </trkpt>
      <trkpt lat="43.57591" lon="0.72434">
        <ele>239.02</ele>
        <time>2017-02-11T11:34:35Z</time>
      </trkpt>
      <trkpt lat="43.57595" lon="0.72431">
        <ele>239.02</ele>
        <time>2017-02-11T11:35:08Z</time>
      </trkpt>
      <trkpt lat="43.576" lon="0.72432">
        <ele>239.02</ele>
        <time>2017-02-11T11:35:42Z</time>
      </trkpt>
      <trkpt lat="43.57596" lon="0.72432">
        <ele>239.51</ele>
        <time>2017-02-11T11:36:09Z</time>
      </trkpt>
      <trkpt lat="43.57596" lon="0.72434">
        <ele>239.51</ele>
        <time>2017-02-11T11:36:46Z</time>
      </trkpt>
      <trkpt lat="43.57593" lon="0.72434">
        <ele>239.99</ele>
        <time>2017-02-11T11:37:27Z</time>
      </trkpt>
      <trkpt lat="43.57598" lon="0.72434">
        <ele>239.99</ele>
        <time>2017-02-11T11:37:53Z</time>
      </trkpt>
      <trkpt lat="43.57603" lon="0.72434">
        <ele>239.99</ele>
        <time>2017-02-11T11:38:21Z</time>
      </trkpt>
      <trkpt lat="43.57605" lon="0.72434">
        <ele>239.99</ele>
        <time>2017-02-11T11:38:46Z</time>
      </trkpt>
      <trkpt lat="43.57597" lon="0.72434">
        <ele>239.51</ele>
        <time>2017-02-11T11:39:08Z</time>
      </trkpt>
      <trkpt lat="43.57588" lon="0.72437">
        <ele>239.99</ele>
        <time>2017-02-11T11:39:21Z</time>
      </trkpt>
      <trkpt lat="43.57586" lon="0.72438">
        <ele>239.51</ele>
        <time>2017-02-11T11:39:23Z</time>
      </trkpt>
      <trkpt lat="43.57579" lon="0.72438">
        <ele>239.99</ele>
        <time>2017-02-11T11:39:34Z</time>
      </trkpt>
      <trkpt lat="43.57577" lon="0.72437">
        <ele>240.47</ele>
        <time>2017-02-11T11:39:36Z</time>
      </trkpt>
      <trkpt lat="43.57571" lon="0.72425">
        <ele>239.51</ele>
        <time>2017-02-11T11:39:49Z</time>
      </trkpt>
      <trkpt lat="43.57566" lon="0.72419">
        <ele>239.02</ele>
        <time>2017-02-11T11:39:54Z</time>
      </trkpt>
      <trkpt lat="43.57564" lon="0.72415">
        <ele>239.02</ele>
        <time>2017-02-11T11:39:57Z</time>
      </trkpt>
      <trkpt lat="43.57559" lon="0.72405">
        <ele>238.54</ele>
        <time>2017-02-11T11:40:06Z</time>
      </trkpt>
      <trkpt lat="43.57553" lon="0.72393">
        <ele>238.06</ele>
        <time>2017-02-11T11:40:21Z</time>
      </trkpt>
      <trkpt lat="43.57554" lon="0.7238">
        <ele>238.54</ele>
        <time>2017-02-11T11:40:35Z</time>
      </trkpt>
      <trkpt lat="43.57551" lon="0.72383">
        <ele>239.02</ele>
        <time>2017-02-11T11:41:04Z</time>
      </trkpt>
      <trkpt lat="43.57552" lon="0.7238">
        <ele>238.54</ele>
        <time>2017-02-11T11:41:28Z</time>
      </trkpt>
      <trkpt lat="43.57552" lon="0.7237">
        <ele>238.54</ele>
        <time>2017-02-11T11:42:03Z</time>
      </trkpt>
      <trkpt lat="43.57552" lon="0.72367">
        <ele>238.54</ele>
        <time>2017-02-11T11:42:37Z</time>
      </trkpt>
      <trkpt lat="43.57551" lon="0.72365">
        <ele>238.54</ele>
        <time>2017-02-11T11:43:16Z</time>
      </trkpt>
      <trkpt lat="43.57555" lon="0.72366">
        <ele>238.54</ele>
        <time>2017-02-11T11:43:50Z</time>
      </trkpt>
      <trkpt lat="43.5756" lon="0.7237">
        <ele>238.54</ele>
        <time>2017-02-11T11:44:31Z</time>
      </trkpt>
      <trkpt lat="43.57557" lon="0.72373">
        <ele>238.06</ele>
        <time>2017-02-11T11:45:04Z</time>
      </trkpt>
      <trkpt lat="43.57555" lon="0.72373">
        <ele>239.02</ele>
        <time>2017-02-11T11:45:46Z</time>
      </trkpt>
      <trkpt lat="43.57557" lon="0.72371">
        <ele>238.06</ele>
        <time>2017-02-11T11:46:10Z</time>
      </trkpt>
      <trkpt lat="43.57557" lon="0.72369">
        <ele>238.06</ele>
        <time>2017-02-11T11:46:43Z</time>
      </trkpt>
      <trkpt lat="43.57554" lon="0.72367">
        <ele>238.06</ele>
        <time>2017-02-11T11:47:12Z</time>
      </trkpt>
      <trkpt lat="43.57557" lon="0.72366">
        <ele>238.06</ele>
        <time>2017-02-11T11:47:48Z</time>
      </trkpt>
      <trkpt lat="43.57565" lon="0.7237">
        <ele>238.06</ele>
        <time>2017-02-11T11:48:23Z</time>
      </trkpt>
      <trkpt lat="43.57554" lon="0.72369">
        <ele>238.06</ele>
        <time>2017-02-11T11:48:59Z</time>
      </trkpt>
      <trkpt lat="43.57549" lon="0.72369">
        <ele>238.06</ele>
        <time>2017-02-11T11:49:34Z</time>
      </trkpt>
      <trkpt lat="43.57553" lon="0.72371">
        <ele>238.06</ele>
        <time>2017-02-11T11:50:13Z</time>
      </trkpt>
      <trkpt lat="43.57552" lon="0.72368">
        <ele>237.58</ele>
        <time>2017-02-11T11:50:47Z</time>
      </trkpt>
      <trkpt lat="43.57552" lon="0.72371">
        <ele>237.58</ele>
        <time>2017-02-11T11:51:20Z</time>
      </trkpt>
      <trkpt lat="43.57553" lon="0.72376">
        <ele>237.58</ele>
        <time>2017-02-11T11:51:59Z</time>
      </trkpt>
      <trkpt lat="43.57552" lon="0.72367">
        <ele>237.58</ele>
        <time>2017-02-11T11:52:43Z</time>
      </trkpt>
      <trkpt lat="43.57553" lon="0.72365">
        <ele>237.58</ele>
        <time>2017-02-11T11:53:19Z</time>
      </trkpt>
      <trkpt lat="43.57546" lon="0.72365">
        <ele>237.58</ele>
        <time>2017-02-11T11:53:53Z</time>
      </trkpt>
      <trkpt lat="43.57551" lon="0.72366">
        <ele>237.58</ele>
        <time>2017-02-11T11:54:24Z</time>
      </trkpt>
      <trkpt lat="43.57554" lon="0.72369">
        <ele>237.58</ele>
        <time>2017-02-11T11:54:59Z</time>
      </trkpt>
      <trkpt lat="43.57556" lon="0.72372">
        <ele>237.58</ele>
        <time>2017-02-11T11:55:21Z</time>
      </trkpt>
      <trkpt lat="43.57557" lon="0.72371">
        <ele>237.58</ele>
        <time>2017-02-11T11:55:46Z</time>
      </trkpt>
      <trkpt lat="43.57552" lon="0.72367">
        <ele>237.58</ele>
        <time>2017-02-11T11:56:19Z</time>
      </trkpt>
      <trkpt lat="43.5755" lon="0.72371">
        <ele>239.02</ele>
        <time>2017-02-11T11:56:47Z</time>
      </trkpt>
      <trkpt lat="43.57551" lon="0.72371">
        <ele>238.06</ele>
        <time>2017-02-11T11:56:48Z</time>
      </trkpt>
      <trkpt lat="43.57551" lon="0.72372">
        <ele>238.06</ele>
        <time>2017-02-11T11:57:13Z</time>
      </trkpt>
      <trkpt lat="43.57553" lon="0.72372">
        <ele>237.58</ele>
        <time>2017-02-11T11:57:35Z</time>
      </trkpt>
      <trkpt lat="43.57551" lon="0.72369">
        <ele>237.58</ele>
        <time>2017-02-11T11:58:08Z</time>
      </trkpt>
      <trkpt lat="43.5755" lon="0.7237">
        <ele>237.58</ele>
        <time>2017-02-11T11:58:40Z</time>
      </trkpt>
      <trkpt lat="43.57549" lon="0.72368">
        <ele>237.58</ele>
        <time>2017-02-11T11:59:02Z</time>
      </trkpt>
      <trkpt lat="43.5755" lon="0.72371">
        <ele>237.1</ele>
        <time>2017-02-11T11:59:23Z</time>
      </trkpt>
      <trkpt lat="43.57549" lon="0.72371">
        <ele>237.1</ele>
        <time>2017-02-11T11:59:50Z</time>
      </trkpt>
      <trkpt lat="43.57551" lon="0.72371">
        <ele>237.1</ele>
        <time>2017-02-11T12:00:15Z</time>
      </trkpt>
      <trkpt lat="43.57554" lon="0.72371">
        <ele>237.1</ele>
        <time>2017-02-11T12:00:53Z</time>
      </trkpt>
      <trkpt lat="43.57553" lon="0.7237">
        <ele>237.1</ele>
        <time>2017-02-11T12:01:25Z</time>
      </trkpt>
      <trkpt lat="43.57557" lon="0.72374">
        <ele>238.54</ele>
        <time>2017-02-11T12:01:36Z</time>
      </trkpt>
      <trkpt lat="43.57551" lon="0.72374">
        <ele>236.62</ele>
        <time>2017-02-11T12:02:03Z</time>
      </trkpt>
      <trkpt lat="43.57554" lon="0.72374">
        <ele>236.62</ele>
        <time>2017-02-11T12:02:33Z</time>
      </trkpt>
      <trkpt lat="43.5755" lon="0.72371">
        <ele>236.62</ele>
        <time>2017-02-11T12:03:11Z</time>
      </trkpt>
      <trkpt lat="43.57549" lon="0.72372">
        <ele>236.62</ele>
        <time>2017-02-11T12:03:41Z</time>
      </trkpt>
      <trkpt lat="43.57553" lon="0.72378">
        <ele>236.62</ele>
        <time>2017-02-11T12:04:11Z</time>
      </trkpt>
      <trkpt lat="43.57556" lon="0.72376">
        <ele>236.62</ele>
        <time>2017-02-11T12:04:43Z</time>
      </trkpt>
      <trkpt lat="43.57549" lon="0.72372">
        <ele>236.62</ele>
        <time>2017-02-11T12:05:18Z</time>
      </trkpt>
      <trkpt lat="43.57551" lon="0.72372">
        <ele>236.62</ele>
        <time>2017-02-11T12:05:51Z</time>
      </trkpt>
      <trkpt lat="43.57552" lon="0.72371">
        <ele>236.62</ele>
        <time>2017-02-11T12:06:30Z</time>
      </trkpt>
      <trkpt lat="43.57548" lon="0.72373">
        <ele>236.62</ele>
        <time>2017-02-11T12:07:02Z</time>
      </trkpt>
      <trkpt lat="43.57552" lon="0.72369">
        <ele>236.62</ele>
        <time>2017-02-11T12:07:32Z</time>
      </trkpt>
      <trkpt lat="43.57546" lon="0.7237">
        <ele>236.62</ele>
        <time>2017-02-11T12:08:02Z</time>
      </trkpt>
      <trkpt lat="43.57548" lon="0.72371">
        <ele>237.1</ele>
        <time>2017-02-11T12:08:32Z</time>
      </trkpt>
      <trkpt lat="43.57546" lon="0.72372">
        <ele>237.1</ele>
        <time>2017-02-11T12:09:05Z</time>
      </trkpt>
      <trkpt lat="43.57548" lon="0.72374">
        <ele>237.1</ele>
        <time>2017-02-11T12:09:42Z</time>
      </trkpt>
      <trkpt lat="43.5755" lon="0.72376">
        <ele>237.1</ele>
        <time>2017-02-11T12:10:12Z</time>
      </trkpt>
      <trkpt lat="43.57552" lon="0.72373">
        <ele>237.1</ele>
        <time>2017-02-11T12:10:48Z</time>
      </trkpt>
      <trkpt lat="43.5755" lon="0.72375">
        <ele>237.58</ele>
        <time>2017-02-11T12:11:11Z</time>
      </trkpt>
      <trkpt lat="43.57551" lon="0.72376">
        <ele>237.58</ele>
        <time>2017-02-11T12:11:36Z</time>
      </trkpt>
      <trkpt lat="43.57553" lon="0.72374">
        <ele>239.51</ele>
        <time>2017-02-11T12:12:01Z</time>
      </trkpt>
      <trkpt lat="43.57553" lon="0.72374">
        <ele>235.66</ele>
        <time>2017-02-11T12:12:02Z</time>
      </trkpt>
      <trkpt lat="43.57552" lon="0.72375">
        <ele>239.99</ele>
        <time>2017-02-11T12:12:07Z</time>
      </trkpt>
      <trkpt lat="43.57551" lon="0.72375">
        <ele>239.02</ele>
        <time>2017-02-11T12:12:08Z</time>
      </trkpt>
      <trkpt lat="43.5755" lon="0.72376">
        <ele>231.81</ele>
        <time>2017-02-11T12:12:13Z</time>
      </trkpt>
      <trkpt lat="43.5755" lon="0.72376">
        <ele>231.81</ele>
        <time>2017-02-11T12:12:14Z</time>
      </trkpt>
      <trkpt lat="43.57552" lon="0.72378">
        <ele>237.1</ele>
        <time>2017-02-11T12:12:19Z</time>
      </trkpt>
      <trkpt lat="43.57552" lon="0.72378">
        <ele>236.14</ele>
        <time>2017-02-11T12:12:20Z</time>
      </trkpt>
      <trkpt lat="43.57552" lon="0.72377">
        <ele>239.51</ele>
        <time>2017-02-11T12:12:23Z</time>
      </trkpt>
      <trkpt lat="43.57552" lon="0.72377">
        <ele>235.66</ele>
        <time>2017-02-11T12:12:24Z</time>
      </trkpt>
      <trkpt lat="43.57552" lon="0.72377">
        <ele>239.51</ele>
        <time>2017-02-11T12:12:25Z</time>
      </trkpt>
      <trkpt lat="43.57551" lon="0.72377">
        <ele>238.54</ele>
        <time>2017-02-11T12:12:29Z</time>
      </trkpt>
      <trkpt lat="43.57551" lon="0.72373">
        <ele>237.58</ele>
        <time>2017-02-11T12:12:38Z</time>
      </trkpt>
      <trkpt lat="43.57551" lon="0.72375">
        <ele>237.1</ele>
        <time>2017-02-11T12:12:50Z</time>
      </trkpt>
      <trkpt lat="43.57551" lon="0.72381">
        <ele>237.58</ele>
        <time>2017-02-11T12:13:03Z</time>
      </trkpt>
      <trkpt lat="43.57551" lon="0.72382">
        <ele>237.58</ele>
        <time>2017-02-11T12:13:04Z</time>
      </trkpt>
      <trkpt lat="43.57553" lon="0.72388">
        <ele>237.58</ele>
        <time>2017-02-11T12:13:08Z</time>
      </trkpt>
      <trkpt lat="43.57556" lon="0.72394">
        <ele>238.06</ele>
        <time>2017-02-11T12:13:14Z</time>
      </trkpt>
      <trkpt lat="43.57557" lon="0.72397">
        <ele>238.06</ele>
        <time>2017-02-11T12:13:16Z</time>
      </trkpt>
      <trkpt lat="43.57563" lon="0.72416">
        <ele>238.54</ele>
        <time>2017-02-11T12:13:33Z</time>
      </trkpt>
      <trkpt lat="43.57572" lon="0.7243">
        <ele>239.99</ele>
        <time>2017-02-11T12:13:48Z</time>
      </trkpt>
      <trkpt lat="43.57579" lon="0.72439">
        <ele>238.54</ele>
        <time>2017-02-11T12:14:01Z</time>
      </trkpt>
      <trkpt lat="43.57583" lon="0.72437">
        <ele>239.02</ele>
        <time>2017-02-11T12:14:14Z</time>
      </trkpt>
      <trkpt lat="43.57592" lon="0.72434">
        <ele>239.02</ele>
        <time>2017-02-11T12:14:30Z</time>
      </trkpt>
      <trkpt lat="43.57593" lon="0.72435">
        <ele>238.06</ele>
        <time>2017-02-11T12:14:44Z</time>
      </trkpt>
      <trkpt lat="43.57592" lon="0.7243">
        <ele>237.58</ele>
        <time>2017-02-11T12:15:13Z</time>
      </trkpt>
      <trkpt lat="43.57592" lon="0.72431">
        <ele>237.58</ele>
        <time>2017-02-11T12:15:23Z</time>
      </trkpt>
      <trkpt lat="43.5759" lon="0.72432">
        <ele>237.58</ele>
        <time>2017-02-11T12:15:49Z</time>
      </trkpt>
      <trkpt lat="43.57591" lon="0.72435">
        <ele>238.06</ele>
        <time>2017-02-11T12:16:10Z</time>
      </trkpt>
      <trkpt lat="43.57593" lon="0.72437">
        <ele>238.06</ele>
        <time>2017-02-11T12:16:48Z</time>
      </trkpt>
      <trkpt lat="43.57591" lon="0.72437">
        <ele>238.06</ele>
        <time>2017-02-11T12:17:19Z</time>
      </trkpt>
      <trkpt lat="43.57592" lon="0.72436">
        <ele>238.54</ele>
        <time>2017-02-11T12:17:50Z</time>
      </trkpt>
      <trkpt lat="43.57585" lon="0.72436">
        <ele>238.06</ele>
        <time>2017-02-11T12:18:12Z</time>
      </trkpt>
      <trkpt lat="43.57588" lon="0.72439">
        <ele>238.54</ele>
        <time>2017-02-11T12:18:40Z</time>
      </trkpt>
      <trkpt lat="43.57588" lon="0.7244">
        <ele>238.54</ele>
        <time>2017-02-11T12:19:11Z</time>
      </trkpt>
      <trkpt lat="43.57587" lon="0.7244">
        <ele>238.54</ele>
        <time>2017-02-11T12:19:48Z</time>
      </trkpt>
      <trkpt lat="43.57587" lon="0.7244">
        <ele>238.54</ele>
        <time>2017-02-11T12:20:17Z</time>
      </trkpt>
      <trkpt lat="43.57585" lon="0.72441">
        <ele>238.54</ele>
        <time>2017-02-11T12:20:48Z</time>
      </trkpt>
      <trkpt lat="43.57588" lon="0.72438">
        <ele>239.99</ele>
        <time>2017-02-11T12:21:07Z</time>
      </trkpt>
      <trkpt lat="43.57587" lon="0.72438">
        <ele>239.99</ele>
        <time>2017-02-11T12:21:25Z</time>
      </trkpt>
      <trkpt lat="43.57588" lon="0.72436">
        <ele>239.99</ele>
        <time>2017-02-11T12:21:44Z</time>
      </trkpt>
      <trkpt lat="43.57587" lon="0.72439">
        <ele>239.99</ele>
        <time>2017-02-11T12:21:57Z</time>
      </trkpt>
      <trkpt lat="43.57587" lon="0.72439">
        <ele>239.99</ele>
        <time>2017-02-11T12:22:21Z</time>
      </trkpt>
      <trkpt lat="43.57584" lon="0.72439">
        <ele>239.99</ele>
        <time>2017-02-11T12:22:24Z</time>
      </trkpt>
      <trkpt lat="43.57581" lon="0.72438">
        <ele>239.51</ele>
        <time>2017-02-11T12:22:37Z</time>
      </trkpt>
      <trkpt lat="43.57579" lon="0.7244">
        <ele>239.51</ele>
        <time>2017-02-11T12:22:52Z</time>
      </trkpt>
      <trkpt lat="43.57574" lon="0.72441">
        <ele>239.02</ele>
        <time>2017-02-11T12:23:07Z</time>
      </trkpt>
      <trkpt lat="43.57578" lon="0.72441">
        <ele>239.51</ele>
        <time>2017-02-11T12:23:27Z</time>
      </trkpt>
      <trkpt lat="43.57578" lon="0.72441">
        <ele>239.51</ele>
        <time>2017-02-11T12:23:41Z</time>
      </trkpt>
      <trkpt lat="43.57575" lon="0.72435">
        <ele>239.51</ele>
        <time>2017-02-11T12:23:58Z</time>
      </trkpt>
      <trkpt lat="43.57572" lon="0.72439">
        <ele>238.54</ele>
        <time>2017-02-11T12:24:16Z</time>
      </trkpt>
      <trkpt lat="43.57568" lon="0.72444">
        <ele>237.58</ele>
        <time>2017-02-11T12:24:29Z</time>
      </trkpt>
      <trkpt lat="43.57567" lon="0.72448">
        <ele>236.62</ele>
        <time>2017-02-11T12:24:38Z</time>
      </trkpt>
      <trkpt lat="43.57564" lon="0.72461">
        <ele>234.22</ele>
        <time>2017-02-11T12:24:52Z</time>
      </trkpt>
      <trkpt lat="43.57561" lon="0.72468">
        <ele>231.33</ele>
        <time>2017-02-11T12:25:07Z</time>
      </trkpt>
      <trkpt lat="43.57556" lon="0.72469">
        <ele>229.89</ele>
        <time>2017-02-11T12:25:15Z</time>
      </trkpt>
      <trkpt lat="43.57548" lon="0.72457">
        <ele>228.45</ele>
        <time>2017-02-11T12:25:31Z</time>
      </trkpt>
      <trkpt lat="43.57543" lon="0.72448">
        <ele>227.49</ele>
        <time>2017-02-11T12:25:41Z</time>
      </trkpt>
      <trkpt lat="43.57536" lon="0.72439">
        <ele>226.53</ele>
        <time>2017-02-11T12:25:56Z</time>
      </trkpt>
      <trkpt lat="43.57529" lon="0.72425">
        <ele>225.57</ele>
        <time>2017-02-11T12:26:11Z</time>
      </trkpt>
      <trkpt lat="43.57528" lon="0.72419">
        <ele>225.09</ele>
        <time>2017-02-11T12:26:25Z</time>
      </trkpt>
      <trkpt lat="43.57516" lon="0.72405">
        <ele>223.16</ele>
        <time>2017-02-11T12:26:42Z</time>
      </trkpt>
      <trkpt lat="43.57509" lon="0.72383">
        <ele>220.76</ele>
        <time>2017-02-11T12:26:59Z</time>
      </trkpt>
      <trkpt lat="43.57506" lon="0.72378">
        <ele>219.8</ele>
        <time>2017-02-11T12:27:08Z</time>
      </trkpt>
      <trkpt lat="43.57503" lon="0.7236">
        <ele>218.36</ele>
        <time>2017-02-11T12:27:22Z</time>
      </trkpt>
      <trkpt lat="43.57502" lon="0.72337">
        <ele>217.4</ele>
        <time>2017-02-11T12:27:37Z</time>
      </trkpt>
      <trkpt lat="43.57503" lon="0.7233">
        <ele>216.43</ele>
        <time>2017-02-11T12:27:42Z</time>
      </trkpt>
      <trkpt lat="43.57503" lon="0.72322">
        <ele>216.43</ele>
        <time>2017-02-11T12:27:47Z</time>
      </trkpt>
      <trkpt lat="43.57502" lon="0.72319">
        <ele>215.95</ele>
        <time>2017-02-11T12:27:49Z</time>
      </trkpt>
      <trkpt lat="43.57494" lon="0.72314">
        <ele>213.07</ele>
        <time>2017-02-11T12:28:04Z</time>
      </trkpt>
      <trkpt lat="43.57492" lon="0.72303">
        <ele>210.19</ele>
        <time>2017-02-11T12:28:16Z</time>
      </trkpt>
      <trkpt lat="43.57479" lon="0.72296">
        <ele>208.74</ele>
        <time>2017-02-11T12:28:29Z</time>
      </trkpt>
      <trkpt lat="43.57486" lon="0.72283">
        <ele>206.34</ele>
        <time>2017-02-11T12:28:43Z</time>
      </trkpt>
      <trkpt lat="43.57488" lon="0.72279">
        <ele>205.86</ele>
        <time>2017-02-11T12:28:46Z</time>
      </trkpt>
      <trkpt lat="43.57491" lon="0.72268">
        <ele>204.9</ele>
        <time>2017-02-11T12:29:00Z</time>
      </trkpt>
      <trkpt lat="43.57492" lon="0.72266">
        <ele>204.42</ele>
        <time>2017-02-11T12:29:02Z</time>
      </trkpt>
      <trkpt lat="43.57496" lon="0.72258">
        <ele>203.94</ele>
        <time>2017-02-11T12:29:09Z</time>
      </trkpt>
      <trkpt lat="43.57497" lon="0.72251">
        <ele>202.98</ele>
        <time>2017-02-11T12:29:15Z</time>
      </trkpt>
      <trkpt lat="43.57508" lon="0.72233">
        <ele>202.98</ele>
        <time>2017-02-11T12:29:29Z</time>
      </trkpt>
      <trkpt lat="43.57508" lon="0.7223">
        <ele>202.98</ele>
        <time>2017-02-11T12:29:32Z</time>
      </trkpt>
      <trkpt lat="43.57503" lon="0.72232">
        <ele>201.53</ele>
        <time>2017-02-11T12:29:38Z</time>
      </trkpt>
      <trkpt lat="43.57488" lon="0.72238">
        <ele>198.65</ele>
        <time>2017-02-11T12:29:56Z</time>
      </trkpt>
      <trkpt lat="43.57474" lon="0.72241">
        <ele>196.25</ele>
        <time>2017-02-11T12:30:11Z</time>
      </trkpt>
      <trkpt lat="43.57474" lon="0.72241">
        <ele>195.77</ele>
        <time>2017-02-11T12:30:12Z</time>
      </trkpt>
      <trkpt lat="43.57468" lon="0.72244">
        <ele>194.8</ele>
        <time>2017-02-11T12:30:19Z</time>
      </trkpt>
      <trkpt lat="43.5746" lon="0.72246">
        <ele>193.84</ele>
        <time>2017-02-11T12:30:28Z</time>
      </trkpt>
      <trkpt lat="43.57446" lon="0.7225">
        <ele>191.92</ele>
        <time>2017-02-11T12:30:43Z</time>
      </trkpt>
      <trkpt lat="43.57431" lon="0.72252">
        <ele>190</ele>
        <time>2017-02-11T12:30:59Z</time>
      </trkpt>
      <trkpt lat="43.57416" lon="0.72247">
        <ele>187.11</ele>
        <time>2017-02-11T12:31:17Z</time>
      </trkpt>
      <trkpt lat="43.5742" lon="0.72234">
        <ele>187.11</ele>
        <time>2017-02-11T12:31:31Z</time>
      </trkpt>
      <trkpt lat="43.5743" lon="0.72217">
        <ele>184.71</ele>
        <time>2017-02-11T12:31:50Z</time>
      </trkpt>
      <trkpt lat="43.57433" lon="0.72215">
        <ele>184.23</ele>
        <time>2017-02-11T12:31:54Z</time>
      </trkpt>
      <trkpt lat="43.57447" lon="0.72198">
        <ele>182.31</ele>
        <time>2017-02-11T12:32:14Z</time>
      </trkpt>
      <trkpt lat="43.57462" lon="0.72182">
        <ele>180.38</ele>
        <time>2017-02-11T12:32:31Z</time>
      </trkpt>
      <trkpt lat="43.57462" lon="0.72181">
        <ele>180.38</ele>
        <time>2017-02-11T12:32:34Z</time>
      </trkpt>
      <trkpt lat="43.57455" lon="0.72189">
        <ele>181.83</ele>
        <time>2017-02-11T12:32:50Z</time>
      </trkpt>
      <trkpt lat="43.57456" lon="0.72186">
        <ele>181.35</ele>
        <time>2017-02-11T12:33:02Z</time>
      </trkpt>
      <trkpt lat="43.57456" lon="0.72186">
        <ele>181.35</ele>
        <time>2017-02-11T12:33:03Z</time>
      </trkpt>
      <trkpt lat="43.5747" lon="0.7218">
        <ele>179.42</ele>
        <time>2017-02-11T12:33:19Z</time>
      </trkpt>
      <trkpt lat="43.57478" lon="0.72174">
        <ele>178.94</ele>
        <time>2017-02-11T12:33:31Z</time>
      </trkpt>
      <trkpt lat="43.57493" lon="0.72169">
        <ele>177.5</ele>
        <time>2017-02-11T12:33:48Z</time>
      </trkpt>
      <trkpt lat="43.57503" lon="0.72162">
        <ele>176.54</ele>
        <time>2017-02-11T12:34:02Z</time>
      </trkpt>
      <trkpt lat="43.57516" lon="0.72154">
        <ele>176.06</ele>
        <time>2017-02-11T12:34:17Z</time>
      </trkpt>
      <trkpt lat="43.57525" lon="0.72146">
        <ele>175.58</ele>
        <time>2017-02-11T12:34:31Z</time>
      </trkpt>
      <trkpt lat="43.57528" lon="0.72141">
        <ele>175.58</ele>
        <time>2017-02-11T12:34:36Z</time>
      </trkpt>
      <trkpt lat="43.57537" lon="0.72125">
        <ele>175.58</ele>
        <time>2017-02-11T12:34:50Z</time>
      </trkpt>
      <trkpt lat="43.57547" lon="0.72109">
        <ele>175.58</ele>
        <time>2017-02-11T12:35:06Z</time>
      </trkpt>
      <trkpt lat="43.57555" lon="0.72091">
        <ele>175.58</ele>
        <time>2017-02-11T12:35:21Z</time>
      </trkpt>
      <trkpt lat="43.57559" lon="0.72085">
        <ele>176.06</ele>
        <time>2017-02-11T12:35:25Z</time>
      </trkpt>
      <trkpt lat="43.57575" lon="0.72056">
        <ele>176.54</ele>
        <time>2017-02-11T12:35:45Z</time>
      </trkpt>
      <trkpt lat="43.57584" lon="0.72036">
        <ele>177.5</ele>
        <time>2017-02-11T12:36:02Z</time>
      </trkpt>
      <trkpt lat="43.57594" lon="0.72015">
        <ele>177.02</ele>
        <time>2017-02-11T12:36:19Z</time>
      </trkpt>
      <trkpt lat="43.57605" lon="0.71998">
        <ele>176.54</ele>
        <time>2017-02-11T12:36:35Z</time>
      </trkpt>
      <trkpt lat="43.57613" lon="0.71981">
        <ele>176.54</ele>
        <time>2017-02-11T12:36:51Z</time>
      </trkpt>
      <trkpt lat="43.57622" lon="0.7196">
        <ele>176.06</ele>
        <time>2017-02-11T12:37:07Z</time>
      </trkpt>
      <trkpt lat="43.57632" lon="0.71938">
        <ele>176.06</ele>
        <time>2017-02-11T12:37:23Z</time>
      </trkpt>
      <trkpt lat="43.57643" lon="0.71919">
        <ele>176.54</ele>
        <time>2017-02-11T12:37:38Z</time>
      </trkpt>
      <trkpt lat="43.57647" lon="0.71909">
        <ele>176.54</ele>
        <time>2017-02-11T12:37:45Z</time>
      </trkpt>
      <trkpt lat="43.57655" lon="0.71891">
        <ele>177.02</ele>
        <time>2017-02-11T12:37:59Z</time>
      </trkpt>
      <trkpt lat="43.5766" lon="0.7188">
        <ele>177.5</ele>
        <time>2017-02-11T12:38:07Z</time>
      </trkpt>
      <trkpt lat="43.57666" lon="0.71865">
        <ele>177.5</ele>
        <time>2017-02-11T12:38:17Z</time>
      </trkpt>
      <trkpt lat="43.57673" lon="0.71842">
        <ele>177.5</ele>
        <time>2017-02-11T12:38:34Z</time>
      </trkpt>
      <trkpt lat="43.5768" lon="0.71815">
        <ele>178.46</ele>
        <time>2017-02-11T12:38:54Z</time>
      </trkpt>
      <trkpt lat="43.57679" lon="0.71789">
        <ele>178.94</ele>
        <time>2017-02-11T12:39:10Z</time>
      </trkpt>
      <trkpt lat="43.57681" lon="0.71768">
        <ele>179.42</ele>
        <time>2017-02-11T12:39:23Z</time>
      </trkpt>
      <trkpt lat="43.57681" lon="0.71741">
        <ele>180.87</ele>
        <time>2017-02-11T12:39:41Z</time>
      </trkpt>
      <trkpt lat="43.57681" lon="0.71733">
        <ele>180.87</ele>
        <time>2017-02-11T12:39:47Z</time>
      </trkpt>
      <trkpt lat="43.57682" lon="0.71727">
        <ele>181.83</ele>
        <time>2017-02-11T12:39:51Z</time>
      </trkpt>
      <trkpt lat="43.57685" lon="0.71695">
        <ele>183.27</ele>
        <time>2017-02-11T12:40:11Z</time>
      </trkpt>
      <trkpt lat="43.57685" lon="0.71669">
        <ele>184.71</ele>
        <time>2017-02-11T12:40:27Z</time>
      </trkpt>
      <trkpt lat="43.57686" lon="0.71646">
        <ele>186.63</ele>
        <time>2017-02-11T12:40:44Z</time>
      </trkpt>
      <trkpt lat="43.57686" lon="0.71626">
        <ele>188.08</ele>
        <time>2017-02-11T12:40:58Z</time>
      </trkpt>
      <trkpt lat="43.57685" lon="0.71602">
        <ele>190</ele>
        <time>2017-02-11T12:41:16Z</time>
      </trkpt>
      <trkpt lat="43.57684" lon="0.71579">
        <ele>192.88</ele>
        <time>2017-02-11T12:41:32Z</time>
      </trkpt>
      <trkpt lat="43.57684" lon="0.71573">
        <ele>192.4</ele>
        <time>2017-02-11T12:41:36Z</time>
      </trkpt>
      <trkpt lat="43.57684" lon="0.71552">
        <ele>194.8</ele>
        <time>2017-02-11T12:41:52Z</time>
      </trkpt>
      <trkpt lat="43.57683" lon="0.71532">
        <ele>197.21</ele>
        <time>2017-02-11T12:42:08Z</time>
      </trkpt>
      <trkpt lat="43.57683" lon="0.71509">
        <ele>199.61</ele>
        <time>2017-02-11T12:42:25Z</time>
      </trkpt>
      <trkpt lat="43.5768" lon="0.71489">
        <ele>202.49</ele>
        <time>2017-02-11T12:42:41Z</time>
      </trkpt>
      <trkpt lat="43.57675" lon="0.71466">
        <ele>204.9</ele>
        <time>2017-02-11T12:42:59Z</time>
      </trkpt>
      <trkpt lat="43.5767" lon="0.71444">
        <ele>206.82</ele>
        <time>2017-02-11T12:43:15Z</time>
      </trkpt>
      <trkpt lat="43.57664" lon="0.71421">
        <ele>209.22</ele>
        <time>2017-02-11T12:43:31Z</time>
      </trkpt>
      <trkpt lat="43.57657" lon="0.71398">
        <ele>210.67</ele>
        <time>2017-02-11T12:43:49Z</time>
      </trkpt>
      <trkpt lat="43.57649" lon="0.71379">
        <ele>212.59</ele>
        <time>2017-02-11T12:44:05Z</time>
      </trkpt>
      <trkpt lat="43.57644" lon="0.71359">
        <ele>214.03</ele>
        <time>2017-02-11T12:44:21Z</time>
      </trkpt>
      <trkpt lat="43.5764" lon="0.71344">
        <ele>214.99</ele>
        <time>2017-02-11T12:44:34Z</time>
      </trkpt>
      <trkpt lat="43.57639" lon="0.71322">
        <ele>216.43</ele>
        <time>2017-02-11T12:44:49Z</time>
      </trkpt>
      <trkpt lat="43.57636" lon="0.71298">
        <ele>217.88</ele>
        <time>2017-02-11T12:45:06Z</time>
      </trkpt>
      <trkpt lat="43.57635" lon="0.71288">
        <ele>218.36</ele>
        <time>2017-02-11T12:45:13Z</time>
      </trkpt>
      <trkpt lat="43.57632" lon="0.71263">
        <ele>218.84</ele>
        <time>2017-02-11T12:45:31Z</time>
      </trkpt>
      <trkpt lat="43.57629" lon="0.71241">
        <ele>219.8</ele>
        <time>2017-02-11T12:45:46Z</time>
      </trkpt>
      <trkpt lat="43.57628" lon="0.71215">
        <ele>220.28</ele>
        <time>2017-02-11T12:46:03Z</time>
      </trkpt>
      <trkpt lat="43.57625" lon="0.71193">
        <ele>221.24</ele>
        <time>2017-02-11T12:46:18Z</time>
      </trkpt>
      <trkpt lat="43.57622" lon="0.71169">
        <ele>221.72</ele>
        <time>2017-02-11T12:46:34Z</time>
      </trkpt>
      <trkpt lat="43.57619" lon="0.71147">
        <ele>222.68</ele>
        <time>2017-02-11T12:46:49Z</time>
      </trkpt>
      <trkpt lat="43.57617" lon="0.71133">
        <ele>222.68</ele>
        <time>2017-02-11T12:46:59Z</time>
      </trkpt>
      <trkpt lat="43.57615" lon="0.7111">
        <ele>223.64</ele>
        <time>2017-02-11T12:47:15Z</time>
      </trkpt>
      <trkpt lat="43.57613" lon="0.71098">
        <ele>224.12</ele>
        <time>2017-02-11T12:47:23Z</time>
      </trkpt>
      <trkpt lat="43.5761" lon="0.71071">
        <ele>225.09</ele>
        <time>2017-02-11T12:47:40Z</time>
      </trkpt>
      <trkpt lat="43.57607" lon="0.71049">
        <ele>226.05</ele>
        <time>2017-02-11T12:47:55Z</time>
      </trkpt>
      <trkpt lat="43.57606" lon="0.7104">
        <ele>226.53</ele>
        <time>2017-02-11T12:48:01Z</time>
      </trkpt>
      <trkpt lat="43.57603" lon="0.71013">
        <ele>227.97</ele>
        <time>2017-02-11T12:48:19Z</time>
      </trkpt>
      <trkpt lat="43.57599" lon="0.70984">
        <ele>229.41</ele>
        <time>2017-02-11T12:48:38Z</time>
      </trkpt>
      <trkpt lat="43.57595" lon="0.70955">
        <ele>230.85</ele>
        <time>2017-02-11T12:48:57Z</time>
      </trkpt>
      <trkpt lat="43.57592" lon="0.70929">
        <ele>232.78</ele>
        <time>2017-02-11T12:49:15Z</time>
      </trkpt>
      <trkpt lat="43.5759" lon="0.70903">
        <ele>234.22</ele>
        <time>2017-02-11T12:49:33Z</time>
      </trkpt>
      <trkpt lat="43.57587" lon="0.70879">
        <ele>236.14</ele>
        <time>2017-02-11T12:49:49Z</time>
      </trkpt>
      <trkpt lat="43.57587" lon="0.70858">
        <ele>237.1</ele>
        <time>2017-02-11T12:50:03Z</time>
      </trkpt>
      <trkpt lat="43.57589" lon="0.70832">
        <ele>238.06</ele>
        <time>2017-02-11T12:50:20Z</time>
      </trkpt>
      <trkpt lat="43.5759" lon="0.70824">
        <ele>239.02</ele>
        <time>2017-02-11T12:50:25Z</time>
      </trkpt>
      <trkpt lat="43.5759" lon="0.70815">
        <ele>239.51</ele>
        <time>2017-02-11T12:50:31Z</time>
      </trkpt>
      <trkpt lat="43.57589" lon="0.70804">
        <ele>239.99</ele>
        <time>2017-02-11T12:50:47Z</time>
      </trkpt>
      <trkpt lat="43.57587" lon="0.70807">
        <ele>239.99</ele>
        <time>2017-02-11T12:51:09Z</time>
      </trkpt>
      <trkpt lat="43.57587" lon="0.70804">
        <ele>239.99</ele>
        <time>2017-02-11T12:51:28Z</time>
      </trkpt>
      <trkpt lat="43.57589" lon="0.70801">
        <ele>239.99</ele>
        <time>2017-02-11T12:51:51Z</time>
      </trkpt>
      <trkpt lat="43.57586" lon="0.708">
        <ele>238.54</ele>
        <time>2017-02-11T12:52:01Z</time>
      </trkpt>
      <trkpt lat="43.57586" lon="0.70799">
        <ele>238.54</ele>
        <time>2017-02-11T12:52:30Z</time>
      </trkpt>
      <trkpt lat="43.5759" lon="0.70799">
        <ele>235.18</ele>
        <time>2017-02-11T12:52:55Z</time>
      </trkpt>
      <trkpt lat="43.5759" lon="0.70799">
        <ele>239.99</ele>
        <time>2017-02-11T12:52:56Z</time>
      </trkpt>
      <trkpt lat="43.57589" lon="0.70798">
        <ele>234.22</ele>
        <time>2017-02-11T12:53:06Z</time>
      </trkpt>
      <trkpt lat="43.57589" lon="0.70798">
        <ele>242.87</ele>
        <time>2017-02-11T12:53:08Z</time>
      </trkpt>
      <trkpt lat="43.57588" lon="0.70798">
        <ele>237.58</ele>
        <time>2017-02-11T12:53:09Z</time>
      </trkpt>
      <trkpt lat="43.5759" lon="0.70803">
        <ele>239.51</ele>
        <time>2017-02-11T12:53:21Z</time>
      </trkpt>
      <trkpt lat="43.57589" lon="0.70804">
        <ele>239.02</ele>
        <time>2017-02-11T12:53:38Z</time>
      </trkpt>
      <trkpt lat="43.5759" lon="0.70804">
        <ele>239.02</ele>
        <time>2017-02-11T12:53:57Z</time>
      </trkpt>
      <trkpt lat="43.57588" lon="0.70805">
        <ele>239.51</ele>
        <time>2017-02-11T12:54:09Z</time>
      </trkpt>
      <trkpt lat="43.57586" lon="0.70806">
        <ele>239.51</ele>
        <time>2017-02-11T12:54:24Z</time>
      </trkpt>
      <trkpt lat="43.57587" lon="0.70807">
        <ele>239.51</ele>
        <time>2017-02-11T12:54:49Z</time>
      </trkpt>
      <trkpt lat="43.57585" lon="0.70803">
        <ele>239.02</ele>
        <time>2017-02-11T12:55:03Z</time>
      </trkpt>
      <trkpt lat="43.57581" lon="0.70803">
        <ele>239.51</ele>
        <time>2017-02-11T12:55:14Z</time>
      </trkpt>
      <trkpt lat="43.57579" lon="0.70802">
        <ele>239.51</ele>
        <time>2017-02-11T12:55:16Z</time>
      </trkpt>
      <trkpt lat="43.57563" lon="0.70796">
        <ele>237.58</ele>
        <time>2017-02-11T12:55:35Z</time>
      </trkpt>
      <trkpt lat="43.5756" lon="0.70793">
        <ele>237.1</ele>
        <time>2017-02-11T12:55:39Z</time>
      </trkpt>
      <trkpt lat="43.57543" lon="0.70786">
        <ele>235.18</ele>
        <time>2017-02-11T12:55:56Z</time>
      </trkpt>
      <trkpt lat="43.57538" lon="0.70784">
        <ele>234.22</ele>
        <time>2017-02-11T12:56:01Z</time>
      </trkpt>
      <trkpt lat="43.57527" lon="0.70774">
        <ele>232.78</ele>
        <time>2017-02-11T12:56:13Z</time>
      </trkpt>
      <trkpt lat="43.57512" lon="0.70766">
        <ele>231.33</ele>
        <time>2017-02-11T12:56:29Z</time>
      </trkpt>
      <trkpt lat="43.57498" lon="0.7076">
        <ele>229.89</ele>
        <time>2017-02-11T12:56:43Z</time>
      </trkpt>
      <trkpt lat="43.57488" lon="0.70752">
        <ele>228.45</ele>
        <time>2017-02-11T12:56:56Z</time>
      </trkpt>
      <trkpt lat="43.57487" lon="0.70751">
        <ele>228.93</ele>
        <time>2017-02-11T12:56:57Z</time>
      </trkpt>
      <trkpt lat="43.57468" lon="0.70738">
        <ele>227.49</ele>
        <time>2017-02-11T12:57:17Z</time>
      </trkpt>
      <trkpt lat="43.57463" lon="0.70736">
        <ele>227.49</ele>
        <time>2017-02-11T12:57:22Z</time>
      </trkpt>
      <trkpt lat="43.57445" lon="0.70727">
        <ele>227.01</ele>
        <time>2017-02-11T12:57:40Z</time>
      </trkpt>
      <trkpt lat="43.57427" lon="0.70714">
        <ele>228.45</ele>
        <time>2017-02-11T12:57:58Z</time>
      </trkpt>
      <trkpt lat="43.57422" lon="0.70708">
        <ele>229.41</ele>
        <time>2017-02-11T12:58:11Z</time>
      </trkpt>
      <trkpt lat="43.57414" lon="0.70706">
        <ele>229.89</ele>
        <time>2017-02-11T12:58:22Z</time>
      </trkpt>
      <trkpt lat="43.57401" lon="0.70699">
        <ele>231.33</ele>
        <time>2017-02-11T12:58:36Z</time>
      </trkpt>
      <trkpt lat="43.57386" lon="0.70691">
        <ele>233.26</ele>
        <time>2017-02-11T12:58:49Z</time>
      </trkpt>
      <trkpt lat="43.57371" lon="0.70682">
        <ele>234.22</ele>
        <time>2017-02-11T12:59:04Z</time>
      </trkpt>
      <trkpt lat="43.5736" lon="0.70676">
        <ele>235.18</ele>
        <time>2017-02-11T12:59:16Z</time>
      </trkpt>
      <trkpt lat="43.57349" lon="0.70671">
        <ele>235.66</ele>
        <time>2017-02-11T12:59:28Z</time>
      </trkpt>
      <trkpt lat="43.57334" lon="0.70662">
        <ele>237.1</ele>
        <time>2017-02-11T12:59:43Z</time>
      </trkpt>
      <trkpt lat="43.57319" lon="0.70651">
        <ele>238.06</ele>
        <time>2017-02-11T12:59:59Z</time>
      </trkpt>
      <trkpt lat="43.57305" lon="0.7064">
        <ele>238.54</ele>
        <time>2017-02-11T13:00:15Z</time>
      </trkpt>
      <trkpt lat="43.57288" lon="0.7063">
        <ele>237.1</ele>
        <time>2017-02-11T13:00:32Z</time>
      </trkpt>
      <trkpt lat="43.57273" lon="0.70621">
        <ele>235.66</ele>
        <time>2017-02-11T13:00:47Z</time>
      </trkpt>
      <trkpt lat="43.57256" lon="0.70613">
        <ele>233.74</ele>
        <time>2017-02-11T13:01:06Z</time>
      </trkpt>
      <trkpt lat="43.57249" lon="0.7061">
        <ele>232.78</ele>
        <time>2017-02-11T13:01:13Z</time>
      </trkpt>
      <trkpt lat="43.57245" lon="0.70608">
        <ele>232.3</ele>
        <time>2017-02-11T13:01:18Z</time>
      </trkpt>
      <trkpt lat="43.57228" lon="0.70602">
        <ele>228.93</ele>
        <time>2017-02-11T13:01:35Z</time>
      </trkpt>
      <trkpt lat="43.57212" lon="0.70597">
        <ele>227.01</ele>
        <time>2017-02-11T13:01:52Z</time>
      </trkpt>
      <trkpt lat="43.57194" lon="0.70591">
        <ele>225.09</ele>
        <time>2017-02-11T13:02:09Z</time>
      </trkpt>
      <trkpt lat="43.57175" lon="0.70583">
        <ele>224.12</ele>
        <time>2017-02-11T13:02:28Z</time>
      </trkpt>
      <trkpt lat="43.57158" lon="0.70578">
        <ele>224.12</ele>
        <time>2017-02-11T13:02:44Z</time>
      </trkpt>
      <trkpt lat="43.57139" lon="0.70572">
        <ele>224.61</ele>
        <time>2017-02-11T13:03:02Z</time>
      </trkpt>
      <trkpt lat="43.57123" lon="0.70566">
        <ele>225.57</ele>
        <time>2017-02-11T13:03:18Z</time>
      </trkpt>
      <trkpt lat="43.57115" lon="0.70564">
        <ele>226.53</ele>
        <time>2017-02-11T13:03:25Z</time>
      </trkpt>
      <trkpt lat="43.57113" lon="0.70563">
        <ele>227.01</ele>
        <time>2017-02-11T13:03:27Z</time>
      </trkpt>
      <trkpt lat="43.57107" lon="0.70561">
        <ele>227.49</ele>
        <time>2017-02-11T13:03:32Z</time>
      </trkpt>
      <trkpt lat="43.57089" lon="0.70555">
        <ele>230.37</ele>
        <time>2017-02-11T13:03:49Z</time>
      </trkpt>
      <trkpt lat="43.57076" lon="0.70553">
        <ele>232.78</ele>
        <time>2017-02-11T13:04:03Z</time>
      </trkpt>
      <trkpt lat="43.57062" lon="0.70549">
        <ele>236.14</ele>
        <time>2017-02-11T13:04:20Z</time>
      </trkpt>
      <trkpt lat="43.57054" lon="0.70546">
        <ele>237.58</ele>
        <time>2017-02-11T13:04:32Z</time>
      </trkpt>
      <trkpt lat="43.57041" lon="0.70543">
        <ele>240.47</ele>
        <time>2017-02-11T13:04:47Z</time>
      </trkpt>
      <trkpt lat="43.5704" lon="0.70543">
        <ele>239.99</ele>
        <time>2017-02-11T13:04:48Z</time>
      </trkpt>
      <trkpt lat="43.57026" lon="0.70539">
        <ele>241.91</ele>
        <time>2017-02-11T13:05:02Z</time>
      </trkpt>
      <trkpt lat="43.57015" lon="0.70534">
        <ele>241.91</ele>
        <time>2017-02-11T13:05:17Z</time>
      </trkpt>
      <trkpt lat="43.57008" lon="0.70528">
        <ele>241.43</ele>
        <time>2017-02-11T13:05:28Z</time>
      </trkpt>
      <trkpt lat="43.56999" lon="0.70527">
        <ele>240.47</ele>
        <time>2017-02-11T13:05:39Z</time>
      </trkpt>
      <trkpt lat="43.56983" lon="0.70519">
        <ele>238.06</ele>
        <time>2017-02-11T13:05:56Z</time>
      </trkpt>
      <trkpt lat="43.56979" lon="0.70514">
        <ele>237.1</ele>
        <time>2017-02-11T13:06:04Z</time>
      </trkpt>
      <trkpt lat="43.56967" lon="0.70508">
        <ele>235.18</ele>
        <time>2017-02-11T13:06:19Z</time>
      </trkpt>
      <trkpt lat="43.56961" lon="0.70503">
        <ele>233.74</ele>
        <time>2017-02-11T13:06:27Z</time>
      </trkpt>
      <trkpt lat="43.56947" lon="0.70494">
        <ele>230.85</ele>
        <time>2017-02-11T13:06:44Z</time>
      </trkpt>
      <trkpt lat="43.56938" lon="0.70488">
        <ele>229.89</ele>
        <time>2017-02-11T13:06:55Z</time>
      </trkpt>
      <trkpt lat="43.56922" lon="0.7048">
        <ele>228.93</ele>
        <time>2017-02-11T13:07:10Z</time>
      </trkpt>
      <trkpt lat="43.5691" lon="0.70472">
        <ele>228.93</ele>
        <time>2017-02-11T13:07:24Z</time>
      </trkpt>
      <trkpt lat="43.56898" lon="0.70465">
        <ele>228.45</ele>
        <time>2017-02-11T13:07:38Z</time>
      </trkpt>
      <trkpt lat="43.56881" lon="0.70457">
        <ele>227.01</ele>
        <time>2017-02-11T13:07:55Z</time>
      </trkpt>
      <trkpt lat="43.56866" lon="0.70447">
        <ele>224.12</ele>
        <time>2017-02-11T13:08:13Z</time>
      </trkpt>
      <trkpt lat="43.56852" lon="0.70441">
        <ele>222.2</ele>
        <time>2017-02-11T13:08:29Z</time>
      </trkpt>
      <trkpt lat="43.56847" lon="0.70436">
        <ele>221.72</ele>
        <time>2017-02-11T13:08:36Z</time>
      </trkpt>
      <trkpt lat="43.56832" lon="0.70429">
        <ele>219.8</ele>
        <time>2017-02-11T13:08:52Z</time>
      </trkpt>
      <trkpt lat="43.56816" lon="0.70419">
        <ele>217.88</ele>
        <time>2017-02-11T13:09:09Z</time>
      </trkpt>
      <trkpt lat="43.56815" lon="0.70418">
        <ele>217.88</ele>
        <time>2017-02-11T13:09:10Z</time>
      </trkpt>
      <trkpt lat="43.56801" lon="0.70412">
        <ele>215.95</ele>
        <time>2017-02-11T13:09:25Z</time>
      </trkpt>
      <trkpt lat="43.56787" lon="0.70403">
        <ele>214.51</ele>
        <time>2017-02-11T13:09:41Z</time>
      </trkpt>
      <trkpt lat="43.56774" lon="0.70395">
        <ele>213.07</ele>
        <time>2017-02-11T13:09:56Z</time>
      </trkpt>
      <trkpt lat="43.56759" lon="0.70386">
        <ele>212.11</ele>
        <time>2017-02-11T13:10:12Z</time>
      </trkpt>
      <trkpt lat="43.56742" lon="0.70374">
        <ele>210.67</ele>
        <time>2017-02-11T13:10:30Z</time>
      </trkpt>
      <trkpt lat="43.56734" lon="0.70369">
        <ele>210.19</ele>
        <time>2017-02-11T13:10:38Z</time>
      </trkpt>
      <trkpt lat="43.56732" lon="0.70367">
        <ele>210.19</ele>
        <time>2017-02-11T13:10:40Z</time>
      </trkpt>
      <trkpt lat="43.56721" lon="0.70359">
        <ele>209.22</ele>
        <time>2017-02-11T13:10:52Z</time>
      </trkpt>
      <trkpt lat="43.56715" lon="0.70352">
        <ele>208.26</ele>
        <time>2017-02-11T13:11:00Z</time>
      </trkpt>
      <trkpt lat="43.56707" lon="0.70337">
        <ele>206.34</ele>
        <time>2017-02-11T13:11:13Z</time>
      </trkpt>
      <trkpt lat="43.56702" lon="0.70314">
        <ele>203.46</ele>
        <time>2017-02-11T13:11:32Z</time>
      </trkpt>
      <trkpt lat="43.567" lon="0.70297">
        <ele>202.01</ele>
        <time>2017-02-11T13:11:45Z</time>
      </trkpt>
      <trkpt lat="43.56705" lon="0.70276">
        <ele>199.61</ele>
        <time>2017-02-11T13:12:01Z</time>
      </trkpt>
      <trkpt lat="43.56712" lon="0.70252">
        <ele>198.65</ele>
        <time>2017-02-11T13:12:19Z</time>
      </trkpt>
      <trkpt lat="43.5672" lon="0.70229">
        <ele>198.17</ele>
        <time>2017-02-11T13:12:36Z</time>
      </trkpt>
      <trkpt lat="43.5673" lon="0.70207">
        <ele>197.69</ele>
        <time>2017-02-11T13:12:54Z</time>
      </trkpt>
      <trkpt lat="43.56741" lon="0.70185">
        <ele>196.73</ele>
        <time>2017-02-11T13:13:13Z</time>
      </trkpt>
      <trkpt lat="43.56749" lon="0.70174">
        <ele>196.25</ele>
        <time>2017-02-11T13:13:25Z</time>
      </trkpt>
      <trkpt lat="43.56752" lon="0.70161">
        <ele>195.77</ele>
        <time>2017-02-11T13:13:36Z</time>
      </trkpt>
      <trkpt lat="43.56769" lon="0.7014">
        <ele>196.25</ele>
        <time>2017-02-11T13:13:55Z</time>
      </trkpt>
      <trkpt lat="43.56784" lon="0.7012">
        <ele>197.21</ele>
        <time>2017-02-11T13:14:14Z</time>
      </trkpt>
      <trkpt lat="43.56792" lon="0.70108">
        <ele>197.21</ele>
        <time>2017-02-11T13:14:25Z</time>
      </trkpt>
      <trkpt lat="43.56801" lon="0.70096">
        <ele>197.69</ele>
        <time>2017-02-11T13:14:37Z</time>
      </trkpt>
      <trkpt lat="43.56816" lon="0.70073">
        <ele>198.65</ele>
        <time>2017-02-11T13:14:57Z</time>
      </trkpt>
      <trkpt lat="43.5683" lon="0.70053">
        <ele>199.13</ele>
        <time>2017-02-11T13:15:15Z</time>
      </trkpt>
      <trkpt lat="43.56844" lon="0.70032">
        <ele>200.09</ele>
        <time>2017-02-11T13:15:35Z</time>
      </trkpt>
      <trkpt lat="43.56848" lon="0.70026">
        <ele>199.61</ele>
        <time>2017-02-11T13:15:45Z</time>
      </trkpt>
      <trkpt lat="43.56865" lon="0.70004">
        <ele>200.57</ele>
        <time>2017-02-11T13:16:05Z</time>
      </trkpt>
      <trkpt lat="43.5688" lon="0.69983">
        <ele>201.53</ele>
        <time>2017-02-11T13:16:24Z</time>
      </trkpt>
      <trkpt lat="43.56895" lon="0.69961">
        <ele>202.01</ele>
        <time>2017-02-11T13:16:43Z</time>
      </trkpt>
      <trkpt lat="43.56908" lon="0.69941">
        <ele>202.49</ele>
        <time>2017-02-11T13:17:01Z</time>
      </trkpt>
      <trkpt lat="43.56922" lon="0.69919">
        <ele>203.46</ele>
        <time>2017-02-11T13:17:20Z</time>
      </trkpt>
      <trkpt lat="43.56939" lon="0.69897">
        <ele>203.94</ele>
        <time>2017-02-11T13:17:41Z</time>
      </trkpt>
      <trkpt lat="43.56955" lon="0.69874">
        <ele>205.38</ele>
        <time>2017-02-11T13:18:01Z</time>
      </trkpt>
      <trkpt lat="43.56968" lon="0.69855">
        <ele>206.34</ele>
        <time>2017-02-11T13:18:18Z</time>
      </trkpt>
      <trkpt lat="43.56981" lon="0.6984">
        <ele>207.3</ele>
        <time>2017-02-11T13:18:35Z</time>
      </trkpt>
      <trkpt lat="43.56994" lon="0.69829">
        <ele>207.3</ele>
        <time>2017-02-11T13:18:50Z</time>
      </trkpt>
      <trkpt lat="43.57014" lon="0.69814">
        <ele>207.78</ele>
        <time>2017-02-11T13:19:10Z</time>
      </trkpt>
      <trkpt lat="43.57029" lon="0.69802">
        <ele>208.26</ele>
        <time>2017-02-11T13:19:27Z</time>
      </trkpt>
      <trkpt lat="43.57046" lon="0.69787">
        <ele>209.22</ele>
        <time>2017-02-11T13:19:45Z</time>
      </trkpt>
      <trkpt lat="43.57054" lon="0.69781">
        <ele>209.7</ele>
        <time>2017-02-11T13:19:53Z</time>
      </trkpt>
      <trkpt lat="43.57066" lon="0.69772">
        <ele>209.7</ele>
        <time>2017-02-11T13:20:05Z</time>
      </trkpt>
      <trkpt lat="43.57084" lon="0.69758">
        <ele>210.67</ele>
        <time>2017-02-11T13:20:24Z</time>
      </trkpt>
      <trkpt lat="43.57102" lon="0.69739">
        <ele>212.59</ele>
        <time>2017-02-11T13:20:44Z</time>
      </trkpt>
      <trkpt lat="43.57115" lon="0.69723">
        <ele>213.55</ele>
        <time>2017-02-11T13:21:00Z</time>
      </trkpt>
      <trkpt lat="43.57128" lon="0.69707">
        <ele>214.99</ele>
        <time>2017-02-11T13:21:16Z</time>
      </trkpt>
      <trkpt lat="43.57143" lon="0.69689">
        <ele>216.43</ele>
        <time>2017-02-11T13:21:34Z</time>
      </trkpt>
      <trkpt lat="43.57158" lon="0.69672">
        <ele>217.88</ele>
        <time>2017-02-11T13:21:52Z</time>
      </trkpt>
      <trkpt lat="43.57175" lon="0.69659">
        <ele>218.36</ele>
        <time>2017-02-11T13:22:09Z</time>
      </trkpt>
      <trkpt lat="43.57191" lon="0.69644">
        <ele>218.84</ele>
        <time>2017-02-11T13:22:27Z</time>
      </trkpt>
      <trkpt lat="43.57199" lon="0.69618">
        <ele>218.84</ele>
        <time>2017-02-11T13:22:46Z</time>
      </trkpt>
      <trkpt lat="43.57213" lon="0.69597">
        <ele>219.8</ele>
        <time>2017-02-11T13:23:05Z</time>
      </trkpt>
      <trkpt lat="43.57229" lon="0.69579">
        <ele>220.28</ele>
        <time>2017-02-11T13:23:23Z</time>
      </trkpt>
      <trkpt lat="43.57231" lon="0.69577">
        <ele>219.8</ele>
        <time>2017-02-11T13:23:26Z</time>
      </trkpt>
      <trkpt lat="43.57244" lon="0.69552">
        <ele>219.32</ele>
        <time>2017-02-11T13:23:47Z</time>
      </trkpt>
      <trkpt lat="43.57254" lon="0.6953">
        <ele>217.88</ele>
        <time>2017-02-11T13:24:06Z</time>
      </trkpt>
      <trkpt lat="43.57265" lon="0.69506">
        <ele>215.95</ele>
        <time>2017-02-11T13:24:25Z</time>
      </trkpt>
      <trkpt lat="43.57275" lon="0.69484">
        <ele>214.51</ele>
        <time>2017-02-11T13:24:43Z</time>
      </trkpt>
      <trkpt lat="43.57287" lon="0.69459">
        <ele>214.03</ele>
        <time>2017-02-11T13:25:03Z</time>
      </trkpt>
      <trkpt lat="43.57296" lon="0.69436">
        <ele>213.07</ele>
        <time>2017-02-11T13:25:21Z</time>
      </trkpt>
      <trkpt lat="43.57306" lon="0.6941">
        <ele>213.07</ele>
        <time>2017-02-11T13:25:40Z</time>
      </trkpt>
      <trkpt lat="43.57321" lon="0.6939">
        <ele>213.07</ele>
        <time>2017-02-11T13:25:58Z</time>
      </trkpt>
      <trkpt lat="43.57324" lon="0.69386">
        <ele>213.07</ele>
        <time>2017-02-11T13:26:02Z</time>
      </trkpt>
      <trkpt lat="43.57339" lon="0.69375">
        <ele>213.07</ele>
        <time>2017-02-11T13:26:18Z</time>
      </trkpt>
      <trkpt lat="43.57353" lon="0.69361">
        <ele>213.55</ele>
        <time>2017-02-11T13:26:34Z</time>
      </trkpt>
      <trkpt lat="43.57365" lon="0.69352">
        <ele>213.55</ele>
        <time>2017-02-11T13:26:46Z</time>
      </trkpt>
      <trkpt lat="43.57369" lon="0.69349">
        <ele>213.55</ele>
        <time>2017-02-11T13:26:50Z</time>
      </trkpt>
      <trkpt lat="43.57381" lon="0.69343">
        <ele>213.55</ele>
        <time>2017-02-11T13:27:02Z</time>
      </trkpt>
      <trkpt lat="43.57401" lon="0.69337">
        <ele>214.03</ele>
        <time>2017-02-11T13:27:20Z</time>
      </trkpt>
      <trkpt lat="43.57407" lon="0.69337">
        <ele>214.03</ele>
        <time>2017-02-11T13:27:25Z</time>
      </trkpt>
      <trkpt lat="43.57413" lon="0.69337">
        <ele>214.51</ele>
        <time>2017-02-11T13:27:30Z</time>
      </trkpt>
      <trkpt lat="43.57432" lon="0.69334">
        <ele>214.99</ele>
        <time>2017-02-11T13:27:48Z</time>
      </trkpt>
      <trkpt lat="43.5745" lon="0.69328">
        <ele>215.95</ele>
        <time>2017-02-11T13:28:05Z</time>
      </trkpt>
      <trkpt lat="43.57468" lon="0.69325">
        <ele>215.95</ele>
        <time>2017-02-11T13:28:21Z</time>
      </trkpt>
      <trkpt lat="43.57483" lon="0.6932">
        <ele>216.43</ele>
        <time>2017-02-11T13:28:36Z</time>
      </trkpt>
      <trkpt lat="43.57499" lon="0.69313">
        <ele>216.43</ele>
        <time>2017-02-11T13:28:52Z</time>
      </trkpt>
      <trkpt lat="43.57508" lon="0.69307">
        <ele>216.91</ele>
        <time>2017-02-11T13:29:00Z</time>
      </trkpt>
      <trkpt lat="43.57521" lon="0.6929">
        <ele>217.4</ele>
        <time>2017-02-11T13:29:18Z</time>
      </trkpt>
      <trkpt lat="43.57535" lon="0.69272">
        <ele>217.88</ele>
        <time>2017-02-11T13:29:35Z</time>
      </trkpt>
      <trkpt lat="43.57547" lon="0.69257">
        <ele>218.36</ele>
        <time>2017-02-11T13:29:50Z</time>
      </trkpt>
      <trkpt lat="43.57561" lon="0.69237">
        <ele>217.88</ele>
        <time>2017-02-11T13:30:09Z</time>
      </trkpt>
      <trkpt lat="43.57575" lon="0.6922">
        <ele>218.36</ele>
        <time>2017-02-11T13:30:26Z</time>
      </trkpt>
      <trkpt lat="43.57576" lon="0.69218">
        <ele>218.36</ele>
        <time>2017-02-11T13:30:28Z</time>
      </trkpt>
      <trkpt lat="43.57592" lon="0.69198">
        <ele>218.84</ele>
        <time>2017-02-11T13:30:47Z</time>
      </trkpt>
      <trkpt lat="43.57606" lon="0.69181">
        <ele>218.84</ele>
        <time>2017-02-11T13:31:03Z</time>
      </trkpt>
      <trkpt lat="43.57622" lon="0.69166">
        <ele>219.8</ele>
        <time>2017-02-11T13:31:19Z</time>
      </trkpt>
      <trkpt lat="43.57625" lon="0.69164">
        <ele>219.8</ele>
        <time>2017-02-11T13:31:22Z</time>
      </trkpt>
      <trkpt lat="43.5764" lon="0.69152">
        <ele>220.76</ele>
        <time>2017-02-11T13:31:38Z</time>
      </trkpt>
      <trkpt lat="43.57655" lon="0.6914">
        <ele>221.24</ele>
        <time>2017-02-11T13:31:54Z</time>
      </trkpt>
      <trkpt lat="43.57672" lon="0.69129">
        <ele>222.2</ele>
        <time>2017-02-11T13:32:11Z</time>
      </trkpt>
      <trkpt lat="43.57689" lon="0.69119">
        <ele>222.2</ele>
        <time>2017-02-11T13:32:27Z</time>
      </trkpt>
      <trkpt lat="43.57708" lon="0.69108">
        <ele>223.16</ele>
        <time>2017-02-11T13:32:47Z</time>
      </trkpt>
      <trkpt lat="43.57718" lon="0.69102">
        <ele>224.12</ele>
        <time>2017-02-11T13:32:57Z</time>
      </trkpt>
      <trkpt lat="43.57731" lon="0.69095">
        <ele>225.09</ele>
        <time>2017-02-11T13:33:10Z</time>
      </trkpt>
      <trkpt lat="43.57734" lon="0.69095">
        <ele>225.09</ele>
        <time>2017-02-11T13:33:12Z</time>
      </trkpt>
      <trkpt lat="43.57738" lon="0.69093">
        <ele>225.57</ele>
        <time>2017-02-11T13:33:16Z</time>
      </trkpt>
      <trkpt lat="43.57751" lon="0.69089">
        <ele>227.49</ele>
        <time>2017-02-11T13:33:30Z</time>
      </trkpt>
      <trkpt lat="43.57767" lon="0.69085">
        <ele>228.45</ele>
        <time>2017-02-11T13:33:46Z</time>
      </trkpt>
      <trkpt lat="43.57784" lon="0.69077">
        <ele>228.93</ele>
        <time>2017-02-11T13:34:02Z</time>
      </trkpt>
      <trkpt lat="43.57784" lon="0.69077">
        <ele>228.93</ele>
        <time>2017-02-11T13:34:03Z</time>
      </trkpt>
      <trkpt lat="43.57787" lon="0.69075">
        <ele>229.41</ele>
        <time>2017-02-11T13:34:06Z</time>
      </trkpt>
      <trkpt lat="43.57789" lon="0.69075">
        <ele>229.41</ele>
        <time>2017-02-11T13:34:08Z</time>
      </trkpt>
      <trkpt lat="43.57805" lon="0.69076">
        <ele>230.85</ele>
        <time>2017-02-11T13:34:24Z</time>
      </trkpt>
      <trkpt lat="43.57817" lon="0.69082">
        <ele>231.81</ele>
        <time>2017-02-11T13:34:36Z</time>
      </trkpt>
      <trkpt lat="43.57823" lon="0.69086">
        <ele>232.3</ele>
        <time>2017-02-11T13:34:42Z</time>
      </trkpt>
      <trkpt lat="43.57841" lon="0.69093">
        <ele>232.78</ele>
        <time>2017-02-11T13:34:58Z</time>
      </trkpt>
      <trkpt lat="43.57859" lon="0.691">
        <ele>234.22</ele>
        <time>2017-02-11T13:35:15Z</time>
      </trkpt>
      <trkpt lat="43.57876" lon="0.69108">
        <ele>234.7</ele>
        <time>2017-02-11T13:35:32Z</time>
      </trkpt>
      <trkpt lat="43.57893" lon="0.69112">
        <ele>235.66</ele>
        <time>2017-02-11T13:35:48Z</time>
      </trkpt>
      <trkpt lat="43.57909" lon="0.69117">
        <ele>236.14</ele>
        <time>2017-02-11T13:36:03Z</time>
      </trkpt>
      <trkpt lat="43.57915" lon="0.69119">
        <ele>236.14</ele>
        <time>2017-02-11T13:36:09Z</time>
      </trkpt>
      <trkpt lat="43.57932" lon="0.69123">
        <ele>236.62</ele>
        <time>2017-02-11T13:36:25Z</time>
      </trkpt>
      <trkpt lat="43.5795" lon="0.6913">
        <ele>237.58</ele>
        <time>2017-02-11T13:36:43Z</time>
      </trkpt>
      <trkpt lat="43.57969" lon="0.69134">
        <ele>238.54</ele>
        <time>2017-02-11T13:37:01Z</time>
      </trkpt>
      <trkpt lat="43.57986" lon="0.69139">
        <ele>239.51</ele>
        <time>2017-02-11T13:37:17Z</time>
      </trkpt>
      <trkpt lat="43.58005" lon="0.69145">
        <ele>239.99</ele>
        <time>2017-02-11T13:37:34Z</time>
      </trkpt>
      <trkpt lat="43.58022" lon="0.69149">
        <ele>240.95</ele>
        <time>2017-02-11T13:37:52Z</time>
      </trkpt>
      <trkpt lat="43.58043" lon="0.69151">
        <ele>241.91</ele>
        <time>2017-02-11T13:38:12Z</time>
      </trkpt>
      <trkpt lat="43.58058" lon="0.69151">
        <ele>242.39</ele>
        <time>2017-02-11T13:38:27Z</time>
      </trkpt>
      <trkpt lat="43.5807" lon="0.6915">
        <ele>242.87</ele>
        <time>2017-02-11T13:38:39Z</time>
      </trkpt>
      <trkpt lat="43.58087" lon="0.69148">
        <ele>243.83</ele>
        <time>2017-02-11T13:38:56Z</time>
      </trkpt>
      <trkpt lat="43.58105" lon="0.69148">
        <ele>244.79</ele>
        <time>2017-02-11T13:39:13Z</time>
      </trkpt>
      <trkpt lat="43.5812" lon="0.69148">
        <ele>245.75</ele>
        <time>2017-02-11T13:39:27Z</time>
      </trkpt>
      <trkpt lat="43.58136" lon="0.69146">
        <ele>246.72</ele>
        <time>2017-02-11T13:39:44Z</time>
      </trkpt>
      <trkpt lat="43.58152" lon="0.69145">
        <ele>247.68</ele>
        <time>2017-02-11T13:40:00Z</time>
      </trkpt>
      <trkpt lat="43.58171" lon="0.69144">
        <ele>248.64</ele>
        <time>2017-02-11T13:40:18Z</time>
      </trkpt>
      <trkpt lat="43.58185" lon="0.69141">
        <ele>249.6</ele>
        <time>2017-02-11T13:40:33Z</time>
      </trkpt>
      <trkpt lat="43.58189" lon="0.69144">
        <ele>250.56</ele>
        <time>2017-02-11T13:40:49Z</time>
      </trkpt>
      <trkpt lat="43.58191" lon="0.69146">
        <ele>250.08</ele>
        <time>2017-02-11T13:41:09Z</time>
      </trkpt>
      <trkpt lat="43.58191" lon="0.69146">
        <ele>250.08</ele>
        <time>2017-02-11T13:41:33Z</time>
      </trkpt>
      <trkpt lat="43.58189" lon="0.69145">
        <ele>250.08</ele>
        <time>2017-02-11T13:41:56Z</time>
      </trkpt>
      <trkpt lat="43.58191" lon="0.69143">
        <ele>250.08</ele>
        <time>2017-02-11T13:42:20Z</time>
      </trkpt>
      <trkpt lat="43.58192" lon="0.69145">
        <ele>250.08</ele>
        <time>2017-02-11T13:42:42Z</time>
      </trkpt>
      <trkpt lat="43.58192" lon="0.69143">
        <ele>250.08</ele>
        <time>2017-02-11T13:43:08Z</time>
      </trkpt>
      <trkpt lat="43.58193" lon="0.69145">
        <ele>250.08</ele>
        <time>2017-02-11T13:43:36Z</time>
      </trkpt>
      <trkpt lat="43.58192" lon="0.69151">
        <ele>250.08</ele>
        <time>2017-02-11T13:43:43Z</time>
      </trkpt>
      <trkpt lat="43.5819" lon="0.69156">
        <ele>250.56</ele>
        <time>2017-02-11T13:43:46Z</time>
      </trkpt>
      <trkpt lat="43.58188" lon="0.69161">
        <ele>251.04</ele>
        <time>2017-02-11T13:43:50Z</time>
      </trkpt>
      <trkpt lat="43.58187" lon="0.69164">
        <ele>251.04</ele>
        <time>2017-02-11T13:43:52Z</time>
      </trkpt>
      <trkpt lat="43.58177" lon="0.69181">
        <ele>252</ele>
        <time>2017-02-11T13:44:08Z</time>
      </trkpt>
      <trkpt lat="43.58171" lon="0.69194">
        <ele>252.96</ele>
        <time>2017-02-11T13:44:20Z</time>
      </trkpt>
      <trkpt lat="43.58167" lon="0.69203">
        <ele>253.44</ele>
        <time>2017-02-11T13:44:28Z</time>
      </trkpt>
      <trkpt lat="43.5816" lon="0.69218">
        <ele>253.93</ele>
        <time>2017-02-11T13:44:41Z</time>
      </trkpt>
      <trkpt lat="43.58158" lon="0.69223">
        <ele>254.41</ele>
        <time>2017-02-11T13:44:45Z</time>
      </trkpt>
      <trkpt lat="43.58156" lon="0.69225">
        <ele>254.41</ele>
        <time>2017-02-11T13:44:47Z</time>
      </trkpt>
      <trkpt lat="43.58152" lon="0.69239">
        <ele>254.89</ele>
        <time>2017-02-11T13:44:58Z</time>
      </trkpt>
      <trkpt lat="43.58149" lon="0.69259">
        <ele>255.85</ele>
        <time>2017-02-11T13:45:14Z</time>
      </trkpt>
      <trkpt lat="43.58144" lon="0.69284">
        <ele>257.29</ele>
        <time>2017-02-11T13:45:32Z</time>
      </trkpt>
      <trkpt lat="43.58141" lon="0.69299">
        <ele>258.73</ele>
        <time>2017-02-11T13:45:44Z</time>
      </trkpt>
      <trkpt lat="43.5814" lon="0.69316">
        <ele>259.69</ele>
        <time>2017-02-11T13:45:56Z</time>
      </trkpt>
      <trkpt lat="43.58139" lon="0.69319">
        <ele>259.69</ele>
        <time>2017-02-11T13:45:58Z</time>
      </trkpt>
      <trkpt lat="43.58137" lon="0.69339">
        <ele>261.14</ele>
        <time>2017-02-11T13:46:13Z</time>
      </trkpt>
      <trkpt lat="43.58137" lon="0.69353">
        <ele>262.1</ele>
        <time>2017-02-11T13:46:24Z</time>
      </trkpt>
      <trkpt lat="43.58137" lon="0.69356">
        <ele>262.1</ele>
        <time>2017-02-11T13:46:26Z</time>
      </trkpt>
      <trkpt lat="43.58133" lon="0.69379">
        <ele>264.02</ele>
        <time>2017-02-11T13:46:42Z</time>
      </trkpt>
      <trkpt lat="43.58131" lon="0.69382">
        <ele>264.5</ele>
        <time>2017-02-11T13:46:44Z</time>
      </trkpt>
      <trkpt lat="43.58126" lon="0.69402">
        <ele>265.94</ele>
        <time>2017-02-11T13:46:56Z</time>
      </trkpt>
      <trkpt lat="43.58123" lon="0.69406">
        <ele>265.94</ele>
        <time>2017-02-11T13:47:14Z</time>
      </trkpt>
      <trkpt lat="43.58123" lon="0.69405">
        <ele>266.9</ele>
        <time>2017-02-11T13:47:38Z</time>
      </trkpt>
      <trkpt lat="43.58122" lon="0.69413">
        <ele>266.42</ele>
        <time>2017-02-11T13:47:45Z</time>
      </trkpt>
      <trkpt lat="43.58121" lon="0.69418">
        <ele>266.9</ele>
        <time>2017-02-11T13:47:48Z</time>
      </trkpt>
      <trkpt lat="43.58117" lon="0.6943">
        <ele>268.35</ele>
        <time>2017-02-11T13:47:57Z</time>
      </trkpt>
      <trkpt lat="43.58113" lon="0.6945">
        <ele>270.27</ele>
        <time>2017-02-11T13:48:11Z</time>
      </trkpt>
      <trkpt lat="43.58111" lon="0.69464">
        <ele>271.23</ele>
        <time>2017-02-11T13:48:23Z</time>
      </trkpt>
      <trkpt lat="43.5811" lon="0.69467">
        <ele>271.71</ele>
        <time>2017-02-11T13:48:26Z</time>
      </trkpt>
      <trkpt lat="43.58104" lon="0.69486">
        <ele>273.15</ele>
        <time>2017-02-11T13:48:42Z</time>
      </trkpt>
      <trkpt lat="43.58099" lon="0.695">
        <ele>274.11</ele>
        <time>2017-02-11T13:48:55Z</time>
      </trkpt>
      <trkpt lat="43.58095" lon="0.69516">
        <ele>276.04</ele>
        <time>2017-02-11T13:49:09Z</time>
      </trkpt>
      <trkpt lat="43.58091" lon="0.69532">
        <ele>277</ele>
        <time>2017-02-11T13:49:25Z</time>
      </trkpt>
      <trkpt lat="43.58093" lon="0.69534">
        <ele>277.48</ele>
        <time>2017-02-11T13:49:46Z</time>
      </trkpt>
      <trkpt lat="43.58092" lon="0.69536">
        <ele>277.48</ele>
        <time>2017-02-11T13:50:01Z</time>
      </trkpt>
      <trkpt lat="43.58095" lon="0.69541">
        <ele>277.48</ele>
        <time>2017-02-11T13:50:19Z</time>
      </trkpt>
      <trkpt lat="43.58093" lon="0.69542">
        <ele>277.48</ele>
        <time>2017-02-11T13:50:43Z</time>
      </trkpt>
      <trkpt lat="43.58091" lon="0.69544">
        <ele>277</ele>
        <time>2017-02-11T13:51:19Z</time>
      </trkpt>
      <trkpt lat="43.58095" lon="0.69541">
        <ele>277</ele>
        <time>2017-02-11T13:51:34Z</time>
      </trkpt>
      <trkpt lat="43.58103" lon="0.69545">
        <ele>277</ele>
        <time>2017-02-11T13:51:49Z</time>
      </trkpt>
      <trkpt lat="43.58109" lon="0.69546">
        <ele>277.48</ele>
        <time>2017-02-11T13:52:01Z</time>
      </trkpt>
      <trkpt lat="43.58122" lon="0.69551">
        <ele>277.96</ele>
        <time>2017-02-11T13:52:15Z</time>
      </trkpt>
      <trkpt lat="43.58131" lon="0.69554">
        <ele>277.96</ele>
        <time>2017-02-11T13:52:25Z</time>
      </trkpt>
      <trkpt lat="43.58138" lon="0.6956">
        <ele>277</ele>
        <time>2017-02-11T13:52:33Z</time>
      </trkpt>
      <trkpt lat="43.58137" lon="0.69579">
        <ele>277</ele>
        <time>2017-02-11T13:52:50Z</time>
      </trkpt>
      <trkpt lat="43.58133" lon="0.69599">
        <ele>277.48</ele>
        <time>2017-02-11T13:53:05Z</time>
      </trkpt>
      <trkpt lat="43.58127" lon="0.69614">
        <ele>277</ele>
        <time>2017-02-11T13:53:18Z</time>
      </trkpt>
      <trkpt lat="43.58126" lon="0.69616">
        <ele>277</ele>
        <time>2017-02-11T13:53:20Z</time>
      </trkpt>
      <trkpt lat="43.58116" lon="0.69632">
        <ele>276.52</ele>
        <time>2017-02-11T13:53:35Z</time>
      </trkpt>
      <trkpt lat="43.58105" lon="0.69653">
        <ele>276.52</ele>
        <time>2017-02-11T13:53:53Z</time>
      </trkpt>
      <trkpt lat="43.58098" lon="0.69671">
        <ele>275.56</ele>
        <time>2017-02-11T13:54:08Z</time>
      </trkpt>
      <trkpt lat="43.58092" lon="0.6969">
        <ele>275.07</ele>
        <time>2017-02-11T13:54:23Z</time>
      </trkpt>
      <trkpt lat="43.58091" lon="0.69691">
        <ele>275.07</ele>
        <time>2017-02-11T13:54:24Z</time>
      </trkpt>
      <trkpt lat="43.58086" lon="0.6971">
        <ele>274.59</ele>
        <time>2017-02-11T13:54:39Z</time>
      </trkpt>
      <trkpt lat="43.58078" lon="0.69731">
        <ele>274.11</ele>
        <time>2017-02-11T13:54:55Z</time>
      </trkpt>
      <trkpt lat="43.58069" lon="0.69754">
        <ele>272.67</ele>
        <time>2017-02-11T13:55:12Z</time>
      </trkpt>
      <trkpt lat="43.5806" lon="0.69777">
        <ele>272.19</ele>
        <time>2017-02-11T13:55:30Z</time>
      </trkpt>
      <trkpt lat="43.58055" lon="0.698">
        <ele>270.75</ele>
        <time>2017-02-11T13:55:46Z</time>
      </trkpt>
      <trkpt lat="43.58048" lon="0.69821">
        <ele>270.27</ele>
        <time>2017-02-11T13:56:02Z</time>
      </trkpt>
      <trkpt lat="43.58046" lon="0.69827">
        <ele>270.27</ele>
        <time>2017-02-11T13:56:07Z</time>
      </trkpt>
      <trkpt lat="43.58036" lon="0.69846">
        <ele>269.79</ele>
        <time>2017-02-11T13:56:23Z</time>
      </trkpt>
      <trkpt lat="43.5803" lon="0.69865">
        <ele>268.83</ele>
        <time>2017-02-11T13:56:37Z</time>
      </trkpt>
      <trkpt lat="43.58025" lon="0.69886">
        <ele>267.38</ele>
        <time>2017-02-11T13:56:53Z</time>
      </trkpt>
      <trkpt lat="43.58022" lon="0.69903">
        <ele>264.98</ele>
        <time>2017-02-11T13:57:06Z</time>
      </trkpt>
      <trkpt lat="43.58021" lon="0.69905">
        <ele>264.98</ele>
        <time>2017-02-11T13:57:07Z</time>
      </trkpt>
      <trkpt lat="43.58019" lon="0.69912">
        <ele>264.5</ele>
        <time>2017-02-11T13:57:14Z</time>
      </trkpt>
      <trkpt lat="43.58019" lon="0.69915">
        <ele>264.02</ele>
        <time>2017-02-11T13:57:16Z</time>
      </trkpt>
      <trkpt lat="43.58016" lon="0.6993">
        <ele>262.58</ele>
        <time>2017-02-11T13:57:30Z</time>
      </trkpt>
      <trkpt lat="43.58013" lon="0.69948">
        <ele>260.17</ele>
        <time>2017-02-11T13:57:47Z</time>
      </trkpt>
      <trkpt lat="43.58006" lon="0.69967">
        <ele>258.25</ele>
        <time>2017-02-11T13:58:03Z</time>
      </trkpt>
      <trkpt lat="43.58001" lon="0.69984">
        <ele>256.81</ele>
        <time>2017-02-11T13:58:16Z</time>
      </trkpt>
      <trkpt lat="43.57993" lon="0.70011">
        <ele>255.37</ele>
        <time>2017-02-11T13:58:33Z</time>
      </trkpt>
      <trkpt lat="43.57987" lon="0.7003">
        <ele>254.41</ele>
        <time>2017-02-11T13:58:47Z</time>
      </trkpt>
      <trkpt lat="43.5798" lon="0.70052">
        <ele>253.44</ele>
        <time>2017-02-11T13:59:05Z</time>
      </trkpt>
      <trkpt lat="43.57974" lon="0.70069">
        <ele>252.96</ele>
        <time>2017-02-11T13:59:20Z</time>
      </trkpt>
      <trkpt lat="43.57968" lon="0.7009">
        <ele>252</ele>
        <time>2017-02-11T13:59:38Z</time>
      </trkpt>
      <trkpt lat="43.57962" lon="0.70112">
        <ele>251.04</ele>
        <time>2017-02-11T13:59:56Z</time>
      </trkpt>
      <trkpt lat="43.57959" lon="0.70134">
        <ele>249.6</ele>
        <time>2017-02-11T14:00:13Z</time>
      </trkpt>
      <trkpt lat="43.57958" lon="0.70143">
        <ele>249.6</ele>
        <time>2017-02-11T14:00:20Z</time>
      </trkpt>
      <trkpt lat="43.57957" lon="0.7015">
        <ele>249.12</ele>
        <time>2017-02-11T14:00:25Z</time>
      </trkpt>
      <trkpt lat="43.57957" lon="0.70164">
        <ele>247.68</ele>
        <time>2017-02-11T14:00:35Z</time>
      </trkpt>
      <trkpt lat="43.57957" lon="0.70166">
        <ele>247.68</ele>
        <time>2017-02-11T14:00:37Z</time>
      </trkpt>
      <trkpt lat="43.57956" lon="0.70184">
        <ele>246.72</ele>
        <time>2017-02-11T14:00:51Z</time>
      </trkpt>
      <trkpt lat="43.57954" lon="0.70206">
        <ele>245.27</ele>
        <time>2017-02-11T14:01:08Z</time>
      </trkpt>
      <trkpt lat="43.57953" lon="0.70225">
        <ele>243.83</ele>
        <time>2017-02-11T14:01:25Z</time>
      </trkpt>
      <trkpt lat="43.57955" lon="0.70228">
        <ele>243.35</ele>
        <time>2017-02-11T14:01:28Z</time>
      </trkpt>
      <trkpt lat="43.57955" lon="0.7023">
        <ele>242.87</ele>
        <time>2017-02-11T14:01:30Z</time>
      </trkpt>
      <trkpt lat="43.5796" lon="0.70235">
        <ele>241.43</ele>
        <time>2017-02-11T14:01:36Z</time>
      </trkpt>
      <trkpt lat="43.57961" lon="0.70242">
        <ele>240.95</ele>
        <time>2017-02-11T14:01:43Z</time>
      </trkpt>
      <trkpt lat="43.57956" lon="0.70268">
        <ele>239.51</ele>
        <time>2017-02-11T14:02:01Z</time>
      </trkpt>
      <trkpt lat="43.57949" lon="0.70287">
        <ele>239.02</ele>
        <time>2017-02-11T14:02:16Z</time>
      </trkpt>
      <trkpt lat="43.57945" lon="0.70292">
        <ele>239.02</ele>
        <time>2017-02-11T14:02:21Z</time>
      </trkpt>
      <trkpt lat="43.57936" lon="0.70308">
        <ele>238.54</ele>
        <time>2017-02-11T14:02:35Z</time>
      </trkpt>
      <trkpt lat="43.57927" lon="0.70327">
        <ele>238.06</ele>
        <time>2017-02-11T14:02:50Z</time>
      </trkpt>
      <trkpt lat="43.5792" lon="0.70343">
        <ele>237.58</ele>
        <time>2017-02-11T14:03:04Z</time>
      </trkpt>
      <trkpt lat="43.57913" lon="0.70362">
        <ele>235.18</ele>
        <time>2017-02-11T14:03:21Z</time>
      </trkpt>
      <trkpt lat="43.57897" lon="0.70366">
        <ele>233.74</ele>
        <time>2017-02-11T14:03:30Z</time>
      </trkpt>
      <trkpt lat="43.57894" lon="0.70362">
        <ele>233.74</ele>
        <time>2017-02-11T14:03:33Z</time>
      </trkpt>
      <trkpt lat="43.57892" lon="0.7036">
        <ele>233.74</ele>
        <time>2017-02-11T14:03:35Z</time>
      </trkpt>
      <trkpt lat="43.57887" lon="0.70355">
        <ele>233.74</ele>
        <time>2017-02-11T14:03:41Z</time>
      </trkpt>
      <trkpt lat="43.57876" lon="0.70339">
        <ele>232.3</ele>
        <time>2017-02-11T14:03:56Z</time>
      </trkpt>
      <trkpt lat="43.57866" lon="0.7032">
        <ele>231.81</ele>
        <time>2017-02-11T14:04:12Z</time>
      </trkpt>
      <trkpt lat="43.57863" lon="0.70312">
        <ele>231.81</ele>
        <time>2017-02-11T14:04:18Z</time>
      </trkpt>
      <trkpt lat="43.57857" lon="0.70295">
        <ele>231.81</ele>
        <time>2017-02-11T14:04:31Z</time>
      </trkpt>
      <trkpt lat="43.57847" lon="0.70272">
        <ele>231.33</ele>
        <time>2017-02-11T14:04:50Z</time>
      </trkpt>
      <trkpt lat="43.5784" lon="0.7025">
        <ele>232.3</ele>
        <time>2017-02-11T14:05:07Z</time>
      </trkpt>
      <trkpt lat="43.57833" lon="0.70235">
        <ele>232.3</ele>
        <time>2017-02-11T14:05:20Z</time>
      </trkpt>
      <trkpt lat="43.5783" lon="0.70228">
        <ele>231.33</ele>
        <time>2017-02-11T14:05:27Z</time>
      </trkpt>
      <trkpt lat="43.57826" lon="0.70222">
        <ele>231.33</ele>
        <time>2017-02-11T14:05:33Z</time>
      </trkpt>
      <trkpt lat="43.5782" lon="0.70206">
        <ele>229.41</ele>
        <time>2017-02-11T14:05:48Z</time>
      </trkpt>
      <trkpt lat="43.57816" lon="0.70198">
        <ele>228.45</ele>
        <time>2017-02-11T14:05:56Z</time>
      </trkpt>
      <trkpt lat="43.57812" lon="0.70177">
        <ele>227.01</ele>
        <time>2017-02-11T14:06:10Z</time>
      </trkpt>
      <trkpt lat="43.5781" lon="0.70156">
        <ele>226.53</ele>
        <time>2017-02-11T14:06:24Z</time>
      </trkpt>
      <trkpt lat="43.57805" lon="0.7014">
        <ele>226.05</ele>
        <time>2017-02-11T14:06:39Z</time>
      </trkpt>
      <trkpt lat="43.57805" lon="0.7013">
        <ele>226.05</ele>
        <time>2017-02-11T14:06:55Z</time>
      </trkpt>
      <trkpt lat="43.57807" lon="0.70134">
        <ele>225.57</ele>
        <time>2017-02-11T14:07:10Z</time>
      </trkpt>
      <trkpt lat="43.57809" lon="0.70135">
        <ele>225.57</ele>
        <time>2017-02-11T14:07:32Z</time>
      </trkpt>
      <trkpt lat="43.57808" lon="0.70137">
        <ele>225.09</ele>
        <time>2017-02-11T14:07:55Z</time>
      </trkpt>
      <trkpt lat="43.57811" lon="0.70138">
        <ele>225.09</ele>
        <time>2017-02-11T14:08:21Z</time>
      </trkpt>
      <trkpt lat="43.57811" lon="0.70139">
        <ele>225.09</ele>
        <time>2017-02-11T14:08:41Z</time>
      </trkpt>
      <trkpt lat="43.57804" lon="0.7014">
        <ele>225.09</ele>
        <time>2017-02-11T14:08:56Z</time>
      </trkpt>
      <trkpt lat="43.57805" lon="0.70132">
        <ele>225.09</ele>
        <time>2017-02-11T14:09:12Z</time>
      </trkpt>
      <trkpt lat="43.57802" lon="0.70138">
        <ele>224.12</ele>
        <time>2017-02-11T14:09:31Z</time>
      </trkpt>
      <trkpt lat="43.57802" lon="0.70139">
        <ele>223.64</ele>
        <time>2017-02-11T14:09:44Z</time>
      </trkpt>
      <trkpt lat="43.57801" lon="0.70148">
        <ele>223.64</ele>
        <time>2017-02-11T14:10:00Z</time>
      </trkpt>
      <trkpt lat="43.578" lon="0.70154">
        <ele>223.16</ele>
        <time>2017-02-11T14:10:06Z</time>
      </trkpt>
      <trkpt lat="43.578" lon="0.70164">
        <ele>223.16</ele>
        <time>2017-02-11T14:10:15Z</time>
      </trkpt>
      <trkpt lat="43.57801" lon="0.70181">
        <ele>222.2</ele>
        <time>2017-02-11T14:10:30Z</time>
      </trkpt>
      <trkpt lat="43.57802" lon="0.70187">
        <ele>222.2</ele>
        <time>2017-02-11T14:10:35Z</time>
      </trkpt>
      <trkpt lat="43.57801" lon="0.70202">
        <ele>221.72</ele>
        <time>2017-02-11T14:10:47Z</time>
      </trkpt>
      <trkpt lat="43.578" lon="0.7022">
        <ele>221.24</ele>
        <time>2017-02-11T14:11:01Z</time>
      </trkpt>
      <trkpt lat="43.57797" lon="0.70234">
        <ele>220.28</ele>
        <time>2017-02-11T14:11:14Z</time>
      </trkpt>
      <trkpt lat="43.57797" lon="0.70236">
        <ele>220.28</ele>
        <time>2017-02-11T14:11:15Z</time>
      </trkpt>
      <trkpt lat="43.57797" lon="0.70239">
        <ele>220.28</ele>
        <time>2017-02-11T14:11:17Z</time>
      </trkpt>
      <trkpt lat="43.57798" lon="0.70253">
        <ele>219.8</ele>
        <time>2017-02-11T14:11:29Z</time>
      </trkpt>
      <trkpt lat="43.57798" lon="0.70255">
        <ele>219.8</ele>
        <time>2017-02-11T14:11:31Z</time>
      </trkpt>
      <trkpt lat="43.57798" lon="0.70263">
        <ele>219.8</ele>
        <time>2017-02-11T14:11:36Z</time>
      </trkpt>
      <trkpt lat="43.57799" lon="0.7027">
        <ele>218.84</ele>
        <time>2017-02-11T14:11:41Z</time>
      </trkpt>
      <trkpt lat="43.57802" lon="0.70291">
        <ele>217.88</ele>
        <time>2017-02-11T14:11:56Z</time>
      </trkpt>
      <trkpt lat="43.57805" lon="0.70313">
        <ele>216.43</ele>
        <time>2017-02-11T14:12:11Z</time>
      </trkpt>
      <trkpt lat="43.57807" lon="0.70332">
        <ele>215.47</ele>
        <time>2017-02-11T14:12:25Z</time>
      </trkpt>
      <trkpt lat="43.57808" lon="0.70335">
        <ele>214.99</ele>
        <time>2017-02-11T14:12:27Z</time>
      </trkpt>
      <trkpt lat="43.57809" lon="0.70355">
        <ele>213.55</ele>
        <time>2017-02-11T14:12:42Z</time>
      </trkpt>
      <trkpt lat="43.57808" lon="0.70377">
        <ele>212.11</ele>
        <time>2017-02-11T14:12:57Z</time>
      </trkpt>
      <trkpt lat="43.57809" lon="0.70401">
        <ele>211.15</ele>
        <time>2017-02-11T14:13:15Z</time>
      </trkpt>
      <trkpt lat="43.57811" lon="0.70421">
        <ele>210.19</ele>
        <time>2017-02-11T14:13:30Z</time>
      </trkpt>
      <trkpt lat="43.57811" lon="0.70422">
        <ele>210.19</ele>
        <time>2017-02-11T14:13:31Z</time>
      </trkpt>
      <trkpt lat="43.57813" lon="0.70443">
        <ele>209.7</ele>
        <time>2017-02-11T14:13:46Z</time>
      </trkpt>
      <trkpt lat="43.57816" lon="0.70467">
        <ele>208.26</ele>
        <time>2017-02-11T14:14:03Z</time>
      </trkpt>
      <trkpt lat="43.57818" lon="0.70478">
        <ele>207.3</ele>
        <time>2017-02-11T14:14:11Z</time>
      </trkpt>
      <trkpt lat="43.57822" lon="0.70501">
        <ele>206.34</ele>
        <time>2017-02-11T14:14:27Z</time>
      </trkpt>
      <trkpt lat="43.57823" lon="0.70508">
        <ele>206.34</ele>
        <time>2017-02-11T14:14:32Z</time>
      </trkpt>
      <trkpt lat="43.57828" lon="0.70532">
        <ele>205.38</ele>
        <time>2017-02-11T14:14:50Z</time>
      </trkpt>
      <trkpt lat="43.57829" lon="0.7054">
        <ele>205.38</ele>
        <time>2017-02-11T14:14:55Z</time>
      </trkpt>
      <trkpt lat="43.5783" lon="0.70545">
        <ele>204.9</ele>
        <time>2017-02-11T14:14:59Z</time>
      </trkpt>
      <trkpt lat="43.57831" lon="0.70551">
        <ele>204.9</ele>
        <time>2017-02-11T14:15:03Z</time>
      </trkpt>
      <trkpt lat="43.57832" lon="0.70554">
        <ele>204.42</ele>
        <time>2017-02-11T14:15:05Z</time>
      </trkpt>
      <trkpt lat="43.57834" lon="0.70572">
        <ele>203.94</ele>
        <time>2017-02-11T14:15:18Z</time>
      </trkpt>
      <trkpt lat="43.57838" lon="0.70596">
        <ele>203.46</ele>
        <time>2017-02-11T14:15:35Z</time>
      </trkpt>
      <trkpt lat="43.57839" lon="0.70598">
        <ele>202.98</ele>
        <time>2017-02-11T14:15:37Z</time>
      </trkpt>
      <trkpt lat="43.57839" lon="0.70605">
        <ele>202.49</ele>
        <time>2017-02-11T14:15:42Z</time>
      </trkpt>
      <trkpt lat="43.57841" lon="0.70632">
        <ele>202.01</ele>
        <time>2017-02-11T14:16:00Z</time>
      </trkpt>
      <trkpt lat="43.57842" lon="0.70643">
        <ele>201.53</ele>
        <time>2017-02-11T14:16:08Z</time>
      </trkpt>
      <trkpt lat="43.57842" lon="0.70655">
        <ele>201.05</ele>
        <time>2017-02-11T14:16:17Z</time>
      </trkpt>
      <trkpt lat="43.57842" lon="0.70665">
        <ele>200.57</ele>
        <time>2017-02-11T14:16:24Z</time>
      </trkpt>
      <trkpt lat="43.57844" lon="0.70673">
        <ele>200.09</ele>
        <time>2017-02-11T14:16:30Z</time>
      </trkpt>
      <trkpt lat="43.57844" lon="0.70698">
        <ele>199.13</ele>
        <time>2017-02-11T14:16:47Z</time>
      </trkpt>
      <trkpt lat="43.57846" lon="0.70721">
        <ele>198.65</ele>
        <time>2017-02-11T14:17:03Z</time>
      </trkpt>
      <trkpt lat="43.57846" lon="0.70732">
        <ele>198.65</ele>
        <time>2017-02-11T14:17:11Z</time>
      </trkpt>
      <trkpt lat="43.57846" lon="0.70735">
        <ele>198.17</ele>
        <time>2017-02-11T14:17:13Z</time>
      </trkpt>
      <trkpt lat="43.57845" lon="0.70758">
        <ele>197.69</ele>
        <time>2017-02-11T14:17:29Z</time>
      </trkpt>
      <trkpt lat="43.57843" lon="0.70781">
        <ele>196.73</ele>
        <time>2017-02-11T14:17:44Z</time>
      </trkpt>
      <trkpt lat="43.57844" lon="0.70789">
        <ele>196.73</ele>
        <time>2017-02-11T14:17:50Z</time>
      </trkpt>
      <trkpt lat="43.57841" lon="0.70815">
        <ele>195.77</ele>
        <time>2017-02-11T14:18:07Z</time>
      </trkpt>
      <trkpt lat="43.5784" lon="0.70828">
        <ele>195.77</ele>
        <time>2017-02-11T14:18:16Z</time>
      </trkpt>
      <trkpt lat="43.57838" lon="0.70846">
        <ele>194.8</ele>
        <time>2017-02-11T14:18:28Z</time>
      </trkpt>
      <trkpt lat="43.57838" lon="0.70858">
        <ele>194.32</ele>
        <time>2017-02-11T14:18:38Z</time>
      </trkpt>
      <trkpt lat="43.57836" lon="0.70882">
        <ele>193.36</ele>
        <time>2017-02-11T14:18:55Z</time>
      </trkpt>
      <trkpt lat="43.57836" lon="0.70902">
        <ele>192.4</ele>
        <time>2017-02-11T14:19:10Z</time>
      </trkpt>
      <trkpt lat="43.57836" lon="0.70921">
        <ele>191.44</ele>
        <time>2017-02-11T14:19:25Z</time>
      </trkpt>
      <trkpt lat="43.57836" lon="0.70923">
        <ele>191.44</ele>
        <time>2017-02-11T14:19:27Z</time>
      </trkpt>
      <trkpt lat="43.57835" lon="0.70927">
        <ele>190.96</ele>
        <time>2017-02-11T14:19:30Z</time>
      </trkpt>
      <trkpt lat="43.57835" lon="0.70929">
        <ele>190.48</ele>
        <time>2017-02-11T14:19:32Z</time>
      </trkpt>
      <trkpt lat="43.57835" lon="0.70933">
        <ele>190.48</ele>
        <time>2017-02-11T14:19:35Z</time>
      </trkpt>
      <trkpt lat="43.57835" lon="0.70938">
        <ele>190</ele>
        <time>2017-02-11T14:19:38Z</time>
      </trkpt>
      <trkpt lat="43.57837" lon="0.7096">
        <ele>189.04</ele>
        <time>2017-02-11T14:19:54Z</time>
      </trkpt>
      <trkpt lat="43.57837" lon="0.70964">
        <ele>189.04</ele>
        <time>2017-02-11T14:19:57Z</time>
      </trkpt>
      <trkpt lat="43.57838" lon="0.70983">
        <ele>188.56</ele>
        <time>2017-02-11T14:20:10Z</time>
      </trkpt>
      <trkpt lat="43.57838" lon="0.70986">
        <ele>188.08</ele>
        <time>2017-02-11T14:20:12Z</time>
      </trkpt>
      <trkpt lat="43.57837" lon="0.71007">
        <ele>187.59</ele>
        <time>2017-02-11T14:20:26Z</time>
      </trkpt>
      <trkpt lat="43.57837" lon="0.71008">
        <ele>187.11</ele>
        <time>2017-02-11T14:20:27Z</time>
      </trkpt>
      <trkpt lat="43.57836" lon="0.71012">
        <ele>187.11</ele>
        <time>2017-02-11T14:20:30Z</time>
      </trkpt>
      <trkpt lat="43.57832" lon="0.71029">
        <ele>186.63</ele>
        <time>2017-02-11T14:20:43Z</time>
      </trkpt>
      <trkpt lat="43.57829" lon="0.71039">
        <ele>186.15</ele>
        <time>2017-02-11T14:20:56Z</time>
      </trkpt>
      <trkpt lat="43.57829" lon="0.71039">
        <ele>185.67</ele>
        <time>2017-02-11T14:21:00Z</time>
      </trkpt>
      <trkpt lat="43.5783" lon="0.71046">
        <ele>186.15</ele>
        <time>2017-02-11T14:21:05Z</time>
      </trkpt>
      <trkpt lat="43.57829" lon="0.71074">
        <ele>185.67</ele>
        <time>2017-02-11T14:21:23Z</time>
      </trkpt>
      <trkpt lat="43.57827" lon="0.71097">
        <ele>185.19</ele>
        <time>2017-02-11T14:21:40Z</time>
      </trkpt>
      <trkpt lat="43.57825" lon="0.71115">
        <ele>185.19</ele>
        <time>2017-02-11T14:21:54Z</time>
      </trkpt>
      <trkpt lat="43.57821" lon="0.71138">
        <ele>184.71</ele>
        <time>2017-02-11T14:22:10Z</time>
      </trkpt>
      <trkpt lat="43.57822" lon="0.71158">
        <ele>184.23</ele>
        <time>2017-02-11T14:22:26Z</time>
      </trkpt>
      <trkpt lat="43.57824" lon="0.71174">
        <ele>184.23</ele>
        <time>2017-02-11T14:22:40Z</time>
      </trkpt>
      <trkpt lat="43.57826" lon="0.71183">
        <ele>184.23</ele>
        <time>2017-02-11T14:22:48Z</time>
      </trkpt>
      <trkpt lat="43.57827" lon="0.71196">
        <ele>183.75</ele>
        <time>2017-02-11T14:23:00Z</time>
      </trkpt>
      <trkpt lat="43.57827" lon="0.71209">
        <ele>183.75</ele>
        <time>2017-02-11T14:23:08Z</time>
      </trkpt>
      <trkpt lat="43.57825" lon="0.71219">
        <ele>183.27</ele>
        <time>2017-02-11T14:23:20Z</time>
      </trkpt>
      <trkpt lat="43.57824" lon="0.71241">
        <ele>183.27</ele>
        <time>2017-02-11T14:23:34Z</time>
      </trkpt>
      <trkpt lat="43.57823" lon="0.71257">
        <ele>183.27</ele>
        <time>2017-02-11T14:23:44Z</time>
      </trkpt>
      <trkpt lat="43.57822" lon="0.71283">
        <ele>182.79</ele>
        <time>2017-02-11T14:24:01Z</time>
      </trkpt>
      <trkpt lat="43.57821" lon="0.71306">
        <ele>182.31</ele>
        <time>2017-02-11T14:24:17Z</time>
      </trkpt>
      <trkpt lat="43.57819" lon="0.7132">
        <ele>182.31</ele>
        <time>2017-02-11T14:24:26Z</time>
      </trkpt>
      <trkpt lat="43.57817" lon="0.71346">
        <ele>182.31</ele>
        <time>2017-02-11T14:24:43Z</time>
      </trkpt>
      <trkpt lat="43.57815" lon="0.71369">
        <ele>182.31</ele>
        <time>2017-02-11T14:24:59Z</time>
      </trkpt>
      <trkpt lat="43.57813" lon="0.71394">
        <ele>182.31</ele>
        <time>2017-02-11T14:25:15Z</time>
      </trkpt>
      <trkpt lat="43.5781" lon="0.71413">
        <ele>181.83</ele>
        <time>2017-02-11T14:25:32Z</time>
      </trkpt>
      <trkpt lat="43.57809" lon="0.71424">
        <ele>181.83</ele>
        <time>2017-02-11T14:25:40Z</time>
      </trkpt>
      <trkpt lat="43.57809" lon="0.71445">
        <ele>181.83</ele>
        <time>2017-02-11T14:25:55Z</time>
      </trkpt>
      <trkpt lat="43.57809" lon="0.71471">
        <ele>181.83</ele>
        <time>2017-02-11T14:26:11Z</time>
      </trkpt>
      <trkpt lat="43.57811" lon="0.71493">
        <ele>181.83</ele>
        <time>2017-02-11T14:26:27Z</time>
      </trkpt>
      <trkpt lat="43.57813" lon="0.71521">
        <ele>181.35</ele>
        <time>2017-02-11T14:26:45Z</time>
      </trkpt>
      <trkpt lat="43.57812" lon="0.71547">
        <ele>181.35</ele>
        <time>2017-02-11T14:27:02Z</time>
      </trkpt>
      <trkpt lat="43.57812" lon="0.71574">
        <ele>180.38</ele>
        <time>2017-02-11T14:27:19Z</time>
      </trkpt>
      <trkpt lat="43.57807" lon="0.716">
        <ele>179.9</ele>
        <time>2017-02-11T14:27:35Z</time>
      </trkpt>
      <trkpt lat="43.57804" lon="0.71624">
        <ele>179.42</ele>
        <time>2017-02-11T14:27:52Z</time>
      </trkpt>
      <trkpt lat="43.578" lon="0.7165">
        <ele>178.94</ele>
        <time>2017-02-11T14:28:09Z</time>
      </trkpt>
      <trkpt lat="43.57797" lon="0.71672">
        <ele>178.46</ele>
        <time>2017-02-11T14:28:25Z</time>
      </trkpt>
      <trkpt lat="43.57794" lon="0.71684">
        <ele>177.98</ele>
        <time>2017-02-11T14:28:33Z</time>
      </trkpt>
      <trkpt lat="43.57795" lon="0.71686">
        <ele>177.98</ele>
        <time>2017-02-11T14:28:35Z</time>
      </trkpt>
      <trkpt lat="43.57792" lon="0.71708">
        <ele>177.98</ele>
        <time>2017-02-11T14:28:51Z</time>
      </trkpt>
      <trkpt lat="43.57788" lon="0.71729">
        <ele>177.5</ele>
        <time>2017-02-11T14:29:07Z</time>
      </trkpt>
      <trkpt lat="43.57784" lon="0.71752">
        <ele>177.02</ele>
        <time>2017-02-11T14:29:24Z</time>
      </trkpt>
      <trkpt lat="43.5778" lon="0.71771">
        <ele>176.54</ele>
        <time>2017-02-11T14:29:39Z</time>
      </trkpt>
      <trkpt lat="43.57777" lon="0.71784">
        <ele>176.54</ele>
        <time>2017-02-11T14:29:51Z</time>
      </trkpt>
      <trkpt lat="43.57775" lon="0.71792">
        <ele>176.06</ele>
        <time>2017-02-11T14:30:04Z</time>
      </trkpt>
      <trkpt lat="43.57775" lon="0.71798">
        <ele>175.58</ele>
        <time>2017-02-11T14:30:19Z</time>
      </trkpt>
      <trkpt lat="43.57771" lon="0.71796">
        <ele>175.58</ele>
        <time>2017-02-11T14:30:34Z</time>
      </trkpt>
      <trkpt lat="43.57769" lon="0.71805">
        <ele>175.58</ele>
        <time>2017-02-11T14:30:42Z</time>
      </trkpt>
      <trkpt lat="43.5776" lon="0.7181">
        <ele>175.58</ele>
        <time>2017-02-11T14:30:54Z</time>
      </trkpt>
      <trkpt lat="43.57748" lon="0.7181">
        <ele>175.58</ele>
        <time>2017-02-11T14:31:07Z</time>
      </trkpt>
      <trkpt lat="43.57731" lon="0.71812">
        <ele>175.1</ele>
        <time>2017-02-11T14:31:24Z</time>
      </trkpt>
      <trkpt lat="43.57711" lon="0.71809">
        <ele>175.58</ele>
        <time>2017-02-11T14:31:42Z</time>
      </trkpt>
      <trkpt lat="43.57694" lon="0.71814">
        <ele>174.62</ele>
        <time>2017-02-11T14:31:59Z</time>
      </trkpt>
      <trkpt lat="43.57678" lon="0.71832">
        <ele>174.62</ele>
        <time>2017-02-11T14:32:18Z</time>
      </trkpt>
      <trkpt lat="43.57673" lon="0.71848">
        <ele>174.14</ele>
        <time>2017-02-11T14:32:33Z</time>
      </trkpt>
      <trkpt lat="43.57664" lon="0.7187">
        <ele>174.14</ele>
        <time>2017-02-11T14:32:49Z</time>
      </trkpt>
      <trkpt lat="43.57654" lon="0.71897">
        <ele>173.66</ele>
        <time>2017-02-11T14:33:09Z</time>
      </trkpt>
      <trkpt lat="43.57643" lon="0.7192">
        <ele>173.66</ele>
        <time>2017-02-11T14:33:27Z</time>
      </trkpt>
      <trkpt lat="43.57634" lon="0.71941">
        <ele>173.66</ele>
        <time>2017-02-11T14:33:44Z</time>
      </trkpt>
      <trkpt lat="43.57626" lon="0.71957">
        <ele>174.14</ele>
        <time>2017-02-11T14:33:59Z</time>
      </trkpt>
      <trkpt lat="43.57617" lon="0.71979">
        <ele>174.14</ele>
        <time>2017-02-11T14:34:17Z</time>
      </trkpt>
      <trkpt lat="43.57607" lon="0.72">
        <ele>175.1</ele>
        <time>2017-02-11T14:34:35Z</time>
      </trkpt>
      <trkpt lat="43.576" lon="0.72018">
        <ele>175.58</ele>
        <time>2017-02-11T14:34:50Z</time>
      </trkpt>
      <trkpt lat="43.57599" lon="0.72022">
        <ele>176.06</ele>
        <time>2017-02-11T14:34:53Z</time>
      </trkpt>
      <trkpt lat="43.57589" lon="0.72046">
        <ele>175.58</ele>
        <time>2017-02-11T14:35:12Z</time>
      </trkpt>
      <trkpt lat="43.57576" lon="0.72073">
        <ele>175.1</ele>
        <time>2017-02-11T14:35:33Z</time>
      </trkpt>
      <trkpt lat="43.57568" lon="0.72087">
        <ele>175.1</ele>
        <time>2017-02-11T14:35:45Z</time>
      </trkpt>
      <trkpt lat="43.57557" lon="0.72109">
        <ele>175.1</ele>
        <time>2017-02-11T14:36:02Z</time>
      </trkpt>
      <trkpt lat="43.57547" lon="0.7213">
        <ele>175.58</ele>
        <time>2017-02-11T14:36:18Z</time>
      </trkpt>
      <trkpt lat="43.57531" lon="0.72147">
        <ele>175.58</ele>
        <time>2017-02-11T14:36:34Z</time>
      </trkpt>
      <trkpt lat="43.57523" lon="0.72164">
        <ele>176.54</ele>
        <time>2017-02-11T14:36:49Z</time>
      </trkpt>
      <trkpt lat="43.57509" lon="0.72173">
        <ele>177.5</ele>
        <time>2017-02-11T14:37:05Z</time>
      </trkpt>
      <trkpt lat="43.57493" lon="0.72185">
        <ele>178.46</ele>
        <time>2017-02-11T14:37:18Z</time>
      </trkpt>
      <trkpt lat="43.57481" lon="0.72188">
        <ele>180.38</ele>
        <time>2017-02-11T14:37:32Z</time>
      </trkpt>
      <trkpt lat="43.57468" lon="0.72197">
        <ele>181.83</ele>
        <time>2017-02-11T14:37:47Z</time>
      </trkpt>
      <trkpt lat="43.57453" lon="0.72205">
        <ele>183.75</ele>
        <time>2017-02-11T14:38:02Z</time>
      </trkpt>
      <trkpt lat="43.57452" lon="0.72206">
        <ele>183.75</ele>
        <time>2017-02-11T14:38:03Z</time>
      </trkpt>
      <trkpt lat="43.57443" lon="0.72217">
        <ele>185.67</ele>
        <time>2017-02-11T14:38:16Z</time>
      </trkpt>
      <trkpt lat="43.57441" lon="0.7222">
        <ele>185.67</ele>
        <time>2017-02-11T14:38:18Z</time>
      </trkpt>
      <trkpt lat="43.57429" lon="0.72233">
        <ele>187.59</ele>
        <time>2017-02-11T14:38:33Z</time>
      </trkpt>
      <trkpt lat="43.57424" lon="0.72246">
        <ele>189.52</ele>
        <time>2017-02-11T14:38:48Z</time>
      </trkpt>
      <trkpt lat="43.57428" lon="0.72246">
        <ele>191.44</ele>
        <time>2017-02-11T14:39:03Z</time>
      </trkpt>
      <trkpt lat="43.57434" lon="0.72245">
        <ele>191.92</ele>
        <time>2017-02-11T14:39:08Z</time>
      </trkpt>
      <trkpt lat="43.57447" lon="0.72243">
        <ele>193.84</ele>
        <time>2017-02-11T14:39:23Z</time>
      </trkpt>
      <trkpt lat="43.57461" lon="0.72239">
        <ele>195.77</ele>
        <time>2017-02-11T14:39:37Z</time>
      </trkpt>
      <trkpt lat="43.57477" lon="0.72235">
        <ele>198.17</ele>
        <time>2017-02-11T14:39:55Z</time>
      </trkpt>
      <trkpt lat="43.57489" lon="0.72232">
        <ele>200.57</ele>
        <time>2017-02-11T14:40:10Z</time>
      </trkpt>
      <trkpt lat="43.57502" lon="0.72228">
        <ele>202.98</ele>
        <time>2017-02-11T14:40:24Z</time>
      </trkpt>
      <trkpt lat="43.57509" lon="0.72227">
        <ele>203.94</ele>
        <time>2017-02-11T14:40:40Z</time>
      </trkpt>
      <trkpt lat="43.5752" lon="0.72222">
        <ele>204.9</ele>
        <time>2017-02-11T14:40:56Z</time>
      </trkpt>
      <trkpt lat="43.57523" lon="0.72221">
        <ele>204.9</ele>
        <time>2017-02-11T14:41:10Z</time>
      </trkpt>
      <trkpt lat="43.57525" lon="0.72223">
        <ele>205.38</ele>
        <time>2017-02-11T14:41:26Z</time>
      </trkpt>
      <trkpt lat="43.57538" lon="0.72221">
        <ele>206.34</ele>
        <time>2017-02-11T14:41:41Z</time>
      </trkpt>
      <trkpt lat="43.5755" lon="0.72221">
        <ele>206.82</ele>
        <time>2017-02-11T14:41:53Z</time>
      </trkpt>
      <trkpt lat="43.57555" lon="0.72222">
        <ele>207.3</ele>
        <time>2017-02-11T14:41:58Z</time>
      </trkpt>
      <trkpt lat="43.57558" lon="0.72227">
        <ele>207.78</ele>
        <time>2017-02-11T14:42:02Z</time>
      </trkpt>
      <trkpt lat="43.5756" lon="0.72246">
        <ele>209.22</ele>
        <time>2017-02-11T14:42:19Z</time>
      </trkpt>
      <trkpt lat="43.57558" lon="0.72262">
        <ele>212.59</ele>
        <time>2017-02-11T14:42:34Z</time>
      </trkpt>
      <trkpt lat="43.57557" lon="0.72271">
        <ele>215.47</ele>
        <time>2017-02-11T14:42:47Z</time>
      </trkpt>
      <trkpt lat="43.57556" lon="0.72282">
        <ele>218.36</ele>
        <time>2017-02-11T14:43:00Z</time>
      </trkpt>
      <trkpt lat="43.57555" lon="0.72288">
        <ele>221.24</ele>
        <time>2017-02-11T14:43:14Z</time>
      </trkpt>
      <trkpt lat="43.5755" lon="0.72299">
        <ele>222.2</ele>
        <time>2017-02-11T14:43:27Z</time>
      </trkpt>
      <trkpt lat="43.57544" lon="0.72307">
        <ele>223.16</ele>
        <time>2017-02-11T14:43:41Z</time>
      </trkpt>
      <trkpt lat="43.57537" lon="0.72315">
        <ele>224.12</ele>
        <time>2017-02-11T14:43:54Z</time>
      </trkpt>
      <trkpt lat="43.57533" lon="0.72319">
        <ele>224.12</ele>
        <time>2017-02-11T14:44:00Z</time>
      </trkpt>
      <trkpt lat="43.5753" lon="0.72321">
        <ele>224.12</ele>
        <time>2017-02-11T14:44:04Z</time>
      </trkpt>
      <trkpt lat="43.57524" lon="0.72336">
        <ele>226.05</ele>
        <time>2017-02-11T14:44:18Z</time>
      </trkpt>
      <trkpt lat="43.57523" lon="0.72339">
        <ele>226.53</ele>
        <time>2017-02-11T14:44:21Z</time>
      </trkpt>
      <trkpt lat="43.57522" lon="0.72356">
        <ele>228.45</ele>
        <time>2017-02-11T14:44:37Z</time>
      </trkpt>
      <trkpt lat="43.57525" lon="0.72375">
        <ele>229.89</ele>
        <time>2017-02-11T14:44:53Z</time>
      </trkpt>
      <trkpt lat="43.57533" lon="0.72393">
        <ele>231.81</ele>
        <time>2017-02-11T14:45:08Z</time>
      </trkpt>
      <trkpt lat="43.57539" lon="0.72407">
        <ele>233.26</ele>
        <time>2017-02-11T14:45:23Z</time>
      </trkpt>
      <trkpt lat="43.57543" lon="0.72413">
        <ele>234.7</ele>
        <time>2017-02-11T14:45:37Z</time>
      </trkpt>
      <trkpt lat="43.57553" lon="0.72416">
        <ele>236.62</ele>
        <time>2017-02-11T14:45:53Z</time>
      </trkpt>
      <trkpt lat="43.5756" lon="0.72426">
        <ele>238.06</ele>
        <time>2017-02-11T14:46:10Z</time>
      </trkpt>
      <trkpt lat="43.57567" lon="0.72434">
        <ele>239.99</ele>
        <time>2017-02-11T14:46:25Z</time>
      </trkpt>
      <trkpt lat="43.57567" lon="0.72434">
        <ele>240.47</ele>
        <time>2017-02-11T14:46:43Z</time>
      </trkpt>
      <trkpt lat="43.57569" lon="0.72435">
        <ele>239.99</ele>
        <time>2017-02-11T14:47:04Z</time>
      </trkpt>
      <trkpt lat="43.57568" lon="0.72434">
        <ele>240.47</ele>
        <time>2017-02-11T14:47:32Z</time>
      </trkpt>
      <trkpt lat="43.57565" lon="0.72433">
        <ele>240.47</ele>
        <time>2017-02-11T14:47:47Z</time>
      </trkpt>
      <trkpt lat="43.57565" lon="0.72435">
        <ele>240.47</ele>
        <time>2017-02-11T14:48:16Z</time>
      </trkpt>
      <trkpt lat="43.57568" lon="0.72433">
        <ele>240.95</ele>
        <time>2017-02-11T14:48:45Z</time>
      </trkpt>
      <trkpt lat="43.57569" lon="0.72431">
        <ele>240.47</ele>
        <time>2017-02-11T14:49:07Z</time>
      </trkpt>
      <trkpt lat="43.57569" lon="0.72429">
        <ele>240.95</ele>
        <time>2017-02-11T14:49:31Z</time>
      </trkpt>
      <trkpt lat="43.57576" lon="0.72426">
        <ele>241.43</ele>
        <time>2017-02-11T14:49:47Z</time>
      </trkpt>
      <trkpt lat="43.57574" lon="0.7243">
        <ele>241.91</ele>
        <time>2017-02-11T14:50:01Z</time>
      </trkpt>
      <trkpt lat="43.57583" lon="0.72435">
        <ele>241.43</ele>
        <time>2017-02-11T14:50:20Z</time>
      </trkpt>
      <trkpt lat="43.57583" lon="0.72432">
        <ele>241.91</ele>
        <time>2017-02-11T14:50:43Z</time>
      </trkpt>
      <trkpt lat="43.57586" lon="0.72432">
        <ele>241.91</ele>
        <time>2017-02-11T14:51:04Z</time>
      </trkpt>
      <trkpt lat="43.57588" lon="0.72432">
        <ele>241.43</ele>
        <time>2017-02-11T14:51:29Z</time>
      </trkpt>
      <trkpt lat="43.57584" lon="0.7243">
        <ele>241.43</ele>
        <time>2017-02-11T14:51:50Z</time>
      </trkpt>
      <trkpt lat="43.57586" lon="0.72432">
        <ele>241.43</ele>
        <time>2017-02-11T14:52:13Z</time>
      </trkpt>
      <trkpt lat="43.57584" lon="0.72429">
        <ele>241.43</ele>
        <time>2017-02-11T14:52:35Z</time>
      </trkpt>
      <trkpt lat="43.57586" lon="0.72434">
        <ele>240.47</ele>
        <time>2017-02-11T14:52:46Z</time>
      </trkpt>
      <trkpt lat="43.57587" lon="0.72438">
        <ele>239.99</ele>
        <time>2017-02-11T14:53:23Z</time>
      </trkpt>
      <trkpt lat="43.57586" lon="0.72438">
        <ele>239.99</ele>
        <time>2017-02-11T14:54:00Z</time>
      </trkpt>
      <trkpt lat="43.57587" lon="0.72442">
        <ele>240.47</ele>
        <time>2017-02-11T14:54:24Z</time>
      </trkpt>
    </trkseg>
  </trk>
</gpx>